Click on a file's icon to view the file in the browser.

PRE DATA

Datetime Category Release
2021-03-11 00:00:20 MP3 Adjusted-Defected_Sequence_(Remastered)-(WEB)-2021-RUMBLE
2021-03-11 00:00:21 MP3-WEB Trisector-Escapism_EP-DSCI4EP014-WEB-2016-MKD
2021-03-11 00:00:37 MP3-WEB Gavinco-Down_and_Out-(SATTAVA001)-WEB-2020-x0x0s
2021-03-11 00:00:37 FLAC The_Whisky_Priests-The_Power_And_The_Glory-CD-FLAC-1994-FiXIE
2021-03-11 00:00:44 MP3 Burning_Nickels-Cobwebs-(WEB)-2021-RUMBLE
2021-03-11 00:01:12 MP3-WEB Silence_Path-Alternative_Reality-(LOOTREC031)-WEB-2021-x0x0s
2021-03-11 00:01:28 TV-WEB-HD-X264 Wahlgrens.Varld.S09E08.SWEDiSH.720p.WEB.H264-SUECOS
2021-03-11 00:01:34 MP3 Counterpunch-Handbook_For_The_Recently_Debriefed-(WEB)-2021-RUMBLE
2021-03-11 00:01:39 TV-WEB-HD-X264 Boda.Camping.S05E08.SWEDiSH.720p.WEB.H264-SUECOS
2021-03-11 00:01:53 MP3-WEB Bumpz-Feelings-(PRT015)-WEB-2021-x0x0s
2021-03-11 00:02:01 TV-WEB-HD-X264 Wahlgrens.Varld.S09E08.SWEDiSH.1080p.WEB.H264-SUECOS
2021-03-11 00:02:03 TV-WEB-HD-X264 Boda.Camping.S05E08.SWEDiSH.1080p.WEB.H264-SUECOS
2021-03-11 00:02:11 MP3 Go_Great_Guns-Roots-(WEB)-2021-RUMBLE
2021-03-11 00:02:25 MP3-WEB Doga_Erbek-Horizon-(THREERECORDS11)-SINGLE-WEB-2021-x0x0s
2021-03-11 00:02:25 TV-WEB-HD-X264 Forsidefruer.S09E08.DANISH.720p.WEB.H264-BALLIN
2021-03-11 00:02:32 TV-WEB-HD-X264 Masterchef.S07E25.DANISH.720p.WEB.H264-BALLIN
2021-03-11 00:02:34 TV-WEB-HD-X264 Forsidefruer.S09E08.DANISH.1080p.WEB.H264-BALLIN
2021-03-11 00:03:02 MP3-WEB Integral_Bread-Collage-(UV077)-WEB-2021-x0x0s
2021-03-11 00:03:35 MP3-WEB Pena-The_Promised_Land-(SATTA013)-WEB-2020-x0x0s
2021-03-11 00:03:46 TV-WEB-HD-X264 Der.Bachelor.S11E09.GERMAN.1080p.WEB.x264-RUBBiSH
2021-03-11 00:03:54 XXX-HD 3.To.Play.2.XXX.iNTERNAL.720p.WEBRiP.MP4-GUSH
2021-03-11 00:04:09 MP3-WEB Yost_Koen-Spacetime-(ASLI001)-WEB-2019-x0x0s
2021-03-11 00:04:30 TV-WEB-HD-X264 Der.Bachelor.S11E09.GERMAN.720p.WEB.x264-RUBBiSH
2021-03-11 00:04:46 MP3-WEB Missen-UK_Jungle_Records_Presents_Missen-23_16-(UKJ00015)-WEB-2018-x0x0s
2021-03-11 00:05:23 TV-WEB-HD-X264 Masterchef.S07E25.DANISH.1080p.WEB.H264-BALLIN
2021-03-11 00:06:48 MP3-WEB CtLtc_RE.Forming-Emotions-(KHR013)-WEB-2021-x0x0s
2021-03-11 00:07:01 TV-HD-X264 On.the.Case.-.Unter.Mordverdacht.S16E10.Rohe.Gewalt.German.DOKU.720p.HDTV.x264-ATAX
2021-03-11 00:07:30 MP3-WEB VA-Ethno_Sorcery-(CRR008)-WEB-2019-x0x0s
2021-03-11 00:08:04 MP3-WEB Tutu_Atrash-My_Mind_Be_Blossoming-(ASLI005)-WEB-2019-x0x0s
2021-03-11 00:08:38 MP3-WEB Kate_Ozz-Venus_Rising-(SFLD025)-WEB-2021-x0x0s
2021-03-11 00:09:09 TV-WEB-HD-X264 Kongen.Befaler.S03E07.NORWEGiAN.720p.WEB.h264-BAKFYLLA
2021-03-11 00:09:12 MP3-WEB Itai-Baghdad-(CRR012)-WEB-2019-x0x0s
2021-03-11 00:09:25 TV-SD-X264 On.the.Case.-.Unter.Mordverdacht.S16E10.Rohe.Gewalt.German.DOKU.HDTVRip.x264-ATAX
2021-03-11 00:09:44 TV-WEB-HD-X264 The.Pembrokeshire.Murders.S01E01.GERMAN.DL.1080P.WEB.X264-WAYNE
2021-03-11 00:09:49 MP3-WEB Apocrypha-Across_The_Valley-(RYNTH059)-WEB-2021-x0x0s
2021-03-11 00:10:22 MP3-WEB VA-Electronic_Resources_Vol_23-(NL299)-WEB-2021-x0x0s
2021-03-11 00:10:55 TV-HD-X264 Comedy.Club.S05E08.720p.HDTV.x264.CZ-iCZi
2021-03-11 00:10:56 TV-HD-X265 Comedy.Club.S05E08.1080p.HDTV.x265.iNTERNAL.CZ-iCZi
2021-03-11 00:11:00 TV-HD-X264 The.Salisbury.Poisonings.S01E02.720p.HDTV.x264.CZ-iCZi
2021-03-11 00:11:03 MP3-WEB VA-UK_Jungle_Records_Presents_UK_Jungle_Volume_1-(UKJ00006)-WEB-2015-x0x0s
2021-03-11 00:11:03 TV-HD-X265 The.Salisbury.Poisonings.S01E02.1080p.HDTV.x265.iNTERNAL.CZ-iCZi
2021-03-11 00:11:05 TV-HD-X264 The.Salisbury.Poisonings.S01E01.720p.HDTV.x264.CZ-iCZi
2021-03-11 00:11:07 TV-HD-X265 The.Salisbury.Poisonings.S01E01.1080p.HDTV.x265.iNTERNAL.CZ-iCZi
2021-03-11 00:11:34 MP3-WEB Daniel_Hokum-Tarantula-(AKSH067)-WEB-2021-x0x0s
2021-03-11 00:11:40 TV-SD-X264 Beyond.Belief.Fact.or.Fiction.S02E01.HR.PDTV.x264.CZ-iCZi
2021-03-11 00:11:43 TV-SD-X264 Beyond.Belief.Fact.or.Fiction.S02E02.HR.PDTV.x264.CZ-iCZi
2021-03-11 00:11:44 TV-SD-X264 Beyond.Belief.Fact.or.Fiction.S02E03.HR.PDTV.x264.CZ-iCZi
2021-03-11 00:11:47 TV-SD-X264 Beyond.Belief.Fact.or.Fiction.S02E04.HR.PDTV.x264.CZ-iCZi
2021-03-11 00:11:49 TV-SD-X264 Beyond.Belief.Fact.or.Fiction.S02E05.HR.PDTV.x264.CZ-iCZi
2021-03-11 00:11:51 TV-SD-X264 Beyond.Belief.Fact.or.Fiction.S02E06.HR.PDTV.x264.CZ-iCZi
2021-03-11 00:11:54 TV-SD-X264 Beyond.Belief.Fact.or.Fiction.S02E07.HR.PDTV.x264.CZ-iCZi
2021-03-11 00:11:58 TV-SD-X264 Beyond.Belief.Fact.or.Fiction.S02E08.HR.PDTV.x264.CZ-iCZi
2021-03-11 00:11:59 TV-SD-X264 Beyond.Belief.Fact.or.Fiction.S02E09.HR.PDTV.x264.CZ-iCZi
2021-03-11 00:12:02 TV-SD-X264 Beyond.Belief.Fact.or.Fiction.S02E10.HR.PDTV.x264.CZ-iCZi
2021-03-11 00:12:06 TV-SD-X264 Beyond.Belief.Fact.or.Fiction.S02E11.HR.PDTV.x264.CZ-iCZi
2021-03-11 00:12:08 TV-WEB-HD-X264 Kongen.Befaler.S03E07.NORWEGiAN.1080p.WEB.h264-BAKFYLLA
2021-03-11 00:12:14 TV-SD-X264 Beyond.Belief.Fact.or.Fiction.S02E12.HR.PDTV.x264.CZ-iCZi
2021-03-11 00:12:15 TV-SD-X264 Beyond.Belief.Fact.or.Fiction.S02E13.HR.PDTV.x264.CZ-iCZi
2021-03-11 00:12:39 MP3-WEB VA-Oasisphere_(Compiled_By_Salvo_Migliorini)-(CRR022)-WEB-2020-x0x0s
2021-03-11 00:12:49 TV-WEB-HD-X264 The.Pembrokeshire.Murders.S01E02.GERMAN.DL.1080P.WEB.X264-WAYNE
2021-03-11 00:13:14 MP3-WEB Kalmer-Forever_Dreamer_EP-(BR009)-WEB-2021-x0x0s
2021-03-11 00:13:29 TV-SD-X264 Comedy.Club.S05E08.HDTV.x264.CZ-iCZi
2021-03-11 00:13:35 TV-SD-X264 The.Salisbury.Poisonings.S01E02.HDTV.x264.CZ-iCZi
2021-03-11 00:13:40 TV-SD-X264 The.Salisbury.Poisonings.S01E01.HDTV.x264.CZ-iCZi
2021-03-11 00:13:49 TV-WEB-HD-X264 Kings.Of.Kush.S01E01.1080p.WEB.h264-BAE
2021-03-11 00:13:50 MP3-WEB Mt_Axel-Coba-(TRNDMSK32)-WEB-2021-x0x0s
2021-03-11 00:13:52 TV-WEB-HD-X264 Kings.Of.Kush.S01E01.720p.WEBRip.x264-BAE
2021-03-11 00:13:55 TV-WEB-SD-X264 Kings.Of.Kush.S01E01.WEBRip.x264-BAE
2021-03-11 00:14:33 MP3-WEB VA-Variety_Music_Pres_Signature_Vol_2-(VMCOMP670)-WEB-2021-x0x0s
2021-03-11 00:14:53 TV-WEB-HD-X264 The.Pembrokeshire.Murders.S01E03.GERMAN.DL.1080P.WEB.X264-WAYNE
2021-03-11 00:15:07 MP3-WEB TACHES-Sacred_Heart-(GLTR011A)-WEB-2020-x0x0s
2021-03-11 00:15:40 MP3-WEB Supa_Ape-UK_Jungle_Records_Presents_Supa_Ape_Meets_Lady_Soul-(UKJ002D)-WEB-2019-x0x0s
2021-03-11 00:15:52 TV-WEB-HD-X264 Ex.On.The.Beach.Norge.S04E05.NORWEGiAN.720p.WEB.h264-BAKFYLLA
2021-03-11 00:16:14 MP3-WEB Definition-Lux_EP-(DMU087)-WEB-2021-x0x0s
2021-03-11 00:16:26 MP3-WEB T_G_M-Searching-MNCH035-WEB-2016-MKD
2021-03-11 00:16:46 MP3-WEB Yago_Ertan-Zaman-(TRNDMSK33)-SINGLE-WEB-2021-x0x0s
2021-03-11 00:17:30 MP3-WEB VA-Variety_Music_Pres_Signature_Vol_1-(VMCOMP657)-WEB-2020-x0x0s
2021-03-11 00:18:19 MP3-WEB VA-Variety_Music_Pres_Signature_Vol_3-(VMCOMP702)-WEB-2021-x0x0s
2021-03-11 00:18:21 TV-WEB-HD-X264 Ex.On.The.Beach.Norge.S04E05.NORWEGiAN.1080p.WEB.h264-BAKFYLLA
2021-03-11 00:18:53 MP3-WEB Nandao-Zurnando-(CRR020)-WEB-2020-x0x0s
2021-03-11 00:19:00 TV-WEB-HD-X264 The.Pembrokeshire.Murders.S01E01.German.DL.720p.WEB.x264-WvF
2021-03-11 00:19:14 TV-SD-X264 Ridiculousness.S20E15.HDTV.x264-YesTV
2021-03-11 00:19:17 TV-HD-X264 Ridiculousness.S20E15.720p.HDTV.x264-YesTV
2021-03-11 00:19:27 TV-SD-X264 Ridiculousness.S20E16.HDTV.x264-YesTV
2021-03-11 00:19:31 TV-HD-X264 Ridiculousness.S20E16.720p.HDTV.x264-YesTV
2021-03-11 00:19:37 MP3-WEB VA-Tones_and_Melodies_Vol_1-(VMCOMP700)-WEB-2021-x0x0s
2021-03-11 00:19:40 TV-SD-X264 Ridiculousness.S20E17.HDTV.x264-YesTV
2021-03-11 00:19:43 TV-HD-X264 Ridiculousness.S20E17.720p.HDTV.x264-YesTV
2021-03-11 00:19:51 TV-SD-X264 Ridiculousness.S20E18.HDTV.x264-YesTV
2021-03-11 00:19:52 TV-WEB-HD-X264 Brothers.and.Sisters.S05E02.German.DL.1080p.WebHD.x264-FKKTV
2021-03-11 00:19:55 TV-HD-X264 Ridiculousness.S20E18.720p.HDTV.x264-YesTV
2021-03-11 00:20:14 MP3-WEB VA-Winter_Vibes_IV-(AVA010)-WEB-2021-x0x0s
2021-03-11 00:20:46 MP3-WEB Strebor-Regulate-(SATTA016)-WEB-2020-x0x0s
2021-03-11 00:20:49 TV-WEB-HD-X264 Brothers.and.Sisters.S05E03.German.DL.1080p.WebHD.x264-FKKTV
2021-03-11 00:21:17 MP3-WEB Jeff_Eveline_x_Outer-Vanity_World-(GLTR010)-WEB-2019-x0x0s
2021-03-11 00:21:47 TV-WEB-HD-X264 Brothers.and.Sisters.S05E04.German.DL.1080p.WebHD.x264-FKKTV
2021-03-11 00:21:50 MP3-WEB Joe_Valentin-Polyphonic_Thoughts-(TTM030)-SINGLE-WEB-2021-x0x0s
2021-03-11 00:22:23 MP3-WEB Le_Jeune_Fluck-Unexpected_Ends-(SIN010)-WEB-2021-x0x0s
2021-03-11 00:22:44 TV-WEB-HD-X264 Brothers.and.Sisters.S05E05.German.DL.1080p.WebHD.x264-FKKTV
2021-03-11 00:22:56 MP3-WEB VA-The_Dwellers-(SATTAVA002X)-WEB-2021-x0x0s
2021-03-11 00:23:41 TV-WEB-HD-X264 Brothers.and.Sisters.S05E06.German.DL.1080p.WebHD.x264-FKKTV
2021-03-11 00:23:49 MP3-WEB VA-Tribu_Ancestral_(Compiled_By_David_Madrid)-(CRR026)-WEB-2021-x0x0s
2021-03-11 00:24:06 TV-WEB-HD-X264 Dark.Side.Of.The.Ring.S02E00.Confidential.The.Mysterious.Death.Of.Gorgeous.Gino.1080p.WEB.h264-BAE
2021-03-11 00:24:07 TV-WEB-HD-X264 Dark.Side.Of.The.Ring.S02E00.Confidential.The.Mysterious.Death.Of.Gorgeous.Gino.720p.WEBRip.x264-BAE
2021-03-11 00:24:10 TV-WEB-SD-X264 Dark.Side.Of.The.Ring.S02E00.Confidential.The.Mysterious.Death.Of.Gorgeous.Gino.WEBRip.x264-BAE
2021-03-11 00:24:19 XXX-HD 3.To.Play.2.XXX.iNTERNAL.1080p.WEBRiP.MP4-GUSH
2021-03-11 00:24:24 TV-WEB-HD-X264 Insider.FEM.S04E10.NORWEGiAN.720p.WEB.h264-BAKFYLLA
2021-03-11 00:24:26 MP3-WEB Tony_Jungle-UK_Jungle_Records_Presents_Tony_Jungle-Yonder-(UKJ00003)-WEB-2019-x0x0s
2021-03-11 00:24:40 TV-WEB-HD-X264 Brothers.and.Sisters.S05E07.German.DL.1080p.WebHD.x264-FKKTV
2021-03-11 00:24:57 MP3-WEB Van_Morph-Stardust-(KHR014)-WEB-2021-x0x0s
2021-03-11 00:25:30 MP3-WEB Thousand_Fingers-Ba_Ba_Virtue-(FTF003)-WEB-2021-x0x0s
2021-03-11 00:25:37 TV-WEB-HD-X264 Brothers.and.Sisters.S05E08.German.DL.1080p.WebHD.x264-FKKTV
2021-03-11 00:26:01 MP3-WEB TACHES-Glitter_Cowboy_Remixes_Vol_1-(GLTR007)-WEB-2019-x0x0s
2021-03-11 00:26:34 MP3-WEB VKD-Cant_You_See-(RYNTH058)-WEB-2021-x0x0s
2021-03-11 00:26:35 TV-WEB-HD-X264 Brothers.and.Sisters.S05E09.German.DL.1080p.WebHD.x264-FKKTV
2021-03-11 00:27:08 MP3-WEB VA-Fantastic_Four_Vol_3-(FG436)-WEB-2021-x0x0s
2021-03-11 00:27:37 TV-WEB-HD-X264 Brothers.and.Sisters.S05E10.German.DL.1080p.WebHD.x264-FKKTV
2021-03-11 00:27:38 MP3-WEB Elliot_Moriarty-Cascading_Memories-(SP085)-WEB-2021-x0x0s
2021-03-11 00:28:10 MP3-WEB Biotech_Patagonia-Iceland-(MOON40)-WEB-2021-x0x0s
2021-03-11 00:28:13 TV-HD-X264 On.the.Case.-.Unter.Mordverdacht.S16E11.Ohne.Abschiedskuss.German.DOKU.1080p.HDTV.x264-ATAX
2021-03-11 00:28:34 TV-WEB-HD-X264 Brothers.and.Sisters.S05E11.German.DL.1080p.WebHD.x264-FKKTV
2021-03-11 00:28:44 MP3-WEB Jacopo_Sb-Last_Romantics-(SATTA006)-WEB-2019-x0x0s
2021-03-11 00:29:16 MP3-WEB Jochen_Pash_x_Shahd-Ya_3omri-(W252)-WEB-2021-x0x0s
2021-03-11 00:29:26 TV-WEB-HD-X264 Insider.FEM.S04E10.NORWEGiAN.1080p.WEB.h264-BAKFYLLA
2021-03-11 00:29:31 TV-WEB-HD-X264 Brothers.and.Sisters.S05E12.German.DL.1080p.WebHD.x264-FKKTV
2021-03-11 00:30:30 TV-WEB-HD-X264 Brothers.and.Sisters.S05E13.German.DL.1080p.WebHD.x264-FKKTV
2021-03-11 00:31:29 TV-WEB-HD-X264 Brothers.and.Sisters.S05E14.German.DL.1080p.WebHD.x264-FKKTV
2021-03-11 00:32:27 TV-WEB-HD-X264 Brothers.and.Sisters.S05E15.German.DL.1080p.WebHD.x264-FKKTV
2021-03-11 00:33:25 TV-WEB-HD-X264 Brothers.and.Sisters.S05E16.German.DL.1080p.WebHD.x264-FKKTV
2021-03-11 00:34:29 TV-WEB-HD-X264 Brothers.and.Sisters.S05E17.German.DL.1080p.WebHD.x264-FKKTV
2021-03-11 00:35:27 TV-WEB-HD-X264 Brothers.and.Sisters.S05E18.German.DL.1080p.WebHD.x264-FKKTV
2021-03-11 00:36:24 TV-WEB-HD-X264 Brothers.and.Sisters.S05E19.German.DL.1080p.WebHD.x264-FKKTV
2021-03-11 00:37:22 TV-WEB-HD-X264 Brothers.and.Sisters.S05E20.German.DL.1080p.WebHD.x264-FKKTV
2021-03-11 00:38:19 TV-WEB-HD-X264 Brothers.and.Sisters.S05E21.German.DL.1080p.WebHD.x264-FKKTV
2021-03-11 00:38:28 MP3-WEB Dylantheinfamous-Moonloops_Vol_1-(BLAHD112)-WEB-2020-x0x0s
2021-03-11 00:39:06 MP3-WEB Dylantheinfamous-Moonloops_Vol_2-(BLAHD150)-WEB-2021-x0x0s
2021-03-11 00:39:17 TV-WEB-HD-X264 Brothers.and.Sisters.S05E22.German.DL.1080p.WebHD.x264-FKKTV
2021-03-11 00:39:52 TV-WEB-HD-X264 The.Pembrokeshire.Murders.S01E02.German.DL.720p.WEB.x264-WvF
2021-03-11 00:40:41 TV-WEB-HD-X264 The.Pembrokeshire.Murders.S01E03.German.DL.720p.WEB.x264-WvF
2021-03-11 00:41:09 TV-WEB-HD-X264 Are.You.the.One.S02E15.GERMAN.1080p.WEB.x264-RUBBiSH
2021-03-11 00:41:15 TV-WEB-HD-X264 4-Stjerners.Middag.S13E09.NORWEGiAN.1080p.WEB.h264-BAKFYLLA
2021-03-11 00:41:59 TV-WEB-HD-X264 Are.You.the.One.S02E16.GERMAN.1080p.WEB.x264-RUBBiSH
2021-03-11 00:42:16 TV-WEB-HD-X264 4-Stjerners.Middag.S13E09.NORWEGiAN.720p.WEB.h264-BAKFYLLA
2021-03-11 00:42:42 TV-WEB-HD-X264 Are.You.the.One.S02E15.GERMAN.720p.WEB.x264-RUBBiSH
2021-03-11 00:43:08 XXX-HD AuntJudys.21.03.10.Star.Works.Out.Then.Gets.Off.XXX.1080p.MP4-WRB
2021-03-11 00:43:11 TV-WEB-HD-X264 Are.You.the.One.S02E16.GERMAN.720p.WEB.x264-RUBBiSH
2021-03-11 00:43:51 TV-WEB-HD-X264 Stalk.S01E05.GERMAN.1080P.WEB.H264-WAYNE
2021-03-11 00:44:01 TV-WEB-HD-X264 4-Stjerners.Middag.S13E10.NORWEGiAN.1080p.WEB.h264-BAKFYLLA
2021-03-11 00:44:19 TV-WEB-HD-X264 Stalk.S01E06.GERMAN.1080P.WEB.H264-WAYNE
2021-03-11 00:45:09 TV-WEB-HD-X264 4-Stjerners.Middag.S13E10.NORWEGiAN.720p.WEB.h264-BAKFYLLA
2021-03-11 00:45:46 XXX-HD SexInTaxi.E22.Billie.Star.CZECH.XXX.1080p.MP4-WRB
2021-03-11 00:47:20 TV-WEB-HD-X264 4-Stjerners.Middag.S13E11.NORWEGiAN.720p.WEB.h264-BAKFYLLA
2021-03-11 00:47:57 XXX-HD PornMegaLoad.21.03.10.Emma.Sirus.Her.Own.Best.Cum-Pany.XXX.1080p.MP4-WRB
2021-03-11 00:49:13 MP3-WEB VA-Back_To_Minimal_EP-ASTRDIG038-WEB-2016-MKD
2021-03-11 00:49:33 TV-WEB-HD-X264 4-Stjerners.Middag.S13E11.NORWEGiAN.1080p.WEB.h264-BAKFYLLA
2021-03-11 00:50:10 TV-WEB-HD-X264 Lets.Make.A.Deal.2009.S12E74.1080p.WEB.h264-BAE
2021-03-11 00:50:13 TV-WEB-HD-X264 Lets.Make.A.Deal.2009.S12E74.720p.WEB.h264-BAE
2021-03-11 00:50:15 MP3-WEB VA-A_New_Tribe-LIGHTLESSDIGILP005-WEB-2016-MKD
2021-03-11 00:50:16 TV-WEB-SD-X264 Lets.Make.A.Deal.2009.S12E74.WEB.h264-BAE
2021-03-11 00:50:17 TV-WEB-HD-X264 The.Price.Is.Right.S49E73.1080p.WEB.h264-BAE
2021-03-11 00:50:20 TV-WEB-HD-X264 The.Price.Is.Right.S49E73.720p.WEB.h264-BAE
2021-03-11 00:50:21 MP3-WEB B_R_1_0_0_2--Sinister_Assault_EP-(SPRB006)-WEB-2016-BABAS
2021-03-11 00:50:21 TV-WEB-SD-X264 The.Price.Is.Right.S49E73.WEB.h264-BAE
2021-03-11 00:50:48 MP3-WEB Mechanique--Complex_Behaviour_LP_(Deluxe_Edition)-(018SDLP)-WEB-2016-BABAS
2021-03-11 00:50:54 XXX-HD PornMegaLoad.21.03.10.Emma.Sirus.Her.Own.Best.Cum-Pany.XXX.2160p.MP4-WRB
2021-03-11 00:51:30 MP3-WEB Mike_Storm--From_Planet_To_Planet_EP-(SPRB004)-WEB-2015-BABAS
2021-03-11 00:51:49 MP3-WEB VA-Intelligheniza_Eletronica_Vol_1-(INTRS1005)-WEB-2014-x0x0s
2021-03-11 00:53:44 BDRIP-X264 Trolls.Tour.Mundial.2020.PORTUGUESE.BDRip.x264-SiMPLES
2021-03-11 00:54:15 BLURAY-X264 Trolls.Tour.Mundial.2020.PORTUGUESE.720p.BLURAY.x264-SiMPLES
2021-03-11 00:54:19 XXX-HD KinkyBites.21.03.08.Lisey.Sweet.The.Sweetest.Cocktease.XXX.1080p.MP4-WRB
2021-03-11 00:54:22 TV-WEB-HD-X264 4-Stjerners.Middag.S13E12.NORWEGiAN.720p.WEB.h264-BAKFYLLA
2021-03-11 00:55:06 BLURAY-X264 Trolls.Tour.Mundial.2020.PORTUGUESE.1080p.BLURAY.x264-SiMPLES
2021-03-11 00:56:04 BLURAY-X264 Trolls.2.2020.BRAZiLiAN.PORTUGUESE.3D.1080p.BLURAY.x264-SiMPLES
2021-03-11 00:56:49 MP3-WEB Max_Cipriani_x_Kianga--Repeating_3-(INTRS1035)-WEB-2015-BABAS
2021-03-11 00:57:05 BLURAY-X265 Trolls.2.2020.BRAZiLiAN.PORTUGUESE.2160p.UHD.BluRay.x265-SiMPLES
2021-03-11 00:59:11 TV-WEB-HD-X264 4-Stjerners.Middag.S13E12.NORWEGiAN.1080p.WEB.h264-BAKFYLLA
2021-03-11 00:59:27 TV-WEB-HD-X264 Stalk.S01E05.German.720p.WEB.h264-WvF
2021-03-11 01:00:15 TV-WEB-HD-X264 Stalk.S01E06.German.720p.WEB.h264-WvF
2021-03-11 01:01:59 MP3-WEB Hidden_Element-Kontinuum-(1000XX0004)-WEB-2020-x0x0s
2021-03-11 01:02:30 MP3-WEB VRODA-Senses-(1000XX0003)-WEB-2020-x0x0s
2021-03-11 01:02:34 TV-WEB-HD-X264 Slavik.Auf.Staats.Nacken.S02E05.German.720p.WEB.x264-WvF
2021-03-11 01:03:02 MP3-WEB Hidden_Element-Comparisons-(1000XX0001)-WEB-2020-x0x0s
2021-03-11 01:03:19 TV-WEB-HD-X264 Slavik.Auf.Staats.Nacken.S02E06.German.720p.WEB.x264-WvF
2021-03-11 01:03:57 XXX-HD RKPrime.21.03.11.Emily.Addison.And.Lala.Ivey.Dont.Mind.If.I.Do.Her.XXX.1080p.MP4-WRB
2021-03-11 01:04:17 MP3 VA-Classified_V2-(CIAQS007)-WEB-2016
2021-03-11 01:04:58 WEB-HD-X264 The.Kid.Detective.2020.German.DL.1080p.WEB.x264-WvF
2021-03-11 01:05:15 XXX-HD BrazzersExxtra.21.03.11.Angela.White.The.Dryer.Wont.Get.Me.Off.XXX.1080p.MP4-WRB
2021-03-11 01:05:20 TV-WEB-SD-X264 Goldrausch.in.Alaska.Spezial.E70.Die.Legende.von.Porcupine.Creek.GERMAN.DOKU.WebRip.x264-iND
2021-03-11 01:05:50 WEB-HD-X264 The.Kid.Detective.2020.German.DL.720p.WEB.x264-WvF
2021-03-11 01:07:08 TV-WEB-HD-X264 Slavik.Auf.Staats.Nacken.S02E05.GERMAN.1080P.WEB.X264-WAYNE
2021-03-11 01:07:43 TV-WEB-HD-X264 Slavik.Auf.Staats.Nacken.S02E06.GERMAN.1080P.WEB.X264-WAYNE
2021-03-11 01:08:57 XXX-HD BrazzersExxtra.21.03.11.Abella.Danger.Where.The.Sun.Shines.XXX.1080p.MP4-WRB
2021-03-11 01:09:29 MP3-WEB VA-COUNTER_x_CULTURE_Vol_1-COUNTERPOINT008-WEB-2016-MKD
2021-03-11 01:10:33 XXX-HD ManoJob.20.11.07.Nikole.Nash.Dont.Tell.My.Boyfriend.OK.XXX.1080p.MP4-WRB
2021-03-11 01:14:12 XXX-HD ManoJob.20.11.07.Nikole.Nash.Dont.Tell.My.Boyfriend.OK.XXX.2160p.MP4-WRB
2021-03-11 01:14:19 MP3 Autumnblaze-Welkin_Shores_Burning-CD-2020-GRAVEWISH
2021-03-11 01:14:52 MP3 Drought-Rudra_Bhakti-EP-CD-2016-GRAVEWISH
2021-03-11 01:15:25 MP3 Escumergament-...ni_degu_fazentz_escumergament_e_mesorga...-CD-2021-GRAVEWISH
2021-03-11 01:15:43 XXX-HD MrPov.20.11.11.Alexia.Anders.Daddy.Dickdown.XXX.1080p.MP4-WRB
2021-03-11 01:15:58 MP3 Misotheist-For_the_Glory_of_Your_Redeemer-CD-2021-GRAVEWISH
2021-03-11 01:16:32 MP3 Spire-Temple_of_Khronos-CD-2021-GRAVEWISH
2021-03-11 01:17:00 FLAC Poets_Of_The_Fall-Alchemy_Vol._1-(POTF17)-CD-FLAC-2011-MUNDANE
2021-03-11 01:17:08 MP3 Suicide_Forest-Reluctantly-CD-2021-GRAVEWISH
2021-03-11 01:18:33 MP3-WEB VA-The_Best_Of_Remixes_Pt_2-(USDC0102)-WEB-2020-BABAS
2021-03-11 01:20:12 MP3 Hamlet-El_Inferno-(060.2)-ES-CD-2000-FREGON_INT
2021-03-11 01:21:19 XXX-HD FakeTaxi.21.03.11.Esluna.XXX.1080p.MP4-WRB
2021-03-11 01:21:58 MP3-WEB Luzio_x_Takashi_Kurosawa--Season-(USDC0103)-WEB-2021-BABAS
2021-03-11 01:22:12 GAMES-NSW Among_Us_Update_v2021.3.7_NSW-SUXXORS
2021-03-11 01:22:40 XXX-HD JacquieEtMichelTV.21.03.11.Adele.27.Doesnt.Have.Many.Taboos.FRENCH.XXX.1080p.MP4-WRB
2021-03-11 01:22:54 MP3 Ricardo_Caliente-Panpipes_Play_ABBA-(5269CD)-CD-1998-VULGAR
2021-03-11 01:24:21 XXX-HD BadDaddyPOV.21.02.27.Laney.Grey.Sultry.Jerk.Off.Instructions.XXX.2160p.MP4-WRB
2021-03-11 01:24:31 MP3 Heroes_Del_Silencio-El_Ruido_Y_La_Furia-(7243_4_74746_0_6)-ES-BONUS-DVD-2005-FREGON
2021-03-11 01:24:42 TV-WEB-HD-X264 Log.Horizon.Entaku.Houkai.E09.SUBFRENCH.1080p.WEB.x264-AMB3R
2021-03-11 01:25:33 FLAC Ricardo_Caliente-Panpipes_Play_ABBA-(5269CD)-CD-FLAC-1998-MUNDANE
2021-03-11 01:25:43 FLAC Heroes_Del_Silencio-El_Ruido_Y_La_Furia-(7243_4_74746_0_6)-ES-CD-FLAC-2005-FREGON_INT
2021-03-11 01:26:43 XXX-HD BadDaddyPOV.21.03.04.Chelsea.Waves.Bathroom.Quickie.With.Step.Daddy.XXX.2160p.MP4-WRB
2021-03-11 01:28:30 FLAC Heroes_Del_Silencio-Live_In_Germany-(50999_0_91659_2_2)-ES-CD-FLAC-2011-FREGON
2021-03-11 01:31:00 MP3-WEB Muwookie_and_Dug-e-Cant_Stand_The_Pain-(FXM017)-WEB-2021-PTC
2021-03-11 01:32:49 MP3 Molotov-Agua_Maldita-(3784931)-ES-CD-2014-FREGON
2021-03-11 01:33:28 FLAC Molotov-Agua_Maldita-(3784931)-ES-CD-FLAC-2014-FREGON
2021-03-11 01:35:34 MP3-WEB Sam_Binga_and_Chimpo_feat._Slay-Murda_Dem-(CRIT165S)-SINGLE-WEB-2021-PTC
2021-03-11 01:36:12 FLAC Panda-Sangre_Fria-(3765736)-ES-PROPER-CD-FLAC-2013-FREGON
2021-03-11 01:41:15 XXX-HD DaneJones.21.03.11.Daisy.Lee.XXX.1080p.MP4-WRB
2021-03-11 01:43:13 XXX-HD HandsOnHardcore.21.03.11.Kitana.Lure.And.Stefany.Kyler.XXX.1080p.MP4-WRB
2021-03-11 01:53:45 XXX-HD Bang.Surprise.21.03.11.Kiara.Cole.Solo.XXX.1080p.MP4-WRB
2021-03-11 01:55:05 XXX-HD Bang.Surprise.21.03.11.Kiara.Cole.Solo.XXX.2160p.MP4-WRB
2021-03-11 02:00:12 MP3-WEB Radwimps-2_Plus_0_Plus_2_Plus_1_Plus_3_Plus_1_Plus_1_Equals_10_Years_10_Songs-WEB-JP-2021-TosK
2021-03-11 02:01:38 TV-WEB-HD-X264 Gift.Vid.Forsta.Ogonkastet.S07E04.SWEDiSH.720p.WEB.H264-SUECOS
2021-03-11 02:01:39 TV-WEB-HD-X264 Gift.Vid.Forsta.Ogonkastet.S07E04.SWEDiSH.1080p.WEB.H264-SUECOS
2021-03-11 02:04:44 TV-WEB-HD-X264 Farmen.S14E45.SWEDiSH.720p.WEB.H264-SUECOS
2021-03-11 02:04:52 TV-WEB-HD-X264 Farmen.S14E45.SWEDiSH.1080p.WEB.H264-SUECOS
2021-03-11 02:05:32 MP3-WEB VA-Growl-PADG048-WEB-2016-MKD
2021-03-11 02:07:11 TV-WEB-HD-X264 Tillsammans.Med.Stromstedts.S04E04.SWEDiSH.720p.WEB.H264-SUECOS
2021-03-11 02:07:24 TV-WEB-HD-X264 Tillsammans.Med.Stromstedts.S04E04.SWEDiSH.1080p.WEB.H264-SUECOS
2021-03-11 02:07:53 MP3-WEB Bongvr-Vanity-(BAHN008EP)-WEB-2021-PTC
2021-03-11 02:15:25 MP3-WEB VA-In_The_Hood-HDD025-WEB-2016-MKD
2021-03-11 02:18:32 MP3-WEB Messier-Prototype-(UXE223)-WEB-2021-PTC
2021-03-11 02:19:22 MP3-WEB AdriNalin_and_Meta_(GER)-Further-(UXE225)-WEB-2021-PTC
2021-03-11 02:26:00 MP3-WEB SOHMI-Closer_EP-(OOO14)-WEB-2021-PTC
2021-03-11 02:37:12 MP3-WEB VA-Mindocracy_Best_Of_2015-MOCRCY20015-WEB-2016-MKD
2021-03-11 02:40:08 GAMES-NSW TOUHOU_Spell_Bubble_Update_v2.9.0_NSW-HR
2021-03-11 02:46:03 MP3-WEB VA-Monochrome_vs_Meditation-PC092-WEB-2016-MKD
2021-03-11 02:50:00 MP3-WEB VA-Fascic_Techno_Music_8-(ICDO111)-WEB-2020-BABAS
2021-03-11 02:50:59 MP3-WEB VA-Fascic_Techno_Music_11-(ICDO120)-WEB-2020-BABAS
2021-03-11 02:51:48 MP3-WEB VA-Fascic_Techno_Music_5-(ICDO105)-WEB-2020-BABAS
2021-03-11 02:52:28 MP3-WEB VA-Fascic_Techno_Music_4-(ICDO099)-WEB-2019-BABAS
2021-03-11 02:53:09 MP3-WEB VA-Fascic_Techno_Music_2-(ICDO092)-WEB-2019-BABAS
2021-03-11 02:53:39 MP3-WEB VA-Fascic_Techno_Music_3-(ICDO093)-WEB-2019-BABAS
2021-03-11 02:53:53 TV-HD-X264 Delilah.S01E01.Everything.to.Everybody.1080p.HDTV.x264-CRiMSON
2021-03-11 02:54:12 MP3-WEB VA-Fascic_Techno_Music_9-(ICDO115)-WEB-2020-BABAS
2021-03-11 02:54:46 MP3-WEB VA-Fascic_Techno_Music_10-(ICDO117)-WEB-2020-BABAS
2021-03-11 02:55:44 XXX-HD LoveHerAss.21.03.11.Katy.Rose.Ass.Play.Before.Hubby.Returns.XXX.1080p.MP4-WRB
2021-03-11 02:56:53 TV-HD-X264 Delilah.S01E01.Everything.to.Everybody.720p.HDTV.x264-CRiMSON
2021-03-11 02:57:43 TV-SD-X264 Delilah.S01E01.Everything.to.Everybody.HDTV.x264-CRiMSON
2021-03-11 02:59:33 APPS WA.Production.Trap.Nation.Style.Track.From.Scratch.TUTORIAL-SoSISO
2021-03-11 03:01:51 APPS WA.Production.Trap.Beat.In.FL.Studio.TUTORIAL-SoSISO
2021-03-11 03:04:11 TV-HD-X264 Delilah.S01E02.Toldja.1080p.HDTV.x264-CRiMSON
2021-03-11 03:04:35 TV-HD-X264 Riverdale.US.S05E07.720p.HDTV.x264-SYNCOPY
2021-03-11 03:05:17 MP3-WEB VA-Rape_My_Bass_Vol_2-SYBA201502-WEB-2016-MKD
2021-03-11 03:06:51 TV-HD-X264 Delilah.S01E02.Toldja.720p.HDTV.x264-CRiMSON
2021-03-11 03:06:55 TV-WEB-HD-X264 The.Masked.Singer.S05E01.1080p.WEB.h264-BAE
2021-03-11 03:06:58 TV-WEB-HD-X264 The.Masked.Singer.S05E01.720p.WEB.h264-BAE
2021-03-11 03:07:00 TV-WEB-SD-X264 The.Masked.Singer.S05E01.WEB.h264-BAE
2021-03-11 03:07:43 TV-SD-X264 Delilah.S01E02.Toldja.HDTV.x264-CRiMSON
2021-03-11 03:09:39 TV-HD-X264 Chicago.Med.S06E08.Fathers.and.Mothers.Daughters.and.Sons.1080p.HDTV.x264-aFi
2021-03-11 03:20:20 MP3-WEB VA-Square_Two-AUTHELITE002-WEB-2016-MKD
2021-03-11 03:21:47 XXX-HD AussieFellatioQueens.21.02.27.Silvia.Rubi.Boyfriend.Payback.Blowjob.XXX.1080p.MP4-WRB
2021-03-11 03:22:57 XXX-HD AussieFellatioQueens.21.03.06.Kit.Farrin.Audition.Scene.1.XXX.1080p.MP4-WRB
2021-03-11 03:24:26 XXX-HD PureMature.21.03.10.Brandi.Love.Sex.Therapy.With.Dr.Love.XXX.1080p.MP4-WRB
2021-03-11 03:27:20 XXX-HD PureMature.21.03.10.Brandi.Love.Sex.Therapy.With.Dr.Love.XXX.2160p.MP4-WRB
2021-03-11 03:29:25 WEB-HD-X264 Es.ist.zu.deinem.Besten.2020.German.1080p.WEB.h264-SLG
2021-03-11 03:29:52 WEB-HD-X264 Es.ist.zu.deinem.Besten.2020.German.720p.WEB.h264-SLG
2021-03-11 03:33:59 MP3-WEB Stil_and_Bense-Trinity-(EINMUSIKA191)-WEB-2021-PTC
2021-03-11 03:45:13 MP3-WEB VA-Viper_Presents_Drum_and_Bass_Annual_2016-(VPRLP012)-WEB-2016-CB
2021-03-11 03:47:48 TV-WEB-HD-X264 Game.of.Talents.S01E01.1080p.WEB.h264-BAE
2021-03-11 03:47:51 TV-WEB-HD-X264 Game.of.Talents.S01E01.720p.WEB.h264-BAE
2021-03-11 03:47:54 TV-WEB-SD-X264 Game.of.Talents.S01E01.WEB.h264-BAE
2021-03-11 03:50:23 TV-WEB-HD-X264 Rig.45.S02E04.GERMAN.DL.1080p.WebHD.x264-UFA
2021-03-11 03:57:09 TV-WEB-HD-X264 Rig.45.S02E06.GERMAN.DL.1080p.WebHD.x264-UFA
2021-03-11 04:00:14 MP3 Bell_Orchestre-House_Music-2021-FNT
2021-03-11 04:00:17 MP3-WEB VA_-_God_Save_the_Scene-BSMDG008-WEB-2021-eUP
2021-03-11 04:00:55 FLAC Bell_Orchestre-House_Music-CD-FLAC-2021-FAiNT
2021-03-11 04:02:41 TV-HD-X264 Chicago.Med.S06E08.720p.HDTV.x264-SYNCOPY
2021-03-11 04:03:39 TV-WEB-HD-X264 Coroner.S03E06.1080p.WEBRip.x264-BAE
2021-03-11 04:03:40 TV-WEB-HD-X264 Coroner.S03E06.720p.WEBRip.x264-BAE
2021-03-11 04:03:43 TV-WEB-SD-X264 Coroner.S03E06.WEBRip.x264-BAE
2021-03-11 04:06:07 TV-HD-X264 Chicago.Fire.S09E08.720p.HDTV.x264-SYNCOPY
2021-03-11 04:06:31 MP3-WEB VA_-_Takutzi_Nakawe-566989-WEB-2021-eUP
2021-03-11 04:07:12 TV-WEB-HD-X264 Good.Trouble.S03E04.1080p.WEB.H264-CAKES
2021-03-11 04:07:20 TV-WEB-HD-X264 Good.Trouble.S03E04.720p.WEB.H264-CAKES
2021-03-11 04:11:11 MP3-WEB VA_-_World_of_Psytrance_4-OVNILP939-WEB-2021-eUP
2021-03-11 04:16:21 MP3-VINYL Viktor_Vaughn-Saliva-LTD.ED_VLS-2003-FTD
2021-03-11 04:22:46 FLAC Killa_Kyleon-Killa_Musik-CD-FLAC-2008-CALiFLAC
2021-03-11 04:23:49 MP3-WEB A-Move-Remaining-WEB-2021-NDE
2021-03-11 04:24:49 MP3-WEB Cecilia-Thinking-WEB-2021-NDE
2021-03-11 04:25:42 MP3-WEB Chal_Marsyal-Wild_Reborn-WEB-2021-NDE
2021-03-11 04:25:50 GAMES-NSW Truck_Driver_French_Paint_Jobs_DLC_NSW-VENOM
2021-03-11 04:26:39 MP3-WEB Donny_Fernanda-L.D.R-WEB-2021-NDE
2021-03-11 04:27:36 MP3-WEB EdNathi-Illusions-WEB-2020-NDE
2021-03-11 04:28:31 MP3-WEB Elora_Solomon-Winter_Life-WEB-2021-NDE
2021-03-11 04:29:28 MP3-WEB Jazz_Session-Dreamy_Power-WEB-2021-NDE
2021-03-11 04:30:24 MP3-WEB Livio_Polini-Compilation_Dance_House-WEB-2021-NDE
2021-03-11 04:31:22 MP3-WEB Moveton-Surreal-WEB-2021-NDE
2021-03-11 04:32:17 MP3-WEB Nico_T-Disco_Save-WEB-2021-NDE
2021-03-11 04:33:13 MP3-WEB Rahmad_Remix-Horizon-WEB-2021-NDE
2021-03-11 04:34:11 MP3-WEB The_Engineer-Neon_Maneuvers-WEB-2021-NDE
2021-03-11 04:34:14 TV-HD-X264 S.W.A.T.2017.S04E11.720p.HDTV.x264-SYNCOPY
2021-03-11 04:35:06 MP3-WEB Visceral-Pain_Is_My_Pleasure-WEB-2021-NDE
2021-03-11 04:39:39 TV-WEB-HD-X264 Assembly.Required.S01E03.720p.WEB.h264-BAE
2021-03-11 04:40:14 MP3-WEB White_Milk-California_Soul_EP-DAM019-WEB-2016-MKD
2021-03-11 04:40:18 TV-WEB-SD-X264 Assembly.Required.S01E03.WEB.h264-BAE
2021-03-11 04:41:01 TV-WEB-HD-X264 Bravos.Chat.Room.S01E33.1080p.WEB.h264-BAE
2021-03-11 04:41:38 TV-WEB-HD-X264 Bravos.Chat.Room.S01E33.720p.WEB.h264-BAE
2021-03-11 04:42:18 TV-WEB-SD-X264 Bravos.Chat.Room.S01E33.WEB.h264-BAE
2021-03-11 04:42:59 WEB-HD-X264 Conan.2021.03.09.720p.WEB.h264-BAE
2021-03-11 04:43:38 WEB-SD-X264 Conan.2021.03.09.WEB.h264-BAE
2021-03-11 04:44:18 WEB-SD-X264 James.Corden.2021.03.09.Tracy.Morgan.WEB.h264-BAE
2021-03-11 04:44:59 WEB-SD-X264 Jimmy.Kimmel.2021.03.09.Jesse.Tyler.Ferguson.WEB.h264-BAE
2021-03-11 04:45:38 TV-WEB-SD-X264 New.Amsterdam.2018.S03E02.WEB.h264-BAE
2021-03-11 04:46:19 WEB-SD-X264 Stephen.Colbert.2021.03.09.Riz.Ahmed.WEB.h264-BAE
2021-03-11 04:46:59 TV-WEB-SD-X264 Superman.and.Lois.S01E03.WEB.h264-BAE
2021-03-11 04:47:39 TV-WEB-HD-X264 The.Curse.of.Oak.Island.S08E17.720p.WEB.h264-BAE
2021-03-11 04:48:19 TV-WEB-SD-X264 The.Curse.of.Oak.Island.S08E17.WEB.h264-BAE
2021-03-11 04:48:59 TV-WEB-SD-X264 The.Flash.2014.S07E02.WEB.h264-BAE
2021-03-11 04:49:39 TV-WEB-SD-X264 The.Resident.S04E08.WEB.h264-BAE
2021-03-11 04:50:04 FLAC BIGBANG-MADE_THE_FULL_ALBUM-KR-Limited_Edition-CD-FLAC-2016-HUNNiT
2021-03-11 04:50:14 MUSIC-HD-X264 Bebe_Rexha_ft_Doja_Cat-Baby_Im_Jealous_(The_Tonight_Show_2020-10-19)-1080p-x264-2020-SRPx
2021-03-11 04:50:19 TV-WEB-SD-X264 The.Voice.S20E04.WEB.h264-BAE
2021-03-11 04:50:22 FLAC BTS-Love_Yourself_Answer-KR-2CD-FLAC-2018-HUNNiT
2021-03-11 04:50:59 TV-WEB-SD-X264 To.Tell.The.Truth.2016.S06E08.WEB.h264-BAE
2021-03-11 04:51:20 MUSIC-HD-X264 Graveyard-Reeperbahn_Festival_(2018)-720p-x264-2018-SRP
2021-03-11 04:51:38 WEB-HD-X264 VICE.News.Tonight.2021.03.09.720p.WEBRip.x264-BAE
2021-03-11 04:52:19 WEB-SD-X264 VICE.News.Tonight.2021.03.09.WEBRip.x264-BAE
2021-03-11 04:52:24 MUSIC-HD-X264 Madison_Beer-I_Dont_Speak_(Boy)_(Jimmy_Kimmel_2021-01-03)-720p-x264-2021-SRPx
2021-03-11 04:53:27 MUSIC-HD-X264 Nick_Jonas-Spaceman_(Lyric_Video)-DDC-1080p-x264-2021-SRPx
2021-03-11 04:54:30 MUSIC-HD-X264 Rita_Ora-Bang_Bang_(The_Tonight_Show_2021-02-03)-1080p-x264-2021-SRPx
2021-03-11 04:55:34 MUSIC-HD-X264 Vini_Vici-Live_Au_Festival_Garorock_(2019)-1080p-x264-2019-SRPx
2021-03-11 05:04:18 TV-HD-X264 Chicago.PD.S08E08.720p.HDTV.x264-SYNCOPY
2021-03-11 05:04:58 TV-HD-X264 The.Challenge.S36E13.Double.Agents.The.Spy.Who.Loved.Fessy.720p.HDTV.x264-CRiMSON
2021-03-11 05:07:49 TV-SD-X264 The.Challenge.S36E13.Double.Agents.The.Spy.Who.Loved.Fessy.HDTV.x264-CRiMSON
2021-03-11 05:09:10 TV-HD-X264 Chicago.PD.S08E08.Protect.and.Serve.1080p.HDTV.x264-aFi
2021-03-11 05:11:55 GAMES-NSW Taiko_no_Tatsujin_Rhythmic_Adventure_Pack_Update_v1.0.4_NSW-HR
2021-03-11 05:11:56 GAMES-NSW Taiko_no_Tatsujin_Rhythmic_Adventure_Pack_Update_v1.0.4_MULTI_NSW-HR
2021-03-11 05:15:32 MP3-WEB ZETEK-Seen_The_Light_Ep-LD77-WEB-2016-MKD
2021-03-11 05:15:57 FLAC A-Move-Remaining-16BIT-WEBFLAC-2021-FlacHawkDown
2021-03-11 05:16:53 FLAC Cecilia-Thinking-16BIT-WEBFLAC-2021-FlacHawkDown
2021-03-11 05:17:48 FLAC Chal_Marsyal-Wild_Reborn-16BIT-WEBFLAC-2021-FlacHawkDown
2021-03-11 05:18:44 FLAC Donny_Fernanda-L.D.R-16BIT-WEBFLAC-2021-FlacHawkDown
2021-03-11 05:19:39 FLAC EdNathi-Illusions-16BIT-WEBFLAC-2020-FlacHawkDown
2021-03-11 05:20:35 FLAC Elora_Solomon-Winter_Life-16BIT-WEBFLAC-2021-FlacHawkDown
2021-03-11 05:21:30 FLAC Jazz_Session-Dreamy_Power-16BIT-WEBFLAC-2021-FlacHawkDown
2021-03-11 05:21:43 MP3 Die_Mooskirchner-Sonderedition-2CD-DE-2004-ALPMP3_INT
2021-03-11 05:21:49 MP3 Orig._Alpenland_Quintett-Flott_Und_Romantisch-CD-DE-1993-ALPMP3
2021-03-11 05:21:54 MP3 Orig._Suedtiroler_Spitzbuam-Das_Beste_Der_Orig._Suedtiroler_Spitzbuam-CD-DE-2004-ALPMP3
2021-03-11 05:22:00 MP3 Orig._Suedtiroler_Spitzbuam-Die_Grossen_Erfolge-CD-DE-2002-ALPMP3
2021-03-11 05:22:05 MP3 Orig._Suedtiroler_Spitzbuam-Heimat_Im_Herzen-CD-DE-2003-ALPMP3
2021-03-11 05:22:12 MP3 Orig._Suedtiroler_Spitzbuam-Rendezvous_In_Suedtirol-CD-DE-1989-ALPMP3
2021-03-11 05:22:18 MP3 Original_Alpenland_Quintett-Frisch_Froehlich_Frech-CD-DE-1995-ALPMP3
2021-03-11 05:22:24 MP3 Original_Alpenland_Quintett-Vollgas-CD-DE-1998-ALPMP3
2021-03-11 05:22:26 FLAC Livio_Polini-Compilation_Dance_House-16BIT-WEBFLAC-2021-FlacHawkDown
2021-03-11 05:22:29 MP3 Steiermark_Quintett-Krawall_Im_Opernhaus-CD-DE-1996-ALPMP3
2021-03-11 05:22:38 MP3 Tisner_Buam-Unsere_Schoensten_Lieder-CD-DE-1994-ALPMP3
2021-03-11 05:22:44 MP3 Alpenland_Sepp_Und_Co.-Das_Ist_Der_Hammer-CD-DE-2003-ALPMP3
2021-03-11 05:22:49 MP3 Alpenland_Sepp_Und_Co.-Stinkfrech_Und_Sauguat-CD-DE-2001-ALPMP3
2021-03-11 05:23:06 MP3 Das_Stoakogler_Trio-Steirerbuam_San_Narrisch_Good-CD-DE-1992-ALPMP3
2021-03-11 05:23:21 FLAC Moveton-Surreal-16BIT-WEBFLAC-2021-FlacHawkDown
2021-03-11 05:24:17 FLAC Nico_T-Disco_Save-16BIT-WEBFLAC-2021-FlacHawkDown
2021-03-11 05:25:12 FLAC Rahmad_Remix-Horizon-16BIT-WEBFLAC-2021-FlacHawkDown
2021-03-11 05:26:08 FLAC The_Engineer-Neon_Maneuvers-16BIT-WEBFLAC-2021-FlacHawkDown
2021-03-11 05:37:26 TV-WEB-HD-X264 Pretty.Hard.Cases.S01E06.1080p.WEBRip.x264-BAE
2021-03-11 05:37:28 TV-WEB-HD-X264 Pretty.Hard.Cases.S01E06.720p.WEBRip.x264-BAE
2021-03-11 05:37:30 TV-WEB-SD-X264 Pretty.Hard.Cases.S01E06.WEBRip.x264-BAE
2021-03-11 05:55:18 XXX-HD ATKGirlfriends.21.03.11.Compilation.XXX.1080p.MP4-WRB
2021-03-11 05:57:19 XXX-HD ATKGirlfriends.21.03.11.Compilation.XXX.2160p.MP4-WRB
2021-03-11 06:00:34 XXX-HD HushPass.21.02.26.Martini.Bows.XXX.1080p.MP4-WRB
2021-03-11 06:06:02 XXX-HD CumPerfection.21.03.11.Shay.London.First.Timers.XXX.1080p.MP4-WRB
2021-03-11 06:07:52 XXX-HD DarkX.21.03.11.Alicia.Williams.Alicias.Anal.Antics.XXX.1080p.MP4-WRB
2021-03-11 06:10:14 XXX-HD EvilAngel.21.03.11.Kianna.Dior.Huge.Cock.Suck.N.Fuck.XXX.1080p.MP4-WRB
2021-03-11 06:12:14 XXX-HD OnlyTeenBlowJobs.21.03.11.Hazel.Heart.Let.Me.Borrow.Your.Car.XXX.1080p.MP4-WRB
2021-03-11 06:13:20 TV-WEB-HD-X264 Gardsgardsserien.S02E05.SWEDiSH.720p.WEB.h264-NORUSH
2021-03-11 06:13:32 TV-WEB-HD-X264 Gardsgardsserien.S02E05.SWEDiSH.1080p.WEB.h264-NORUSH
2021-03-11 06:14:08 TV-WEB-HD-X264 Antikmagasinet.S14E09.SWEDiSH.720p.WEB.h264-NORUSH
2021-03-11 06:14:20 TV-WEB-HD-X264 Antikmagasinet.S14E09.SWEDiSH.1080p.WEB.h264-NORUSH
2021-03-11 06:14:43 XXX-HD ExxxtraSmall.21.03.11.Aften.Opal.Better.Than.The.Carnival.XXX.1080p.MP4-WRB
2021-03-11 06:16:14 TV-WEB-HD-X264 Good.Eats.S16E06.1080p.WEB.h264-BAE
2021-03-11 06:16:16 TV-WEB-HD-X264 Good.Eats.S16E06.720p.WEB.h264-BAE
2021-03-11 06:16:18 TV-WEB-SD-X264 Good.Eats.S16E06.WEB.h264-BAE
2021-03-11 06:17:52 XXX-HD ManuelFerrara.20.10.20.Skylar.Vox.XXX.1080p.MP4-NBQ
2021-03-11 06:20:38 MP3-WEB Fullarity--Long_Way_To_Home-(TURB007)-WEB-2014-BABAS
2021-03-11 06:20:53 XXX-HD ManuelFerrara.20.10.27.Jane.Wilde.XXX.1080p.MP4-NBQ
2021-03-11 06:21:13 MP3-WEB Clima_x_Red_Army--Utopic-(TURB011)-WEB-2015-BABAS
2021-03-11 06:21:44 MP3-WEB Fiji--Peering_Into_The_Darkness-(CNT1028)-WEB-2017-BABAS
2021-03-11 06:22:10 TV-HD-X264 On.the.Case.-.Unter.Mordverdacht.S16E11.Ohne.Abschiedskuss.German.DOKU.720p.HDTV.x264-ATAX
2021-03-11 06:22:15 MP3-WEB Theodore_Elektrk--Respect_The_Roots-(CJAXXX038)-WEB-2019-BABAS
2021-03-11 06:22:44 MP3-WEB VA-Future_Tense-(TURB012)-WEB-2015-BABAS
2021-03-11 06:23:14 MP3-WEB Jon_Kennedy--ReWORK_EP-(CT001)-WEB-2018-BABAS
2021-03-11 06:23:45 MP3-WEB Tunnel--Dark_Cloud-(CJAXXX037)-WEB-2019-BABAS
2021-03-11 06:23:54 XXX-HD ManuelFerrara.20.12.07.Kenna.James.XXX.1080p.MP4-NBQ
2021-03-11 06:24:20 MP3-WEB Chainsmoker--Modern_Art-(CJAXXX026)-WEB-2017-BABAS
2021-03-11 06:24:31 TV-SD-X264 On.the.Case.-.Unter.Mordverdacht.S16E11.Ohne.Abschiedskuss.German.DOKU.HDTVRip.x264-ATAX
2021-03-11 06:24:47 MP3-WEB Sinestro--The_Great_Divide-(CJAXXX045)-WEB-2021-BABAS
2021-03-11 06:25:18 MP3-WEB Cirrus--Lost_Heart_EP-(TURB015)-WEB-2016-BABAS
2021-03-11 06:25:47 MP3-WEB Red_Army--High_Grade-(TURB010)-WEB-2014-BABAS
2021-03-11 06:26:18 MP3-WEB VA-The_Senium_EP-(TURB009)-WEB-2014-BABAS
2021-03-11 06:26:49 MP3-WEB Sumerian--Insano-(CJAXXX032)-WEB-2018-BABAS
2021-03-11 06:26:55 XXX-HD ManuelFerrara.21.01.12.Indica.Flower.XXX.1080p.MP4-NBQ
2021-03-11 06:27:20 MP3-WEB Vince_Melo--Never_Acid-(CJAXXX043)-WEB-2020-BABAS
2021-03-11 06:27:51 MP3-WEB Gabriel_Palomo--Hyperion-(CJAXXX039)-WEB-2019-BABAS
2021-03-11 06:28:23 MP3-WEB Josh_Moseley--Chicago_JackD_5_Year_Anniversary_Remixes-(CJAXXX034)-WEB-2018-BABAS
2021-03-11 06:28:54 MP3-WEB Inertia--Fearless-(TURB008)-WEB-2014-BABAS
2021-03-11 06:29:23 MP3-WEB Javano--Nothing_Happens_LP-(TURBLP002)-WEB-2020-BABAS
2021-03-11 06:29:57 XXX-HD ManuelFerrara.21.02.09.Gabbie.Carter.XXX.1080p.MP4-NBQ
2021-03-11 06:29:58 MP3-WEB Clima--When_It_Rains_It_Pours_EP-(TURB004)-WEB-2013-BABAS
2021-03-11 06:30:32 MP3-WEB Antagonist--Assemble_EP-(TURB016)-WEB-2016-BABAS
2021-03-11 06:31:00 MP3-WEB LTF--Jazz_Echo-(CNT1034)-WEB-2018-BABAS
2021-03-11 06:31:28 MP3-WEB Theodore_Elektrk--Kill_Circuit-(CJAXXX036)-WEB-2018-BABAS
2021-03-11 06:31:58 MP3-WEB DJ_D_ReDD--REDDRUMM-(CJAXXX044)-WEB-2021-BABAS
2021-03-11 06:32:28 MP3-WEB VA-Ratio_Futuri_EP-(TURB014)-WEB-2016-BABAS
2021-03-11 06:32:58 XXX-HD ManuelFerrara.21.02.24.Lacy.Lennon.XXX.1080p.MP4-NBQ
2021-03-11 06:32:58 MP3-WEB Gone_Beyond--A_Duet_For_Space_And_Time-(CNT1017)-WEB-2012-BABAS
2021-03-11 06:33:02 MP3 Eric_Dlux_and_DJ_Five_-_FAED_University_152-SAT-03-09-2021-TALiON
2021-03-11 06:34:01 MP3 Party_Favor_-_No_Favors_073-SAT-03-10-2021-TALiON
2021-03-11 06:35:02 MP3 Pretty_Pink_-_Deep_Woods-SAT-03-10-2021-TALiON
2021-03-11 06:35:59 XXX-HD ManuelFerrara.21.03.02.Violet.Starr.XXX.1080p.MP4-NBQ
2021-03-11 06:36:02 MP3 Benji_B_-_BBC_Radio1-SAT-03-11-2021-TALiON
2021-03-11 06:37:02 MP3 UPTOWN_RON_-_Feel_Up_Radio-SAT-03-10-2021-TALiON
2021-03-11 06:39:10 BLURAY Dance.of.the.Demons.1985.Custom.UHD.BluRay-NIMA4K
2021-03-11 06:40:12 MP3 Rocio_Marquez-Claridad-ES-2012-FADA
2021-03-11 06:42:29 XXX-HD AllOver30.21.03.11.Milana.Ricci.Ladies.With.Toys.XXX.1080p.MP4-WRB
2021-03-11 06:44:08 XXX-HD AllOver30.21.03.11.Mimi.M.Ladies.With.Toys.XXX.1080p.MP4-WRB
2021-03-11 06:44:21 MP3-WEB Jon_Kennedy-HA-(JKF040)-WEB-2017-x0x0s
2021-03-11 06:44:50 MP3-WEB VA-Shalt_Inherit_Their_Strength-(MPHTVA11)-WEB-2020-x0x0s
2021-03-11 06:45:25 MP3-WEB Dopedemand-Fears_Of_Zero-(JKF043)-WEB-2018-x0x0s
2021-03-11 06:45:25 MP3 Sarah_Olivier-Pink_Galina-FR-2013-FADA
2021-03-11 06:45:29 XXX-HD SexMex.21.03.11.Emily.Thorne.Sexual.Doctor.XXX.1080p.MP4-WRB
2021-03-11 06:45:56 MP3-WEB VA-The_Best_Of_Mephyst_2020-(MPHTTBM08)-WEB-2021-x0x0s
2021-03-11 06:47:01 XXX-HD GirlsWay.21.03.11.Casey.Calvert.And.Maya.Kendrick.Dressed.To.The.Nones.XXX.1080p.MP4-WRB
2021-03-11 06:48:40 XXX-HD RoccoSiffredi.21.03.11.Sara.Bell.Perverted.Secretaries.Italian.Edition.XXX.1080p.MP4-WRB
2021-03-11 06:50:14 XXX-HD SinnSage.21.03.11.Sinn.Sage.And.Star.Nine.Day.Dream.Massage.XXX.1080p.MP4-WRB
2021-03-11 06:50:37 WEB-HD-X264 VICE.News.Tonight.2021.03.10.1080p.WEB.h264-BAE
2021-03-11 06:53:33 XXX-HD FamilyStrokes.21.03.11.Skylar.Snow.And.Alita.Lee.Wild.Niece.XXX.1080p.MP4-WRB
2021-03-11 06:55:13 TV-WEB-HD-X264 Riverdale.US.S05E07.720p.WEB.H264-CAKES
2021-03-11 06:55:14 TV-WEB-HD-X264 Riverdale.US.S05E07.1080p.WEB.H264-CAKES
2021-03-11 06:55:21 TV-WEB-HD-X264 Nancy.Drew.2019.S02E07.720p.WEB.H264-CAKES
2021-03-11 06:55:24 TV-WEB-HD-X264 Nancy.Drew.2019.S02E07.1080p.WEB.H264-CAKES
2021-03-11 06:59:51 TV-SD-X264 Snowfall.S04E04.Expansion.HDTV.x264-CRiMSON
2021-03-11 07:00:20 TV-WEB-HD-X264 SEAL.Team.S04E09.720p.WEB.H264-GGEZ
2021-03-11 07:00:29 TV-WEB-HD-X264 SEAL.Team.S04E09.1080p.WEB.H264-GGWP
2021-03-11 07:00:50 XXX-HD AnalMom.21.03.11.Clea.Gaultier.Special.Trip.With.Stepmom.XXX.1080p.MP4-WRB
2021-03-11 07:04:24 XXX-HD BrownBunnies.21.03.11.Ashley.Aleigh.XXX.1080p.MP4-WRB
2021-03-11 07:06:00 TV-WEB-HD-X264 10.Suomalaista.Sarjamurhaajaa.S01E10.FiNNiSH.1080p.WEB.H264-TOOSA
2021-03-11 07:07:59 TV-WEB-HD-X264 10.Suomalaista.Sarjamurhaajaa.S01E10.FiNNiSH.720p.WEB.H264-TOOSA
2021-03-11 07:08:49 WEB-HD-X264 The.Daily.Show.2021.03.10.1080p.WEB.h264-BAE
2021-03-11 07:08:51 WEB-HD-X264 The.Daily.Show.2021.03.10.720p.WEB.h264-BAE
2021-03-11 07:08:55 WEB-SD-X264 The.Daily.Show.2021.03.10.WEB.h264-BAE
2021-03-11 07:09:19 TV-HD-X264 Axel.und.Micha.-.Die.Zwei.vom.Schrauberhof.S02E02.German.DOKU.1080p.HDTV.x264-ATAX
2021-03-11 07:11:31 TV-HD-X264 Snowfall.S04E04.Expansion.1080p.HDTV.x264-CRiMSON
2021-03-11 07:12:20 EBOOK Il.Corriere.Della.Sera.03.11.2021.iTALiAN.RETAiL.eBook-DiVER
2021-03-11 07:12:47 TV-HD-X264 Axel.und.Micha.-.Die.Zwei.vom.Schrauberhof.S02E02.German.DOKU.720p.HDTV.x264-ATAX
2021-03-11 07:13:10 XXX-HD BrownBunnies.21.03.11.Ashley.Aleigh.XXX.2160p.MP4-WRB
2021-03-11 07:15:10 TV-SD-X264 Axel.und.Micha.-.Die.Zwei.vom.Schrauberhof.S02E02.German.DOKU.HDTVRip.x264-ATAX
2021-03-11 07:15:37 TV-HD-X264 Snowfall.S04E04.Expansion.720p.HDTV.x264-CRiMSON
2021-03-11 07:16:11 XXX-HD ManuelFerrara.20.11.05.Casca.Akashova.XXX.1080p.MP4-NBQ
2021-03-11 07:19:13 XXX-HD ManuelFerrara.20.11.12.Kit.Mercer.XXX.1080p.MP4-NBQ
2021-03-11 07:22:00 TV-HD-X264 Axel.und.Micha.-.Die.Zwei.vom.Schrauberhof.S02E03.German.DOKU.1080p.HDTV.x264-ATAX
2021-03-11 07:22:14 XXX-HD ManuelFerrara.20.12.22.Khloe.Kapri.XXX.1080p.MP4-NBQ
2021-03-11 07:23:11 MP3-WEB VA-EICHTAL_RAW_Vol_1-(EICH222)-WEB-2020-x0x0s
2021-03-11 07:23:42 MP3-WEB VA-EICHTAL_RAW_Vol_2-(EICH234)-WEB-2021-x0x0s
2021-03-11 07:25:15 XXX-HD ManuelFerrara.20.12.29.Kit.Mercer.XXX.1080p.MP4-NBQ
2021-03-11 07:25:44 TV-HD-X264 Axel.und.Micha.-.Die.Zwei.vom.Schrauberhof.S02E03.German.DOKU.720p.HDTV.x264-ATAX
2021-03-11 07:28:16 XXX-HD ManuelFerrara.21.02.17.Aila.Donovan.XXX.1080p.MP4-NBQ
2021-03-11 07:28:43 TV-SD-X264 Axel.und.Micha.-.Die.Zwei.vom.Schrauberhof.S02E03.German.DOKU.HDTVRip.x264-ATAX
2021-03-11 07:31:19 XXX-HD Deeper.20.11.05.Aila.Donovan.XXX.1080p.MP4-NBQ
2021-03-11 07:34:19 XXX-HD Deeper.20.11.12.Maitland.Ward.XXX.1080p.MP4-NBQ
2021-03-11 07:34:35 TV-HD-X264 Axel.und.Micha.-.Die.Zwei.vom.Schrauberhof.S02E04.German.DOKU.1080p.HDTV.x264-ATAX
2021-03-11 07:37:55 TV-HD-X264 Axel.und.Micha.-.Die.Zwei.vom.Schrauberhof.S02E04.German.DOKU.720p.HDTV.x264-ATAX
2021-03-11 07:39:04 FLAC BTS-Map_Of_The_Soul_7-KR-CD-FLAC-2020-HUNNiT
2021-03-11 07:39:09 EBOOK Future.Music.No.368.2021.HYBRiD.MAGAZiNE.eBook-LiBRiCiDE
2021-03-11 07:39:31 EBOOK Guitar.Player.No.04.2021.HYBRiD.MAGAZiNE.eBook-LiBRiCiDE
2021-03-11 07:39:53 EBOOK Guitar.Techniques.No.320.2021.HYBRiD.MAGAZiNE.eBook-LiBRiCiDE
2021-03-11 07:40:12 TV-SD-X264 Axel.und.Micha.-.Die.Zwei.vom.Schrauberhof.S02E04.German.DOKU.HDTVRip.x264-ATAX
2021-03-11 07:40:14 TV-WEB-HD-X264 Tough.As.Nails.S02E05.720p.WEB.h264-KOGi
2021-03-11 07:40:15 EBOOK JazzTimes.No.04.2021.HYBRiD.MAGAZiNE.eBook-LiBRiCiDE
2021-03-11 07:40:36 EBOOK Klassiker.No.03.2021.SWEDiSH.HYBRiD.MAGAZiNE.eBook-LiBRiCiDE
2021-03-11 07:40:55 TV-WEB-HD-X264 Tough.As.Nails.S02E05.1080p.WEB.h264-KOGi
2021-03-11 07:40:58 EBOOK Ljud.Och.Bild.No.03.2021.SWEDiSH.HYBRiD.MAGAZiNE.eBook-LiBRiCiDE
2021-03-11 07:41:21 EBOOK Metal.Hammer.No.04.2021.GERMAN.HYBRiD.MAGAZiNE.eBook-LiBRiCiDE
2021-03-11 07:41:49 MP3-WEB HNNY--Sunday-(OMCD001)-WEB-2015-BABAS
2021-03-11 07:42:08 EBOOK Spielbox.No.01.2021.HYBRiD.MAGAZiNE.eBook-LiBRiCiDE
2021-03-11 07:42:23 MP3-WEB Harry_Wolfman--37_Degrees-(OMLTD007)-WEB-2018-BABAS
2021-03-11 07:42:29 EBOOK Stereophile.No.04.2021.HYBRiD.MAGAZiNE.eBook-LiBRiCiDE
2021-03-11 07:42:51 EBOOK Svenska.PC.Gamer.No.271.2021.SWEDiSH.HYBRiD.MAGAZiNE.eBook-LiBRiCiDE
2021-03-11 07:42:54 MP3-WEB Dee_Tree--Remixes-(OMR003)-WEB-2020-BABAS
2021-03-11 07:43:14 EBOOK The.Big.Issue.No.1452.2021.HYBRiD.MAGAZiNE.eBook-LiBRiCiDE
2021-03-11 07:43:22 EBOOK La.Gazzetta.Dello.Sport.03.11.2021.iTALiAN.RETAiL.eBook-DiVER
2021-03-11 07:43:26 MP3-WEB Henry_Rodrick--Daybreak-(OM008)-WEB-2018-BABAS
2021-03-11 07:43:35 EBOOK The.Oldie.No.398.2021.HYBRiD.MAGAZiNE.eBook-LiBRiCiDE
2021-03-11 07:43:57 MP3-WEB Jesse_Futerman--You_Are_Never_Alone-(OMO12)-WEB-2017-BABAS
2021-03-11 07:43:57 EBOOK Viz.No.304.2021.HYBRiD.COMiC.eBook-LiBRiCiDE
2021-03-11 07:44:19 EBOOK WineMaker.No.02.2021.HYBRiD.MAGAZiNE.eBook-LiBRiCiDE
2021-03-11 07:44:26 MP3-WEB Aleksandir--Skin-(OMLP005)-WEB-2020-BABAS
2021-03-11 07:44:59 MP3-WEB Scruscru--South_Wind_Clear_Sky_(Part_1)-(OMLTD011)-WEB-2021-BABAS
2021-03-11 07:47:08 TV-HD-X264 Axel.und.Micha.-.Die.Zwei.vom.Schrauberhof.S02E07.German.DOKU.1080p.HDTV.x264-ATAX
2021-03-11 07:47:55 TV-WEB-SD-X264 Hypothetical.S03E05.WEB.h264-SCONES
2021-03-11 07:49:49 TV-HD-X264 Axel.und.Micha.-.Die.Zwei.vom.Schrauberhof.S02E07.German.DOKU.720p.HDTV.x264-ATAX
2021-03-11 07:51:42 TV-SD-X264 Axel.und.Micha.-.Die.Zwei.vom.Schrauberhof.S02E07.German.DOKU.HDTVRip.x264-ATAX
2021-03-11 07:52:16 TV-BLURAY-X264 Pure.2017.S02E01.German.DL.1080p.BluRay.x264.REPACK-RWP
2021-03-11 07:53:41 TV-BLURAY-X264 Pure.2017.S02E01.German.DL.720p.BluRay.x264.REPACK-RWP
2021-03-11 07:54:59 TV-BDRIP-X264 Pure.2017.S02E01.German.BDRiP.x264.REPACK-RWP
2021-03-11 07:59:07 TV-HD-X264 Axel.und.Micha.-.Die.Zwei.vom.Schrauberhof.S02E08.German.DOKU.1080p.HDTV.x264-ATAX
2021-03-11 08:00:27 TV-WEB-HD-X264 S.W.A.T.2017.S04E11.720p.WEB.H264-GGEZ
2021-03-11 08:00:35 X264-HD-NORD Charter.2020.SWEDiSH.1080p.WEB.H264-TOOSA
2021-03-11 08:00:36 TV-WEB-HD-X264 S.W.A.T.2017.S04E11.1080p.WEB.H264-GGWP
2021-03-11 08:02:35 X264-HD-NORD Charter.2020.SWEDiSH.720p.WEB.H264-TOOSA
2021-03-11 08:04:59 TV-HD-X264 Axel.und.Micha.-.Die.Zwei.vom.Schrauberhof.S02E08.German.DOKU.720p.HDTV.x264-ATAX
2021-03-11 08:06:44 TV-WEB-HD-X264 The.Real.Housewives.of.New.Jersey.S11E04.1080p.WEB.H264-RAGEQUIT
2021-03-11 08:06:53 TV-WEB-HD-X264 The.Real.Housewives.of.New.Jersey.S11E04.720p.WEB.H264-RAGEQUIT
2021-03-11 08:08:26 XXX-HD FamilySwap.21.03.11.Angel.Youngs.And.Katie.Monroe.XXX.1080p.MP4-WRB
2021-03-11 08:08:31 TV-SD-X264 Axel.und.Micha.-.Die.Zwei.vom.Schrauberhof.S02E08.German.DOKU.HDTVRip.x264-ATAX
2021-03-11 08:10:45 XXX-HD FamilySwap.21.03.11.Angel.Youngs.And.Katie.Monroe.XXX.2160p.MP4-WRB
2021-03-11 08:13:05 XXX-HD Nubiles.21.03.11.Anna.J.Lets.Get.Dirty.XXX.1080p.MP4-WRB
2021-03-11 08:13:50 TV-HD-X264 Axel.und.Micha.-.Die.Zwei.vom.Schrauberhof.S02E09.German.DOKU.1080p.HDTV.x264-ATAX
2021-03-11 08:14:45 XXX-HD GirlsOnlyPorn.21.03.11.Amira.Adara.And.Tiffany.Tatum.Tell.Me.More.XXX.1080p.MP4-WRB
2021-03-11 08:16:50 TV-HD-X264 Axel.und.Micha.-.Die.Zwei.vom.Schrauberhof.S02E09.German.DOKU.720p.HDTV.x264-ATAX
2021-03-11 08:17:38 XXX-HD GirlsOnlyPorn.21.03.11.Amira.Adara.And.Tiffany.Tatum.Tell.Me.More.XXX.2160p.MP4-WRB
2021-03-11 08:17:59 TV-WEB-HD-X264 Annika.Og.Det.Svenske.Coronamysterium.S01E03.DANiSH.1080p.WEB.H264-HYGGE
2021-03-11 08:19:11 TV-SD-X264 Axel.und.Micha.-.Die.Zwei.vom.Schrauberhof.S02E09.German.DOKU.HDTVRip.x264-ATAX
2021-03-11 08:22:04 TV-WEB-HD-X264 Annika.Og.Det.Svenske.Coronamysterium.S01E02.DANiSH.1080p.WEB.H264-HYGGE
2021-03-11 08:22:51 TV-WEB-HD-X264 Annika.Og.Det.Svenske.Coronamysterium.S01E02.DANiSH.720p.WEB.H264-HYGGE
2021-03-11 08:26:09 XXX-HD Anilos.21.03.11.Black.Kat.Waiting.For.You.XXX.1080p.MP4-WRB
2021-03-11 08:26:50 TV-WEB-HD-X264 Annika.Og.Det.Svenske.Coronamysterium.S01E03.DANiSH.720p.WEB.H264-HYGGE
2021-03-11 08:31:29 TV-WEB-SD-X264 Svampebob.Firkant.S08E18.DANiSH.WEB.H264-DKiDS
2021-03-11 08:33:51 TV-WEB-HD-X264 My.600-lb.Life.S09E07.Krystals.Journey.720p.WEB.h264-B2B
2021-03-11 08:34:24 TV-WEB-HD-X264 My.600-lb.Life.S09E07.Krystals.Journey.1080p.WEB.h264-B2B
2021-03-11 08:35:18 TV-WEB-HD-X264 My.600-Lb.Life.S09E08.Isaacs.Journey.720p.WEB.h264-B2B
2021-03-11 08:35:29 TV-WEB-HD-X264 Klassen.S10E30.Victorias.Haevn.DANiSH.1080p.WEB.H264-DKiDS
2021-03-11 08:35:54 TV-WEB-HD-X264 My.600-Lb.Life.S09E08.Isaacs.Journey.1080p.WEB.h264-B2B
2021-03-11 08:36:13 TV-WEB-SD-X264 Klassen.S10E30.Victorias.Haevn.DANiSH.WEB.H264-DKiDS
2021-03-11 08:36:42 TV-WEB-HD-X264 The.Zoo.San.Diego.S02E01.720p.WEB.h264-B2B
2021-03-11 08:37:18 TV-WEB-HD-X264 The.Zoo.San.Diego.S02E01.1080p.WEB.h264-B2B
2021-03-11 08:38:01 TV-WEB-HD-X264 The.Walking.Dead.S10E19.1080p.WEB.H264-GLHF
2021-03-11 08:38:14 TV-WEB-HD-X264 Salvage.Hunters.S15E06.720p.WEB.h264-B2B
2021-03-11 08:38:37 TV-WEB-HD-X264 The.Walking.Dead.S10E19.720p.WEB.H264-GLHF
2021-03-11 08:38:48 TV-WEB-HD-X264 Salvage.Hunters.S15E06.1080p.WEB.h264-B2B
2021-03-11 08:39:55 MP3-VINYL Bliss_Team-How_Can_We_Survive-(INX1110)-VINYL-1997-iNViNCiBLE_iNT
2021-03-11 08:40:38 MP3-VINYL Bliss_Team-People_Have_The_Power_(Remix)-(PRX_1007)-VINYL-1993-iNViNCiBLE_iNT
2021-03-11 08:41:05 MP3-VINYL Bliss_Team-U_Take_Me_Up-(INX_1050)-PROMO-VINYL-1996-iNViNCiBLE_iNT
2021-03-11 08:42:28 MP3-VINYL Bliss_Team-You_Make_Me_Cry__(Remix)-(INPR1120)-VINYL-1995-iNViNCiBLE_iNT
2021-03-11 08:42:37 TV-WEB-HD-X264 Klassen.S10E30.Victorias.Haevn.DANiSH.720p.WEB.H264-DKiDS
2021-03-11 08:51:03 MP3-WEB Strfkr-Reptilians_(10-Year_Anniversary_Edition)-WEB-2021-TosK
2021-03-11 08:51:32 MP3-WEB Black_Pumas-Black_Pumas_(Expanded_Deluxe_Edition)-WEB-2021-TosK
2021-03-11 08:54:11 MP3-WEB Lampo.-Lampo_Shots-WEB-CN-2021-TosK
2021-03-11 08:54:32 XXX-HD ClubSweethearts.21.03.11.Kiere.And.Matty.Lesbian.Finger.Story.XXX.1080p.MP4-WRB
2021-03-11 08:55:03 MP3 Bliss_Team-You_Make_Me_Cry-(MECI-25073)-1996-iNViNCiBLE_iNT
2021-03-11 08:57:56 XXX-HD ClubSweethearts.21.03.11.Kiere.And.Matty.Lesbian.Finger.Story.XXX.2160p.MP4-WRB
2021-03-11 08:59:11 0DAY Neverwinter.Nights.Enhanced.Edition.Dark.Dreams.of.Furiae.v82.8193.20.1.MacOS.MULTI6-I_KnoW
2021-03-11 09:01:41 TV-WEB-HD-X264 Chicago.Med.S06E08.1080p.WEB.H264-STRONTiUM
2021-03-11 09:02:06 TV-WEB-HD-X264 Chicago.Med.S06E08.720p.WEB.H264-STRONTiUM
2021-03-11 09:02:24 XXX-HD MetArtX.21.03.11.Bernie.Forbidden.Fruit.2.XXX.1080p.MP4-WRB
2021-03-11 09:03:23 TV-WEB-HD-X264 Chicago.PD.S08E08.1080p.WEB.H264-STRONTiUM
2021-03-11 09:03:53 TV-WEB-HD-X264 Chicago.PD.S08E08.720p.WEB.H264-STRONTiUM
2021-03-11 09:04:04 0DAY Neverwinter.Nights.Enhanced.Edition.Dark.Dreams.of.Furiae.v82.8193.20.1.MULTI6-I_KnoW
2021-03-11 09:05:37 TV-WEB-HD-X264 Snowfall.S04E04.1080p.WEB.H264-STRONTiUM
2021-03-11 09:06:06 TV-WEB-HD-X264 Snowfall.S04E04.720p.WEB.H264-STRONTiUM
2021-03-11 09:07:02 XXX-HD MetArtX.21.03.11.Bernie.Forbidden.Fruit.2.XXX.2160p.MP4-WRB
2021-03-11 09:07:04 TV-WEB-HD-X264 Verslaafd.S11E02.DUTCH.720p.WEB.h264-ADRENALiNE
2021-03-11 09:07:16 TV-WEB-HD-X264 Chicago.Fire.S09E08.1080p.WEB.H264-STRONTiUM
2021-03-11 09:07:46 TV-WEB-HD-X264 Chicago.Fire.S09E08.720p.WEB.H264-STRONTiUM
2021-03-11 09:09:04 TV-WEB-HD-X264 Verslaafd.S11E02.DUTCH.1080p.WEB.h264-ADRENALiNE
2021-03-11 09:10:16 TV-HD-X264 Married.At.First.Sight.AU.S08E12.1080p.HDTV.H264-CBFM
2021-03-11 09:10:24 XXX-HD InterracialPickups.21.03.11.Skye.Blue.XXX.1080p.MP4-WRB
2021-03-11 09:12:54 TV-HD-X264 Amazing.Grace.2021.S01E02.1080p.HDTV.H264-CBFM
2021-03-11 09:13:30 TV-WEB-HD-X264 Generation.S01E01.1080p.WEB.H264-GLHF
2021-03-11 09:13:32 XXX-HD TeenSexMovs.21.03.11.Hanna.Rey.XXX.INTERNAL.1080p.MP4-WRB
2021-03-11 09:13:58 TV-HD-X264 Kallid.Kalorid.S01E07.1080p.EE.HDTV.H264-TvD
2021-03-11 09:14:35 TV-HD-X264 Wellington.Paranormal.S03E03.1080p.HDTV.H264-CBFM
2021-03-11 09:15:04 XXX-HD VivThomas.21.03.11.Kate.Quinn.And.Angelika.Greys.First.Taste.XXX.1080p.MP4-WRB
2021-03-11 09:15:55 TV-WEB-HD-X264 Generation.S01E03.1080p.WEB.H264-GLHF
2021-03-11 09:16:00 XXX-IMAGESET TheLifeErotic.com_21.03.11.Mia.Trejsi.Secret.Identity.1.XXX.IMAGESET-FuGLi
2021-03-11 09:16:20 TV-HD-X264 Aftertaste.S01E06.1080p.HDTV.H264-CBFM
2021-03-11 09:16:25 TV-HD-X264 Aftertaste.S01E06.720p.HDTV.x264-CBFM
2021-03-11 09:17:45 TV-WEB-HD-X264 Generation.S01E02.1080p.WEB.H264-GLHF
2021-03-11 09:18:27 XXX-HD VivThomas.21.03.11.Kate.Quinn.And.Angelika.Greys.First.Taste.XXX.2160p.MP4-WRB
2021-03-11 09:18:31 TV-HD-X264 Why.Are.You.Like.This.S01E05.1080p.HDTV.H264-CBFM
2021-03-11 09:18:36 TV-HD-X264 Why.Are.You.Like.This.S01E05.720p.HDTV.x264-CBFM
2021-03-11 09:19:04 TV-WEB-HD-X264 StarBeam.S03E01.DUTCH.1080p.WEB.h264-NLKIDS
2021-03-11 09:19:40 TV-WEB-HD-X264 Generation.S01E01.720p.WEB.H264-GLHF
2021-03-11 09:20:38 TV-HD-X264 Australia.In.Colour.S02E01.1080p.HDTV.H264-CBFM
2021-03-11 09:20:42 TV-HD-X264 Australia.In.Colour.S02E01.720p.HDTV.x264-CBFM
2021-03-11 09:20:52 TV-WEB-HD-X264 Generation.S01E02.720p.WEB.H264-GLHF
2021-03-11 09:21:14 TV-WEB-HD-X264 Generation.S01E03.720p.WEB.H264-GLHF
2021-03-11 09:21:44 XXX-HD JesseLoadsMonsterFacials.21.03.11.Leah.Lee.XXX.1080p.MP4-WRB
2021-03-11 09:22:37 TV-HD-X264 Hard.Quiz.S06E04.720p.HDTV.x264-CBFM
2021-03-11 09:24:03 TV-WEB-HD-X264 StarBeam.S03E02.DUTCH.1080p.WEB.h264-NLKIDS
2021-03-11 09:24:25 TV-HD-X264 The.Weekly.With.Charlie.Pickering.S07E06.720p.HDTV.x264-CBFM
2021-03-11 09:25:56 TV-WEB-HD-X264 StarBeam.S03E03.DUTCH.1080p.WEB.h264-NLKIDS
2021-03-11 09:26:11 XXX-HD ALSScan.21.03.11.Dani.Blu.Light.Touch.XXX.1080p.MP4-WRB
2021-03-11 09:30:13 XXX-HD ALSScan.21.03.11.Dani.Blu.Light.Touch.XXX.2160p.MP4-WRB
2021-03-11 09:33:20 TV-WEB-HD-X264 StarBeam.S03E04.DUTCH.1080p.WEB.h264-NLKIDS
2021-03-11 09:33:24 TV-WEB-HD-X264 StarBeam.S03E05.DUTCH.1080p.WEB.h264-NLKIDS
2021-03-11 09:33:29 TV-WEB-HD-X264 StarBeam.S03E06.DUTCH.1080p.WEB.h264-NLKIDS
2021-03-11 09:33:35 TV-WEB-HD-X264 StarBeam.S03E07.DUTCH.1080p.WEB.h264-NLKIDS
2021-03-11 09:33:43 TV-WEB-HD-X264 StarBeam.S03E08.DUTCH.1080p.WEB.h264-NLKIDS
2021-03-11 09:33:50 TV-WEB-HD-X264 StarBeam.S03E09.DUTCH.1080p.WEB.h264-NLKIDS
2021-03-11 09:34:54 XXX-HD IHaveAWife.21.03.11.Lilly.Bell.XXX.1080p.MP4-WRB
2021-03-11 09:36:25 TV-WEB-HD-X264 Stephen.Colbert.2021.03.10.Emmanuel.Acho.1080p.WEB.H264-JEBAITED
2021-03-11 09:36:29 TV-WEB-HD-X264 Stephen.Colbert.2021.03.10.Emmanuel.Acho.720p.WEB.H264-JEBAITED
2021-03-11 09:39:47 TV-HD-X264 Crazy.Food.USA.-.Wir.frittieren.fast.alles.S07E02.Candy.Hot.Chocolate.German.DOKU.1080p.HDTV.x264-ATAX
2021-03-11 09:40:33 XXX-HD IHaveAWife.21.03.11.Lilly.Bell.XXX.2160p.MP4-WRB
2021-03-11 09:41:40 TV-HD-X264 Crazy.Food.USA.-.Wir.frittieren.fast.alles.S07E02.Candy.Hot.Chocolate.German.DOKU.720p.HDTV.x264-ATAX
2021-03-11 09:43:20 TV-SD-X264 Crazy.Food.USA.-.Wir.frittieren.fast.alles.S07E02.Candy.Hot.Chocolate.German.DOKU.HDTVRip.x264-ATAX
2021-03-11 09:45:32 XXX-HD AdultPrime.21.03.11.Mea.Melone.Yoga.XXX.1080p.MP4-WRB
2021-03-11 09:46:04 TV-HD-X264 Crazy.Food.USA.-.Wir.frittieren.fast.alles.S07E03.Schwarzwaelder.Kirsch.Limo.German.DOKU.1080p.HDTV.x264-ATAX
2021-03-11 09:48:00 TV-HD-X264 Crazy.Food.USA.-.Wir.frittieren.fast.alles.S07E03.Schwarzwaelder.Kirsch.Limo.German.DOKU.720p.HDTV.x264-ATAX
2021-03-11 09:49:36 TV-SD-X264 Crazy.Food.USA.-.Wir.frittieren.fast.alles.S07E03.Schwarzwaelder.Kirsch.Limo.German.DOKU.HDTVRip.x264-ATAX
2021-03-11 09:49:54 MP3-WEB Matt_Nash_Feat_Lucas_Marx_-_Midnight-(STMPD412B)-SINGLE-WEB-2021-iDC
2021-03-11 09:51:56 TV-HD-X264 Crazy.Food.USA.-.Wir.frittieren.fast.alles.S07E04.Zucker.Rausch.German.DOKU.1080p.HDTV.x264-ATAX
2021-03-11 09:52:28 TV-WEB-HD-X264 Goldrausch.in.Alaska.S11E03.Parker.ohne.Plan.GERMAN.720p.WEB.x264-CDD
2021-03-11 09:54:00 TV-WEB-HD-X264 Goldrausch.in.Alaska.S11E23.Die.Legende.von.Porcupine.Creek.GERMAN.720p.WEB.x264-CDD
2021-03-11 09:54:13 TV-HD-X264 Crazy.Food.USA.-.Wir.frittieren.fast.alles.S07E04.Zucker.Rausch.German.DOKU.720p.HDTV.x264-ATAX
2021-03-11 09:56:03 TV-SD-X264 Crazy.Food.USA.-.Wir.frittieren.fast.alles.S07E04.Zucker.Rausch.German.DOKU.HDTVRip.x264-ATAX
2021-03-11 09:56:14 BLURAY-X264 Jiu.Jitsu.2020.German.DL.1080p.BluRay.x264-ENCOUNTERS
2021-03-11 09:59:07 GAMES-PC Isolationist.Nightclub.Simulator-DARKSiDERS
2021-03-11 10:01:09 TV-WEB-HD-X264 The.Con.S01E05.720p.WEB.h264-KOGi
2021-03-11 10:01:12 TV-WEB-HD-X264 Stjerner.I.Troejen.S01E07.DANiSH.720p.WEB.h264-HYGGE
2021-03-11 10:01:58 TV-WEB-HD-X264 Philip.May.Og.Simone.S01E04.DANiSH.720p.WEB.h264-HYGGE
2021-03-11 10:02:50 TV-WEB-HD-X264 Philip.May.Og.Simone.S01E04.DANiSH.1080p.WEB.h264-HYGGE
2021-03-11 10:03:15 TV-WEB-HD-X264 Stjerner.I.Troejen.S01E07.DANiSH.1080p.WEB.h264-HYGGE
2021-03-11 10:05:10 XXX-IMAGESET Nubiles.net_21.03.11.Amalia.Davis.Check.Me.Out.XXX.IMAGESET-FuGLi
2021-03-11 10:05:36 XXX-IMAGESET Nubiles.net_21.03.11.Lia.Light.Open.Up.XXX.IMAGESET-FuGLi
2021-03-11 10:05:39 BLURAY-X264 Jiu.Jitsu.2020.German.720p.BluRay.x264-ENCOUNTERS
2021-03-11 10:05:54 TV-HD-X264 Chicago.Fire.S09E01.POLISH.720p.HDTV.x264-A4O
2021-03-11 10:08:25 BDRIP-X264 Jiu.Jitsu.German.2020.AC3.BDRiP.x264-XF
2021-03-11 10:10:51 TV-HD-X264 Der.Geiger.Boss.Of.Big.Blocks.S05E01.Jugenderinnerungen.German.DOKU.1080p.HDTV.x264.iNTERNAL-ATAX
2021-03-11 10:11:13 TV-WEB-HD-X264 Mord.im.Mittsommer.S07E01.GERMAN.720p.WEB.h264-WiSHTV
2021-03-11 10:12:02 TV-WEB-SD-X264 Mord.im.Mittsommer.S07E01.GERMAN.WEB.h264-WiSHTV
2021-03-11 10:12:47 TV-WEB-HD-X264 Mord.im.Mittsommer.S07E02.GERMAN.720p.WEB.h264-WiSHTV
2021-03-11 10:13:36 TV-WEB-SD-X264 Mord.im.Mittsommer.S07E02.GERMAN.WEB.h264-WiSHTV
2021-03-11 10:14:20 TV-HD-X264 Der.Geiger.Boss.Of.Big.Blocks.S05E01.Jugenderinnerungen.German.DOKU.720p.HDTV.x264.iNTERNAL-ATAX
2021-03-11 10:14:43 TV-WEB-HD-X264 Mord.im.Mittsommer.S07E03.GERMAN.720p.WEB.h264-WiSHTV
2021-03-11 10:15:01 TV-WEB-HD-X264 UEFA.Champions.League.2021.03.10.Round.of.16.Second.Leg.Liverpool.vs.Leipzig.720p.WEB.h264-VERUM
2021-03-11 10:16:41 TV-SD-X264 Der.Geiger.Boss.Of.Big.Blocks.S05E01.Jugenderinnerungen.German.DOKU.HDTVRip.x264-ATAX
2021-03-11 10:17:55 TV-WEB-HD-X264 UEFA.Champions.League.2021.03.10.Round.of.16.Second.Leg.PSG.vs.Barcelona.720p.WEB.h264-VERUM
2021-03-11 10:18:35 TV-HD-X264 The.Amazing.Race.AU.S05E17.720p.HDTV.x264-ORENJI
2021-03-11 10:18:47 TV-SD-X264 The.Amazing.Race.AU.S05E17.HDTV.x264-FQM
2021-03-11 10:20:26 TV-WEB-SD-X264 Mord.im.Mittsommer.S07E04.GERMAN.WEB.h264-WiSHTV
2021-03-11 10:21:08 TV-WEB-HD-X264 Mord.im.Mittsommer.S07E04.GERMAN.720p.WEB.h264-WiSHTV
2021-03-11 10:21:47 TV-WEB-SD-X264 Mord.im.Mittsommer.S07E03.GERMAN.WEB.h264-WiSHTV
2021-03-11 10:22:54 TV-HD-X264 Der.Geiger.Boss.Of.Big.Blocks.S05E02.Der.Geiger.bei.Morlock.Motors.German.DOKU.1080p.HDTV.x264.iNTERNAL-ATAX
2021-03-11 10:24:24 TV-WEB-HD-X264 Ekte.S02E02.NORWEGiAN.720p.WEB.h264-BAKFYLLA
2021-03-11 10:25:13 TV-WEB-HD-X264 Kokkeliv.S01E01.NORWEGiAN.720p.WEB.h264-BAKFYLLA
2021-03-11 10:25:46 TV-HD-X264 Der.Geiger.Boss.Of.Big.Blocks.S05E02.Der.Geiger.bei.Morlock.Motors.German.DOKU.720p.HDTV.x264.iNTERNAL-ATAX
2021-03-11 10:26:06 TV-WEB-HD-X264 Kokkeliv.S01E02.NORWEGiAN.720p.WEB.h264-BAKFYLLA
2021-03-11 10:26:56 TV-WEB-HD-X264 Kokkeliv.S01E03.NORWEGiAN.720p.WEB.h264-BAKFYLLA
2021-03-11 10:27:46 TV-WEB-HD-X264 Kokkeliv.S01E04.NORWEGiAN.720p.WEB.h264-BAKFYLLA
2021-03-11 10:28:00 TV-SD-X264 Der.Geiger.Boss.Of.Big.Blocks.S05E02.Der.Geiger.bei.Morlock.Motors.German.DOKU.HDTVRip.x264-ATAX
2021-03-11 10:28:12 TV-WEB-HD-X264 Mitt.Liv.Med.Hund.S01E01.NORWEGiAN.720p.WEB.h264-BAKFYLLA
2021-03-11 10:28:40 TV-WEB-HD-X264 Mitt.Liv.Med.Hund.S01E02.NORWEGiAN.720p.WEB.h264-BAKFYLLA
2021-03-11 10:29:07 TV-WEB-HD-X264 Mitt.Liv.Med.Hund.S01E03.NORWEGiAN.720p.WEB.h264-BAKFYLLA
2021-03-11 10:29:35 TV-WEB-HD-X264 Mitt.Liv.Med.Hund.S01E04.NORWEGiAN.720p.WEB.h264-BAKFYLLA
2021-03-11 10:29:53 TV-WEB-HD-X264 Farmhouse.Fixer.S01E02.A.Farmhouse.for.a.Chef.1080p.WEB.h264-KOMPOST
2021-03-11 10:30:00 TV-WEB-HD-X264 Mitt.Liv.Med.Hund.S01E05.NORWEGiAN.720p.WEB.h264-BAKFYLLA
2021-03-11 10:30:27 TV-WEB-HD-X264 Mitt.Liv.Med.Hund.S01E06.NORWEGiAN.720p.WEB.h264-BAKFYLLA
2021-03-11 10:30:56 TV-WEB-HD-X264 Mitt.Liv.Med.Hund.S01E07.NORWEGiAN.720p.WEB.h264-BAKFYLLA
2021-03-11 10:32:00 TV-HD-X264 Der.Geiger.Boss.Of.Big.Blocks.S05E03.Nascar.Fieber.German.DOKU.1080p.HDTV.x264.iNTERNAL-ATAX
2021-03-11 10:32:13 TV-WEB-HD-X264 Farmhouse.Fixer.S01E02.A.Farmhouse.for.a.Chef.720p.WEB.h264-KOMPOST
2021-03-11 10:32:34 TV-WEB-HD-X264 TV2.Hjelper.Deg.S43E10.NORWEGiAN.720p.WEB.h264-BAKFYLLA
2021-03-11 10:34:52 TV-HD-X264 Der.Geiger.Boss.Of.Big.Blocks.S05E03.Nascar.Fieber.German.DOKU.720p.HDTV.x264.iNTERNAL-ATAX
2021-03-11 10:35:10 TV-WEB-HD-X264 Mans.Greatest.Food.S04E11.Cheesy.Dishes.1080p.WEB.h264-KOMPOST
2021-03-11 10:36:08 WEB-HD-X264 James.Corden.2021.03.10.Trevor.Noah.1080p.WEB.H264-JEBAITED
2021-03-11 10:36:10 WEB-HD-X264 James.Corden.2021.03.10.Trevor.Noah.720p.WEB.H264-JEBAITED
2021-03-11 10:37:23 TV-WEB-HD-X264 Mans.Greatest.Food.S04E11.Cheesy.Dishes.720p.WEB.h264-KOMPOST
2021-03-11 10:38:41 TV-SD-X264 Der.Geiger.Boss.Of.Big.Blocks.S05E03.Nascar.Fieber.German.DOKU.HDTVRip.x264-ATAX
2021-03-11 10:42:12 TV-HD-X264 Der.Geiger.Boss.Of.Big.Blocks.S05E04.Fetter.Sound.German.DOKU.1080p.HDTV.x264.iNTERNAL-ATAX
2021-03-11 10:44:33 FLAC Evanescence-The_Bitter_Truth-CD-FLAC-2021-PERFECT
2021-03-11 10:44:34 MP3 Evanescence-The_Bitter_Truth-2021-C4
2021-03-11 10:44:38 TV-HD-X264 Der.Geiger.Boss.Of.Big.Blocks.S05E04.Fetter.Sound.German.DOKU.720p.HDTV.x264.iNTERNAL-ATAX
2021-03-11 10:46:36 TV-SD-X264 Der.Geiger.Boss.Of.Big.Blocks.S05E04.Fetter.Sound.German.DOKU.HDTVRip.x264-ATAX
2021-03-11 10:50:08 GAMES-NSW Jiffy_NSW-SUXXORS
2021-03-11 10:55:07 TV-WEB-HD-X264 South.Park.S24E00.South.ParQ.Vaccination.Special.1080p.WEB.h264-WHOSNEXT
2021-03-11 10:55:16 TV-WEB-HD-X264 South.Park.S24E00.South.ParQ.Vaccination.Special.720p.WEB.h264-WHOSNEXT
2021-03-11 10:57:38 TV-WEB-HD-X264 Resident.Alien.S01E07.720p.WEB.H264-CAKES
2021-03-11 10:57:44 TV-WEB-HD-X264 Resident.Alien.S01E07.1080p.WEB.H264-CAKES
2021-03-11 11:00:13 WEB-HD-X264 Jimmy.Kimmel.2021.03.10.Kevin.Bacon.720p.WEB.H264-JEBAITED
2021-03-11 11:00:52 TV-WEB-HD-X264 Full.Frontal.with.Samantha.Bee.S06E07.1080p.WEB.H264-JEBAITED
2021-03-11 11:02:11 GAMES-NSW Bloody_Bunny_The_Game_NSW-NiiNTENDO
2021-03-11 11:07:18 MP3-WEB Hard_Driver_And_B-Front_-_Infinity-(DWX944)-SINGLE-WEB-2021-SRG
2021-03-11 11:07:38 MP3-WEB Igniter_-_One_More_Night-(GBE121)-SINGLE-WEB-2021-SRG
2021-03-11 11:07:52 MP3-WEB Javi_Boss_-_I_Never_Left-(TBR002)-SINGLE-WEB-2021-SRG_iNT
2021-03-11 11:08:12 MP3-WEB Killaheadz_-_White_Hole-(ELL034)-WEB-2021-SRG
2021-03-11 11:08:24 MP3-WEB Limitless_-_Going_Down-(PRSPX026)-SINGLE-WEB-2021-SRG
2021-03-11 11:11:00 AUDIOBOOK-MP3 Katja_Vesselbo_Dossing_-_Dem_Som_Ingen_Ser-AUDiOBOOK-WEB-DK-2021-OLDSWE_iNT
2021-03-11 11:12:54 AUDIOBOOK-MP3 EL_Dezmin_-_Mig_Skall_Intet_Fattas-AUDiOBOOK-WEB-SE-2021-OLDSWE_iNT
2021-03-11 11:14:44 AUDIOBOOK-MP3 Georg_Pauli_-_Pariserpojkarna-AUDiOBOOK-WEB-SE-2021-OLDSWE_iNT
2021-03-11 11:15:49 TV-WEB-HD-X264 Game.Of.Talents.BE.S01E03.FLEMISH.1080p.WEB.H264-MERCATOR
2021-03-11 11:16:49 TV-WEB-HD-X264 Game.Of.Talents.BE.S01E03.FLEMISH.720p.WEB.H264-MERCATOR
2021-03-11 11:16:55 AUDIOBOOK-MP3 Ia_Lynx_-_Queerlequin_Smak_Av_Solsken-AUDiOBOOK-WEB-SE-2021-OLDSWE_iNT
2021-03-11 11:18:11 MP3-WEB Ronski_Speed_-_Roxy-(NK083)-WEB-2021-L4M_INT
2021-03-11 11:18:20 AUDIOBOOK-MP3 Jens_Hellstrom_-_Brf_Kramsnoe-AUDiOBOOK-WEB-SE-2021-OLDSWE_iNT
2021-03-11 11:19:10 XXX-HD 3.To.Play.2.XXX.iNTERNAL.2160p.WEBRiP.MP4-GUSH
2021-03-11 11:20:33 AUDIOBOOK-MP3 Jens_Nordqvist_-_Skuggsteg-AUDiOBOOK-WEB-SE-2021-OLDSWE_iNT
2021-03-11 11:22:08 MP3-WEB Ferry_Tayle_and_Betsie_Larkin_-_Live_For_Tomorrow_(Giuseppe_Ottaviani_Remix)-(FSOE500P5A)-WEB-2021-L4M_INT
2021-03-11 11:23:19 AUDIOBOOK-MP3 Kenneth_Filipsson_-_Skiftet-AUDiOBOOK-WEB-SE-2021-OLDSWE_iNT
2021-03-11 11:25:46 X264-HD-NORD Undtagelsen.2019.DANiSH.1080p.WEB.H264-TOOSA
2021-03-11 11:25:48 AUDIOBOOK-MP3 Maud_Webster_-_Maffians_Vaerld_Historien_Om_Cosa_Nostra-AUDiOBOOK-WEB-SE-2021-OLDSWE_iNT
2021-03-11 11:25:50 XXX-HD 3.To.Play.3.XXX.iNTERNAL.720p.WEBRiP.MP4-GUSH
2021-03-11 11:26:07 MP3 Fruit_Bats-The_Pet_Parade-2021-404
2021-03-11 11:26:28 MP3 Myles_Sanko-Memories_Of_Love-2021-404
2021-03-11 11:27:40 AUDIOBOOK-MP3 Pamela_Delefors_-_Som_Om_Jag_Inte_Borde_Finnas-AUDiOBOOK-WEB-SE-2021-OLDSWE_iNT
2021-03-11 11:27:48 X264-HD-NORD Undtagelsen.2019.DANiSH.720p.WEB.H264-TOOSA
2021-03-11 11:27:57 FLAC Fruit_Bats-The_Pet_Parade-CD-FLAC-2021-401
2021-03-11 11:28:29 FLAC Myles_Sanko-Memories_Of_Love-CD-FLAC-2021-401
2021-03-11 11:29:45 AUDIOBOOK-MP3 Philip_Kerr_-_Dimridaa-AUDiOBOOK-WEB-SE-2021-OLDSWE_iNT
2021-03-11 11:30:14 WEB-HD-X264 Conan.2021.03.10.Chris.Ludacris.Bridges.1080p.WEB.H264-JEBAITED
2021-03-11 11:32:08 XXX-HD 3.To.Play.3.XXX.iNTERNAL.1080p.WEBRiP.MP4-GUSH
2021-03-11 11:35:21 MP3-WEB C-Systems_and_Hanna_Finsen_-_Listen_To_The_Wind_(Temple_One_Remix)-(DIGISOC399)-WEB-2021-L4M_INT
2021-03-11 11:35:56 TV-HD-X264 Le.sommeil.des.animaux.2017.720p.HDTV.x264.CZ-iCZi
2021-03-11 11:36:03 TV-HD-X265 Le.sommeil.des.animaux.2017.1080p.HDTV.x265.iNTERNAL.CZ-iCZi
2021-03-11 11:36:07 TV-HD-X264 Rochefort.en.baskets.2016.720p.HDTV.x264.CZ-iCZi
2021-03-11 11:36:11 TV-HD-X265 Rochefort.en.baskets.2016.1080p.HDTV.x265.iNTERNAL.CZ-iCZi
2021-03-11 11:40:34 TV-HD-X264 Chantals.Beauty.Camper.S01E02.DUTCH.1080p.HDTV.x264-DTOD
2021-03-11 11:41:11 TV-SD-X264 Le.sommeil.des.animaux.2017.HDTV.x264.CZ-iCZi
2021-03-11 11:41:17 TV-SD-X264 Rochefort.en.baskets.2016.HDTV.x264.CZ-iCZi
2021-03-11 11:42:44 TV-HD-X264 Chantals.Beauty.Camper.S01E02.DUTCH.720p.HDTV.x264-DTOD
2021-03-11 11:42:57 MP3-WEB Whiteout_-_Savenight-(ITP143)-WEB-2021-L4M_INT
2021-03-11 11:49:35 TV-WEB-HD-X264 Restored.S06E01.1912.Transitional.Victorian.720p.WEBRip.x264-KOMPOST
2021-03-11 11:51:26 TV-WEB-HD-X264 Restored.S06E02.1954.Modern.California.Ranch.720p.WEBRip.x264-KOMPOST
2021-03-11 12:02:00 GAMES-PC Everhood_RIP-VACE
2021-03-11 12:03:17 MP3-WEB Mila_Journee-The_Last_Time-(RBR204)-WEB-2021-PTC
2021-03-11 12:03:51 MP3-WEB Jasper_Creed_-_Hearts_Collide-(ZD660)-WEB-2021-MARiBOR_INT
2021-03-11 12:03:51 MP3-WEB Grand_K._-_Heaven-(MMRD1294)-WEB-2021-MARiBOR_INT
2021-03-11 12:03:51 MP3-WEB Dan_Kers_Feat._Destiny_-_Take_Your_Time-(MMRD1293)-WEB-2021-MARiBOR_INT
2021-03-11 12:03:52 MP3-WEB Love_Message_-_Love_Message_(The_90s_Version)-(53500003)-WEB-1996-MARiBOR_INT
2021-03-11 12:04:26 MP3-WEB VA-Paul_Glazby_Anthems_The_Remixes-WEB-2019-XTC_iNT
2021-03-11 12:04:58 GAMES-PC Inglorious_Waifu_VS_Nazi_Zombies_RIP-VACE
2021-03-11 12:05:50 TV-HD-X264 Big.Sky.S01E01.POLISH.720p.HDTV.x264-A4O
2021-03-11 12:06:05 MP3-WEB VA-The_Cream_Of_Ben_Stevens-WEB-2019-XTC_iNT
2021-03-11 12:07:55 MP3-WEB VA-Essential_Hard_House_Vol_16-WEB-2019-XTC_iNT
2021-03-11 12:08:13 GAMES-PC Out_of_Sight_RIP-VACE
2021-03-11 12:10:01 MP3-WEB Thieves_Of_Dreams_-_The_Show__Gimme_Life-(ACTDIG163)-WEB-2021-SRG_iNT
2021-03-11 12:10:05 TV-BLURAY-X264 Flipper.S02E01.Flipper.hilft.der.Wissenschaft.German.DL.FS.1080p.BluRay.x264-PL3X
2021-03-11 12:10:08 TV-BLURAY-X264 Flipper.S02E01.Flipper.hilft.der.Wissenschaft.German.DL.FS.720p.BluRay.x264-PL3X
2021-03-11 12:10:09 TV-BDRIP-X264 Flipper.S02E01.Flipper.hilft.der.Wissenschaft.German.FS.REMASTERED.BDRip.x264-PL3X
2021-03-11 12:10:18 MP3-WEB Vertile_-_Change_This_Place-WEB-2021-SRG_iNT
2021-03-11 12:11:31 MP3-WEB Ronski_Speed-Roxy-(NK083)-WEB-2021-AFO
2021-03-11 12:11:42 TV-HD-X264 Dead.of.Winter.S02E06.Nasses.Grab.German.DOKU.1080p.HDTV.x264-ATAX
2021-03-11 12:12:15 TV-SD-X264 The.Cube.AU.S01E03.HDTV.x264-FQM
2021-03-11 12:12:18 MP3-WEB VA-HDC_Present_Back_To_2006_And_2007-WEB-2020-XTC_iNT
2021-03-11 12:12:27 TV-HD-X264 The.Cube.AU.S01E03.720p.HDTV.x264-ORENJI
2021-03-11 12:13:44 TV-HD-X264 Dead.of.Winter.S02E06.Nasses.Grab.German.DOKU.720p.HDTV.x264-ATAX
2021-03-11 12:13:46 MP3-WEB Ferry_Tayle_and_Betsie_Larkin-Live_For_Tomorrow_(Jase_Thirlwall_Remix)-(FSOE500P5)-WEB-2021-AFO
2021-03-11 12:14:09 MP3-WEB Au5_and_HALIENE-Was_It_You-(ENHANCED482)-WEB-2021-AFO
2021-03-11 12:14:40 MP3-WEB Kaimo_K-Saviour-(UPLFT071)-WEB-2021-AFO
2021-03-11 12:15:04 MP3-WEB Aeonlights-Weekend-(ELPIDAMUSIC012)-WEB-2021-AFO
2021-03-11 12:15:34 TV-SD-X264 Dead.of.Winter.S02E06.Nasses.Grab.German.DOKU.HDTVRip.x264-ATAX
2021-03-11 12:17:59 TV-WEB-HD-X264 Kat.Zonder.Grenzen.S01E01.FLEMISH.720p.WEB.H264-MERCATOR
2021-03-11 12:18:00 MP3-WEB Andy_Prinz_and_Naama_Hillman-Lost_Inside_The_Senses-(ADRAZ087)-WEB-2021-AFO
2021-03-11 12:18:46 MP3-WEB Phillip_J_ft_Kim_Casandra-Change_In_The_Air-(AMSTR375)-WEB-2021-AFO
2021-03-11 12:19:14 WEB-HD-X264 Pano.2021.Waarom.Droogt.Vlaanderen.Uit.FLEMISH.720p.WEB.H264-MERCATOR
2021-03-11 12:19:37 BLURAY-X264 The.Man.Upstairs.1958.1080p.BluRay.x264-ORBS
2021-03-11 12:19:44 MP3-WEB Topmodelz_and_DJ_Fait_-_Here_I_Am-(AQL398)-SINGLE-WEB-2021-MARiBOR
2021-03-11 12:20:27 MP3-WEB h.x.e._ft_Sylvia_Bremer-Chasing_The_Lights-(ESS090)-WEB-2021-AFO
2021-03-11 12:21:18 TV-WEB-HD-X264 Professor.T.S01E09.FLEMISH.720p.WEB.H264-MERCATOR
2021-03-11 12:21:44 TV-WEB-HD-X264 Professor.T.S01E10.FLEMISH.720p.WEB.H264-MERCATOR
2021-03-11 12:23:22 BLURAY-X264 The.Man.Upstairs.1958.720p.BluRay.x264-ORBS
2021-03-11 12:23:31 MP3-WEB Koyah_and_Dan_Stone-Back_To_You_(Koyah_Remix)-(ESR512R)-WEB-2021-AFO
2021-03-11 12:23:37 TV-WEB-SD-X264 To.Catch.a.Smuggler.S03E08.Dark.Web.and.Liquid.Drugs.WEBRip.x264-WEBTUBE
2021-03-11 12:23:37 TV-WEB-HD-X264 To.Catch.a.Smuggler.S03E08.Dark.Web.and.Liquid.Drugs.720p.WEBRip.x264-WEBTUBE
2021-03-11 12:25:57 MP3-WEB HUGEhands-Everyday_EP-(PR2021575)-WEB-2021-AFO
2021-03-11 12:26:29 MP3-WEB Ra5im-Call_of_Ancestors-(INTRICATE405)-WEB-2021-AFO
2021-03-11 12:26:33 MP3-WEB The_Satan_-_Drop__Join_Me-(OTHCDINF006)-WEB-2021-SRG_iNT
2021-03-11 12:27:15 MP3-WEB Simon_Fava_and_Yvvan_Back-Bailar_Riddim-(ETR50)-WEB-2021-AFO
2021-03-11 12:27:40 MP3-WEB Kroman-Black_Slopes-(ESM446)-WEB-2021-AFO
2021-03-11 12:27:56 MP3-WEB Ronald_Nicholson-Draw_Me_Deeper-(FSOEUV149A)-SINGLE-WEB-2021-AFO
2021-03-11 12:27:59 TV-WEB-HD-X264 Radio.Gaga.S04E02.FLEMISH.720p.WEB.H264-MERCATOR
2021-03-11 12:28:24 MP3-WEB Fabian_Schumann_and_Bunched-Eyes-(EUVIS041)-WEB-2021-AFO
2021-03-11 12:28:52 MP3-WEB Calippo-There_for_You-(ETC327)-WEB-2021-AFO
2021-03-11 12:31:23 TV-BLURAY Flipper.S02D01.MULTi.COMPLETE.BLURAY-SharpHD
2021-03-11 12:31:26 TV-WEB-HD-X264 De.Hemmelige.Optagelser.Med.Peter.Madsen.S01E04.DANiSH.720p.WEB.h264-HYGGE
2021-03-11 12:31:38 TV-WEB-HD-X264 De.Hemmelige.Optagelser.Med.Peter.Madsen.S01E04.DANiSH.1080p.WEB.h264-HYGGE
2021-03-11 12:33:17 MP3 Blind_Mr._Jones-Eyes_Wide_E.P.-EP-1992-SDR
2021-03-11 12:34:01 MP3 Claw_Boys_Claw-Bite_The_Dice-CDM-1990-SDR
2021-03-11 12:34:47 MP3 The_Pneumonias-Cheap_Trash_Rock_and_Roll-2007-SDR
2021-03-11 12:35:29 MP3-WEB Christian_Burns-Alive-(BH10830)-WEB-2021-AFO
2021-03-11 12:35:34 MP3 VA-Kick_Off_(18_Soccer_Stompers_From_The_70s_For_Boot_Boys_and_Knuckle_Girls)-Bootleg-2016-SDR
2021-03-11 12:36:16 TV-WEB-SD-X264 The.Challenge.S36E13.The.Spy.Who.Loved.Fessy.WEB.h264-WEBTUBE
2021-03-11 12:36:23 TV-WEB-HD-X264 The.Challenge.S36E13.The.Spy.Who.Loved.Fessy.720p.WEB.h264-WEBTUBE
2021-03-11 12:37:03 MP3-WEB Dave_Ralph-Chasing_Stars-(PRFCT205)-WEB-2021-AFO
2021-03-11 12:37:41 TV-WEB-HD-X264 The.Challenge.S36E13.The.Spy.Who.Loved.Fessy.1080p.WEB.h264-WEBTUBE
2021-03-11 12:37:49 MP3-WEB Yelow-Malecon-WEB-2021-AFO
2021-03-11 12:38:49 MP3-WEB Sam_Heyman-Corvus-(SCRP011)-WEB-2021-AFO
2021-03-11 12:39:45 TV-HD-X264 Big.Sky.S01E02.POLISH.720p.HDTV.x264-A4O
2021-03-11 12:40:09 MP3-WEB Yelow-Malecon-(ELEVATE040)-REPACK-WEB-2021-AFO
2021-03-11 12:40:44 MP3-WEB Evgeny_Lebedev-Digital_Oddysey-(BH10540)-WEB-2021-AFO
2021-03-11 12:42:26 MP3-WEB Marco_V_and_Vision_20_20-WA_VE-(IC226D)-WEB-2021-AFO
2021-03-11 12:42:54 WEB-HD-X264 Jimmy.Fallon.2021.03.10.Norman.Reedus.720p.WEB.h264-KOGi
2021-03-11 12:43:17 WEB-HD-X264 Jimmy.Fallon.2021.03.10.Norman.Reedus.1080p.WEB.h264-KOGi
2021-03-11 12:44:28 TV-WEB-SD-X264 Les.Beaux.Malaises.2.0.S01E07.FRENCH.WEB.x264-BAWLS
2021-03-11 12:44:40 TV-WEB-HD-X264 Les.Beaux.Malaises.2.0.S01E07.FRENCH.720p.WEB.x264-BAWLS
2021-03-11 12:44:59 MP3-WEB Michael_L.-Annular_Eclipse_(Extended)-(VAN2434)-SINGLE-WEB-2021-AFO
2021-03-11 12:46:24 MP3-WEB Stu_Mort-OneOneNine-(LOST167)-WEB-2021-AFO
2021-03-11 12:46:55 TV-WEB-HD-X264 Les.Beaux.Malaises.2.0.S01E07.FRENCH.1080p.WEB.x264-BAWLS
2021-03-11 12:47:50 TV-WEB-HD-X264 4.Stjerners.Rejse.S02E08.DANiSH.720p.WEB.h264-HYGGE
2021-03-11 12:48:36 TV-WEB-HD-X264 4.Stjerners.Rejse.S02E08.DANiSH.1080p.WEB.h264-HYGGE
2021-03-11 12:48:51 BDRIP-X264 The.Man.Upstairs.1958.BDRip.x264-ORBS
2021-03-11 12:49:22 EBOOK L.Equipe.11.Mars.2021.FRENCH.RETAiL.eBook-PRiNTER
2021-03-11 12:49:35 EBOOK The.Guardian.2021.03.10.RETAiL.eBook-PRiNTER
2021-03-11 12:49:43 EBOOK Le.Point.N2534.2021.FRENCH.RETAiL.MAGAZiNE.eBook-PRiNTER
2021-03-11 12:49:53 EBOOK The.Independent.2021.03.07.RETAiL.eBook-PRiNTER
2021-03-11 12:50:03 EBOOK The.Independent.2021.03.11.RETAiL.eBook-PRiNTER
2021-03-11 12:50:12 EBOOK The.Guardian.2021.03.09.RETAiL.eBook-PRiNTER
2021-03-11 12:50:21 EBOOK The.Baltimore.Sun.2021.03.11.RETAiL.eBook-PRiNTER
2021-03-11 12:50:31 EBOOK The.Guardian.2021.03.08.RETAiL.eBook-PRiNTER
2021-03-11 12:50:40 EBOOK The.Independent.2021.03.09.RETAiL.eBook-PRiNTER
2021-03-11 12:50:49 EBOOK The.Independent.2021.03.05.RETAiL.eBook-PRiNTER
2021-03-11 12:50:58 EBOOK Society.N151.2021.FRENCH.RETAiL.MAGAZiNE.eBook-PRiNTER
2021-03-11 12:51:10 EBOOK New.York.Daily.News.2021.03.11.RETAiL.eBook-PRiNTER
2021-03-11 12:51:18 EBOOK L.Obs.N2941.2021.FRENCH.RETAiL.MAGAZiNE.eBook-PRiNTER
2021-03-11 12:51:27 EBOOK Valeurs.Actuelles.N4398.2021.FRENCH.RETAiL.MAGAZiNE.eBook-PRiNTER
2021-03-11 12:51:36 EBOOK L.Express.N3636.2021.FRENCH.RETAiL.MAGAZiNE.eBook-PRiNTER
2021-03-11 12:51:46 EBOOK The.Independent.2021.03.10.RETAiL.eBook-PRiNTER
2021-03-11 12:51:55 EBOOK Los.Angeles.Times.2021.03.11.RETAiL.eBook-PRiNTER
2021-03-11 12:52:05 EBOOK The.Independent.2021.03.04.RETAiL.eBook-PRiNTER
2021-03-11 12:52:14 EBOOK Le.Parisien.11.Mars.2021.FRENCH.RETAiL.eBook-PRiNTER
2021-03-11 12:52:24 EBOOK The.Independent.2021.03.08.RETAiL.eBook-PRiNTER
2021-03-11 12:52:29 MP3-WEB Sergiy_Akinshin-3am-(NIX196)-WEB-2021-AFO
2021-03-11 12:52:33 EBOOK The.Independent.2021.03.06.RETAiL.eBook-PRiNTER
2021-03-11 12:52:42 EBOOK Fluide.Glacial.N537.2021.FRENCH.RETAiL.MAGAZiNE.COMiC.eBook-PRiNTER
2021-03-11 12:52:52 EBOOK The.Washington.Post.2021.03.11.RETAiL.eBook-PRiNTER
2021-03-11 12:53:01 EBOOK The.Boston.Globe.2021.03.11.RETAiL.eBook-PRiNTER
2021-03-11 12:53:07 MP3-WEB Amac-Breath-(BNG031)-WEB-2021-AFO
2021-03-11 12:53:11 EBOOK Politis.N1644.2021.FRENCH.RETAiL.MAGAZiNE.eBook-PRiNTER
2021-03-11 12:53:22 EBOOK The.Guardian.2021.03.05.RETAiL.eBook-PRiNTER
2021-03-11 12:53:29 EBOOK The.Guardian.2021.03.04.RETAiL.eBook-PRiNTER
2021-03-11 12:53:39 EBOOK The.Guardian.2021.03.11.RETAiL.eBook-PRiNTER
2021-03-11 12:53:48 EBOOK The.Guardian.2021.03.06.RETAiL.eBook-PRiNTER
2021-03-11 12:53:58 EBOOK Science.et.Vie.Questions.Reponses.N40.2021.FRENCH.RETAiL.MAGAZiNE.eBook-PRiNTER
2021-03-11 12:54:08 EBOOK Liberation.11.Mars.2021.FRENCH.RETAiL.eBook-PRiNTER
2021-03-11 12:54:32 TV-WEB-HD-X264 Fra.Sydhavn.Til.West.Coast.S01E08.DANiSH.720p.WEB.h264-HYGGE
2021-03-11 12:54:38 TV-HD-X264 Nattarbeiderne.S01E01.NORWEGiAN.720p.HDTV.x264-NORPiLT
2021-03-11 12:55:20 TV-WEB-HD-X264 Fra.Sydhavn.Til.West.Coast.S01E08.DANiSH.1080p.WEB.h264-HYGGE
2021-03-11 12:55:22 MP3-WEB SNYL-Sci-Fied-(JEAHMON039)-WEB-2021-AFO
2021-03-11 12:55:45 MP3-WEB Darkersound-Through_The_Night_(Original_Extended_Mix)-(281SR)-SINGLE-WEB-2021-AFO
2021-03-11 12:56:23 MP3-WEB Inon_Bramy-Sparks_of_Stars-(SMLD095)-WEB-2021-AFO
2021-03-11 12:57:37 TV-HD-X264 Nattarbeiderne.S01E02.NORWEGiAN.720p.HDTV.x264-NORPiLT
2021-03-11 12:57:42 MP3-WEB Hoffmen-Teresa-(EDR201)-WEB-2021-AFO
2021-03-11 12:58:07 MP3-WEB Siddhartha_Says-Stars-(BP10092021)-WEB-2021-AFO
2021-03-11 12:58:16 MP3 Slimzee-Rinse-FM-03-07-2021-z0ne
2021-03-11 12:59:00 MP3-WEB Makin_Bakin-Disco_Shakin-(FDF005)-WEB-2020-AMOR
2021-03-11 12:59:06 BLURAY The.Man.Upstairs.1958.COMPLETE.BLURAY-INCUBO
2021-03-11 12:59:20 MP3-WEB Dream_Debris-Lakelife-(CB042)-WEB-2021-AFO
2021-03-11 12:59:57 TV-WEB-HD-X264 Hverdagens.Helte.S04E06.DANiSH.720p.WEB.h264-HYGGE
2021-03-11 13:00:07 MP3-WEB Ahl_Iver-Down_The_Void_EP-(LENSKE015D)-WEB-2021-AFO
2021-03-11 13:00:24 TV-WEB-HD-X264 Hverdagens.Helte.S04E06.DANiSH.1080p.WEB.h264-HYGGE
2021-03-11 13:00:34 TV-HD-X264 Nattarbeiderne.S01E03.NORWEGiAN.720p.HDTV.x264-NORPiLT
2021-03-11 13:01:17 MP3-WEB Cisco_de_Sol-Arenaya-(SDM092)-WEB-2021-AFO
2021-03-11 13:01:45 MP3-WEB Imran_Khan-Horizonz-(MW012)-WEB-2021-AFO
2021-03-11 13:02:33 MP3-WEB HiWstre-8083-(DM225)-WEB-2021-AFO
2021-03-11 13:03:08 TV-WEB-HD-X264 Hverdagens.Helte.S03E02.DANiSH.720p.WEB.h264-HYGGE
2021-03-11 13:03:25 MP3-WEB Nick_Muir_and_John_Joseph_and_Javier_Benitez-Grooving_The_Right_Way-(PBTM122)-WEB-2021-AFO
2021-03-11 13:03:31 TV-HD-X264 Nattarbeiderne.S01E04.NORWEGiAN.720p.HDTV.x264-NORPiLT
2021-03-11 13:03:32 TV-WEB-HD-X264 S.W.A.T.2017.S04E01.MULTi.1080p.WEB.H264-FREAMON
2021-03-11 13:03:47 TV-WEB-HD-X264 Hverdagens.Helte.S03E02.DANiSH.1080p.WEB.h264-HYGGE
2021-03-11 13:04:14 MP3-WEB Shady-Your_Skin-(BNP039)-WEB-2021-AFO
2021-03-11 13:04:49 MP3-WEB Charlotte_Petitte-The_Only_One_I_Know_EP-(PATTERNIZED012)-WEB-2021-AFO
2021-03-11 13:04:55 TV-WEB-HD-X264 Hverdagens.Helte.S03E03.DANiSH.720p.WEB.h264-HYGGE
2021-03-11 13:05:20 TV-WEB-HD-X264 Hverdagens.Helte.S03E03.DANiSH.1080p.WEB.h264-HYGGE
2021-03-11 13:06:04 MP3-WEB Death_On_The_Balcony-Only_Temporary-(XYZ030)-WEB-2021-AFO
2021-03-11 13:06:23 TV-HD-X264 Nattarbeiderne.S01E05.NORWEGiAN.720p.HDTV.x264-NORPiLT
2021-03-11 13:06:34 TV-WEB-HD-X264 Hverdagens.Helte.S03E06.DANiSH.720p.WEB.h264-HYGGE
2021-03-11 13:06:55 TV-WEB-HD-X264 Hverdagens.Helte.S03E06.DANiSH.1080p.WEB.h264-HYGGE
2021-03-11 13:07:55 XXX-HD 3.To.Play.3.XXX.iNTERNAL.2160p.WEBRiP.MP4-GUSH
2021-03-11 13:09:18 TV-HD-X264 Nattarbeiderne.S01E06.NORWEGiAN.720p.HDTV.x264-NORPiLT
2021-03-11 13:12:15 TV-HD-X264 Nattarbeiderne.S01E07.NORWEGiAN.720p.HDTV.x264-NORPiLT
2021-03-11 13:13:37 AUDIOBOOK-MP3 Arne_Woythal_-_Under_Nordlys-AUDiOBOOK-WEB-DK-2021-OLDSWE_iNT
2021-03-11 13:14:14 MP3-WEB Elhaso-Moms_Lipstick-(3616553626931)-WEB-2021-KNOWN
2021-03-11 13:15:09 TV-HD-X264 Nattarbeiderne.S01E08.NORWEGiAN.720p.HDTV.x264-NORPiLT
2021-03-11 13:15:40 BLURAY-X264 The.Doorman.2020.RERIP.1080p.BluRay.x264-WoAT
2021-03-11 13:15:45 MP3-WEB VA-Best_Of_Winter_Vol_7-(PCL1097)-WEB-2021-KNOWN
2021-03-11 13:16:15 AUDIOBOOK-MP3 Daniel_Silva_-_Den_Hemmelige_Orden-AUDiOBOOK-WEB-DK-2021-OLDSWE_iNT
2021-03-11 13:17:59 MP3-WEB Dave_Emerson-Illusion-(SBR352)-SINGLE-WEB-2021-KNOWN
2021-03-11 13:18:08 TV-HD-X264 Nattarbeiderne.S01E09.NORWEGiAN.720p.HDTV.x264-NORPiLT
2021-03-11 13:21:03 TV-HD-X264 Nattarbeiderne.S01E10.NORWEGiAN.720p.HDTV.x264-NORPiLT
2021-03-11 13:23:32 TV-HD-X264 Les.Mecs.S01E10.FiNAL.FRENCH.720p.HDTV.x264-BAWLS
2021-03-11 13:23:42 TV-SD-X264 Les.Mecs.S01E10.FiNAL.FRENCH.HDTV.x264-BAWLS
2021-03-11 13:23:47 MP3-WEB Dim_Zach_And_The_Sweeps-Sentimental_Disco-(EDR406)-WEB-2021-AMOR
2021-03-11 13:23:56 TV-HD-X264 Nattarbeiderne.S02E01.NORWEGiAN.720p.HDTV.x264-NORPiLT
2021-03-11 13:26:53 TV-HD-X264 Nattarbeiderne.S02E02.NORWEGiAN.720p.HDTV.x264-NORPiLT
2021-03-11 13:29:49 TV-HD-X264 Nattarbeiderne.S02E03.NORWEGiAN.720p.HDTV.x264-NORPiLT
2021-03-11 13:30:58 MP3-WEB Nopi-Bueno_Me_Piese-(DNSOTF039)-WEB-2021-PTC
2021-03-11 13:32:42 MP3 Age_Of_Woe-Envenom-(LFR_202-2)-CD-2021-FERiCE
2021-03-11 13:32:51 TV-HD-X264 Nattarbeiderne.S02E04.NORWEGiAN.720p.HDTV.x264-NORPiLT
2021-03-11 13:33:44 MP3 Bloodspot-The_Cannibal_Instinct-(REAPER030DP)-CD-2021-FERiCE
2021-03-11 13:34:43 TV-WEB-SD-X264 The.Real.Housewives.of.New.Jersey.S11E04.Redo.and.Rewind.WEB.h264-WEBTUBE
2021-03-11 13:34:44 MP3 Conan-Live_At_Freak_Valley-(NPR908JC)-CD-2021-FERiCE
2021-03-11 13:35:23 WEB-HD-X264 Seth.Meyers.2021.03.10.Bill.Gates.720p.WEB.H264-GLHF
2021-03-11 13:35:26 WEB-HD-X264 Seth.Meyers.2021.03.10.Bill.Gates.1080p.WEB.H264-GLHF
2021-03-11 13:35:45 MP3 Marianas_Rest-Fata_Morgana-(NPR993DP)-CD-2021-FERiCE
2021-03-11 13:36:26 TV-HD-X264 Nattarbeiderne.S02E05.NORWEGiAN.720p.HDTV.x264-NORPiLT
2021-03-11 13:36:46 MP3 The_Analogs-CHWDP-PL-LIMITED_EDITION-CD-2021-FERiCE
2021-03-11 13:37:13 MP3-WEB Acado-Hypnos-(ATCK017)-WEB-2021-PTC
2021-03-11 13:37:31 MP3-WEB Future_Proof-Wisdom_of_Darkness-(MUKKE051)-WEB-2021-PTC
2021-03-11 13:38:38 WEB-SD-X264 Watch.What.Happens.Live.2021.03.08.WEB.h264-WEBTUBE
2021-03-11 13:38:45 WEB-HD-X264 Watch.What.Happens.Live.2021.03.08.720p.WEB.h264-WEBTUBE
2021-03-11 13:38:51 WEB-HD-X264 Watch.What.Happens.Live.2021.03.08.1080p.WEB.h264-WEBTUBE
2021-03-11 13:39:12 BLURAY-AVC Jiu.Jitsu.2020.German.DL.1080p.BluRay.AVC-AVC4D
2021-03-11 13:39:24 TV-HD-X264 Nattarbeiderne.S02E06.NORWEGiAN.720p.HDTV.x264-NORPiLT
2021-03-11 13:42:02 FLAC Bloodspot-The_Cannibal_Instinct-(REAPER030DP)-CD-FLAC-2021-WRE
2021-03-11 13:42:09 MP3-WEB Phortah_and_J_Gluck-Iduka-(SAI031)-SINGLE-WEB-2021-PTC
2021-03-11 13:42:21 TV-HD-X264 Nattarbeiderne.S02E07.NORWEGiAN.720p.HDTV.x264-NORPiLT
2021-03-11 13:43:14 FLAC Conan-Live_At_Freak_Valley-(NPR908JC)-CD-FLAC-2021-WRE
2021-03-11 13:43:59 WEB-SD-X264 Watch.What.Happens.Live.2021.03.09.WEB.h264-WEBTUBE
2021-03-11 13:44:05 WEB-HD-X264 Watch.What.Happens.Live.2021.03.09.1080p.WEB.h264-WEBTUBE
2021-03-11 13:44:19 WEB-HD-X264 Watch.What.Happens.Live.2021.03.09.720p.WEB.h264-WEBTUBE
2021-03-11 13:44:48 FLAC Marianas_Rest-Fata_Morgana-(NPR993DP)-CD-FLAC-2021-WRE
2021-03-11 13:45:15 TV-HD-X264 Nattarbeiderne.S02E08.NORWEGiAN.720p.HDTV.x264-NORPiLT
2021-03-11 13:45:43 MP3-WEB Four_Limbs-Against_The_Ropes-WEB-2021-hbZ
2021-03-11 13:48:11 TV-HD-X264 Nattarbeiderne.S02E09.NORWEGiAN.720p.HDTV.x264-NORPiLT
2021-03-11 13:48:44 XXX-IMAGESET MetArt.com_21.03.11.Elvera.Pinot.Pair.XXX.IMAGESET-FuGLi
2021-03-11 13:49:36 XXX-IMAGESET MetArt.com_21.03.11.Kay.J.Backroad.XXX.IMAGESET-FuGLi
2021-03-11 13:50:25 MP3-WEB The_Micronaut-The_Micronaut_Remixes-(RMXS002)-WEB-2021-PTC
2021-03-11 13:51:11 TV-HD-X264 Nattarbeiderne.S02E10.NORWEGiAN.720p.HDTV.x264-NORPiLT
2021-03-11 13:53:39 XXX-IMAGESET MetArt.com_21.03.11.Vanessa.Angel.Wild.Purple.XXX.IMAGESET-FuGLi
2021-03-11 13:54:05 TV-HD-X264 Nattarbeiderne.S02E11.NORWEGiAN.720p.HDTV.x264-NORPiLT
2021-03-11 13:54:12 MP3-WEB Rees-Jupiter_Disco-(NEIN2107)-WEB-2021-PTC
2021-03-11 13:54:18 BLURAY-FULL Fukushima.50.2020.MULTi.COMPLETE.BLURAY-SharpHD
2021-03-11 13:54:45 XXX-IMAGESET MetArt.com_21.03.11.Magen.Spike.Heels.XXX.IMAGESET-FuGLi
2021-03-11 13:56:55 TV-WEB-SD-X264 Days.of.our.Lives.S56E118.WEB.h264-WEBTUBE
2021-03-11 13:56:58 TV-WEB-HD-X264 Days.of.our.Lives.S56E118.720p.WEB.h264-WEBTUBE
2021-03-11 13:56:59 TV-HD-X264 Nattarbeiderne.S02E12.NORWEGiAN.720p.HDTV.x264-NORPiLT
2021-03-11 13:57:04 TV-WEB-HD-X264 Days.of.our.Lives.S56E118.1080p.WEB.h264-WEBTUBE
2021-03-11 13:59:57 TV-HD-X264 Nattarbeiderne.S02E13.NORWEGiAN.720p.HDTV.x264-NORPiLT
2021-03-11 14:00:18 WEB-HD-X264 Lilly.Singh.2021.03.10.Zach.King.1080p.WEB.H264-GLHF
2021-03-11 14:00:18 WEB-HD-X264 Lilly.Singh.2021.03.10.Zach.King.720p.WEB.H264-GLHF
2021-03-11 14:02:51 TV-HD-X264 Nattarbeiderne.S02E14.NORWEGiAN.720p.HDTV.x264-NORPiLT
2021-03-11 14:03:55 MP3-WEB Popof-Skylighter-(FORM95)-WEB-2021-PTC
2021-03-11 14:04:12 MP3-WEB Quisan-Thoughts-(NATBLACK302)-WEB-2021-PTC
2021-03-11 14:04:32 TV-WEB-HD-X264 Days.of.our.Lives.S56E119.1080p.WEB.h264-WEBTUBE
2021-03-11 14:04:32 TV-WEB-SD-X264 Days.of.our.Lives.S56E119.WEB.h264-WEBTUBE
2021-03-11 14:04:33 TV-WEB-HD-X264 Days.of.our.Lives.S56E119.720p.WEB.h264-WEBTUBE
2021-03-11 14:05:45 TV-HD-X264 Nattarbeiderne.S02E15.NORWEGiAN.720p.HDTV.x264-NORPiLT
2021-03-11 14:08:38 TV-HD-X264 Nattarbeiderne.S02E16.NORWEGiAN.720p.HDTV.x264-NORPiLT
2021-03-11 14:09:17 WEB-HD-X265 Es.ist.zu.deinem.Besten.2021.German.HDR.2160p.WEBRiP.x265-CTFOH
2021-03-11 14:09:31 TV-WEB-SD-X264 The.Bold.and.the.Beautiful.S34E112.WEB.h264-WEBTUBE
2021-03-11 14:09:37 TV-WEB-HD-X264 The.Bold.and.the.Beautiful.S34E112.720p.WEB.h264-WEBTUBE
2021-03-11 14:09:41 TV-WEB-HD-X264 The.Bold.and.the.Beautiful.S34E112.1080p.WEB.h264-WEBTUBE
2021-03-11 14:11:23 MP3-WEB Andre_Winter-Tripppin-(SENSO077)-WEB-2021-PTC
2021-03-11 14:11:33 TV-HD-X264 Soelvrekka.S01E01.NORWEGiAN.720p.HDTV.x264-NORPiLT
2021-03-11 14:11:36 MP3-WEB Robert_Hood-Underestimated_EP-(MPM36)-WEB-2021-PTC_INT
2021-03-11 14:12:45 BLURAY-FULL Jiu.Jitsu.2020.MULTi.COMPLETE.BLURAY-GMB
2021-03-11 14:13:48 MP3-WEB CRi-Juvenile_(Remixed)-(ANJCD087RD)-WEB-2021-AFO
2021-03-11 14:14:26 TV-HD-X264 Soelvrekka.S01E02.NORWEGiAN.720p.HDTV.x264-NORPiLT
2021-03-11 14:14:28 MP3-WEB Steve_Bug_and_Cle-20_Years_Of_Poker_Flat_Remixes-(PFR239)-WEB-2021-AFO
2021-03-11 14:15:24 TV-WEB-SD-X264 The.Bold.and.the.Beautiful.S34E113.WEB.h264-WEBTUBE
2021-03-11 14:15:29 TV-WEB-HD-X264 The.Bold.and.the.Beautiful.S34E113.720p.WEB.h264-WEBTUBE
2021-03-11 14:15:32 TV-WEB-HD-X264 The.Bold.and.the.Beautiful.S34E113.1080p.WEB.h264-WEBTUBE
2021-03-11 14:15:57 MP3-WEB EANP-Eximia_(Remixes)-(BSK006)-WEB-2021-AFO
2021-03-11 14:17:20 MP3-WEB Ron_Flatter-Dea_Dia-(PLV43)-WEB-2021-PTC
2021-03-11 14:17:25 TV-HD-X264 Soelvrekka.S01E03.NORWEGiAN.720p.HDTV.x264-NORPiLT
2021-03-11 14:19:38 TV-WEB-HD-X264 The.Young.and.the.Restless.S48E113.1080p.WEB.h264-WEBTUBE
2021-03-11 14:19:53 TV-WEB-SD-X264 The.Young.and.the.Restless.S48E113.WEB.h264-WEBTUBE
2021-03-11 14:20:01 TV-WEB-HD-X264 The.Young.and.the.Restless.S48E113.720p.WEB.h264-WEBTUBE
2021-03-11 14:20:21 TV-HD-X264 Soelvrekka.S01E04.NORWEGiAN.720p.HDTV.x264-NORPiLT
2021-03-11 14:20:29 MP3-WEB LTN_and_Aser_Gado_-_Keep_Me_Closer-(AVA355)-WEB-2021-L4M_INT
2021-03-11 14:20:35 MP3-WEB IN5UM-Air_Mode-(INC203)-WEB-2021-AFO
2021-03-11 14:20:35 MP3-WEB The_Journey_and_Haptic-Memento_Mori-(DD206)-WEB-2021-PTC
2021-03-11 14:20:37 MP3-WEB Ghost_Etiquette_ft._Aza_Nabuko_-_Needed_You_(Sam_Laxton_Remix)-(AVAW197)-WEB-2021-L4M_INT
2021-03-11 14:23:18 TV-HD-X264 Soelvrekka.S01E05.NORWEGiAN.720p.HDTV.x264-NORPiLT
2021-03-11 14:24:16 TV-WEB-SD-X264 The.Young.and.the.Restless.S48E114.WEB.h264-WEBTUBE
2021-03-11 14:24:34 TV-HD-X264 Dr.Ks.tierische.Notaufnahme.S03E02.Neues.Zuhause.German.DL.DOKU.1080p.HDTV.x264-ATAX
2021-03-11 14:24:39 TV-WEB-HD-X264 The.Young.and.the.Restless.S48E114.1080p.WEB.h264-WEBTUBE
2021-03-11 14:25:02 TV-WEB-HD-X264 The.Young.and.the.Restless.S48E114.720p.WEB.h264-WEBTUBE
2021-03-11 14:26:21 TV-HD-X264 Soelvrekka.S01E06.NORWEGiAN.720p.HDTV.x264-NORPiLT
2021-03-11 14:26:56 TV-HD-X264 Dr.Ks.tierische.Notaufnahme.S03E02.Neues.Zuhause.German.DL.DOKU.720p.HDTV.x264-ATAX
2021-03-11 14:26:58 GAMES-NSW WRC_9_The_Official_Game_NSW-NiiNTENDO
2021-03-11 14:30:22 TV-HD-X264 Soelvrekka.S01E07.NORWEGiAN.720p.HDTV.x264-NORPiLT
2021-03-11 14:32:40 FLAC Marc_Bolan-The_Beginning_Of_Doves-REISSUE-CD-FLAC-1991-MAHOU
2021-03-11 14:33:19 MP3-WEB All_Is_Well_and_Martin_Iveson-Cosmos-(INT046)-WEB-2021-PTC
2021-03-11 14:33:21 TV-HD-X264 Soelvrekka.S01E08.NORWEGiAN.720p.HDTV.x264-NORPiLT
2021-03-11 14:33:23 FLAC Michael_Nyman-The_Claim-OST-CD-FLAC-2000-MAHOU
2021-03-11 14:33:33 MP3-WEB Deckert-A_Line_in_the_Sand-(KIN036)-WEB-2021-PTC
2021-03-11 14:34:05 FLAC Simple_Minds-Life_In_A_Day-REISSUE-CD-FLAC-2001-MAHOU
2021-03-11 14:34:05 MP3-WEB Max_Wexem-Tidbit-(LMKA137)-WEB-2021-PTC
2021-03-11 14:34:48 FLAC The_Beach_Boys-Smiley_Smile__Wild_Honey-REISSUE-CD-FLAC-1990-MAHOU
2021-03-11 14:35:10 TV-BLURAY-X264 Pure.2017.S02E01.720p.BluRay.x264-BRAVERY
2021-03-11 14:35:23 WEB-HD-X264 Yes.ka.No.ka.Hanbun.ka.SUBFRENCH.1080p.WEB.X264-SLEEPINGFOREST
2021-03-11 14:35:29 FLAC Wim_Mertens-Integer_Valor-CD-FLAC-1998-MAHOU
2021-03-11 14:36:09 TV-BLURAY-X264 Pure.2017.S02E01.1080p.BluRay.x264-BRAVERY
2021-03-11 14:36:20 TV-HD-X264 Soelvrekka.S01E09.NORWEGiAN.720p.HDTV.x264-NORPiLT
2021-03-11 14:36:28 MP3-WEB VA-Focus_on_Nicholas_Van_Orton-(BCSA0477)-WEB-2021-AFO
2021-03-11 14:37:08 TV-WEB-HD-X264 Re.Zero.kara.Hajimeru.Isekai.Seikatsu.Second.Season.E23.SUBFRENCH.1080p.WEB.X264-SLEEPINGFOREST
2021-03-11 14:37:12 EBOOK Le.Monde.11.Mars.2021.French.Retail.eBook-FMR
2021-03-11 14:37:21 EBOOK Le.Monde.Supplement.Special.11.Mars.2021.French.Retail.eBook-FMR
2021-03-11 14:37:29 EBOOK Le.Monde.12.Mars.2021.French.Retail.eBook-FMR
2021-03-11 14:37:42 TV-WEB-HD-X264 Alle.unter.einem.Dach.S01E01.German.DL.1080p.WebHD.x264-FKKTV
2021-03-11 14:38:08 TV-WEB-HD-X264 I.CHU.Halfway.Through.The.Idol.E10.SUBFRENCH.1080p.WEB.X264-SLEEPINGFOREST
2021-03-11 14:38:09 TV-BDRIP-X264 Pure.2017.S02E01.BDRip.x264-BRAVERY
2021-03-11 14:38:33 TV-WEB-HD-X264 Alle.unter.einem.Dach.S01E02.German.DL.1080p.WebHD.x264-FKKTV
2021-03-11 14:38:55 TV-WEB-HD-X264 Abciee.Shuugyou.Nikki.E10.SUBFRENCH.1080p.WEB.X264-SLEEPINGFOREST
2021-03-11 14:39:19 TV-HD-X264 Soelvrekka.S01E10.NORWEGiAN.720p.HDTV.x264-NORPiLT
2021-03-11 14:39:27 TV-WEB-HD-X264 Alle.unter.einem.Dach.S01E03.German.DL.1080p.WebHD.x264-FKKTV
2021-03-11 14:40:23 TV-WEB-HD-X264 Alle.unter.einem.Dach.S01E04.German.DL.1080p.WebHD.x264-FKKTV
2021-03-11 14:41:16 TV-WEB-HD-X264 Alle.unter.einem.Dach.S01E05.German.DL.1080p.WebHD.x264-FKKTV
2021-03-11 14:42:10 TV-WEB-HD-X264 Alle.unter.einem.Dach.S01E06.German.DL.1080p.WebHD.x264-FKKTV
2021-03-11 14:42:14 TV-HD-X264 Sophie.Elises.Verden.S01E01.NORWEGiAN.720p.HDTV.x264-NORPiLT
2021-03-11 14:42:57 TV-SD-X264 Dr.Ks.tierische.Notaufnahme.S03E02.Neues.Zuhause.German.DL.DOKU.HDTVRip.x264-ATAX
2021-03-11 14:43:04 TV-WEB-HD-X264 Alle.unter.einem.Dach.S01E07.German.DL.1080p.WebHD.x264-FKKTV
2021-03-11 14:43:57 TV-WEB-HD-X264 Alle.unter.einem.Dach.S01E08.German.DL.1080p.WebHD.x264-FKKTV
2021-03-11 14:44:50 TV-WEB-HD-X264 Alle.unter.einem.Dach.S01E09.German.DL.1080p.WebHD.x264-FKKTV
2021-03-11 14:45:07 TV-HD-X264 Sophie.Elises.Verden.S01E02.NORWEGiAN.720p.HDTV.x264-NORPiLT
2021-03-11 14:45:44 TV-WEB-HD-X264 Alle.unter.einem.Dach.S01E10.German.DL.1080p.WebHD.x264-FKKTV
2021-03-11 14:45:53 MP3-WEB Traveller_-_Bright_Sign_(Talla_2XLC_Remix)-(TCR006)-WEB-2021-JUSTiFY_iNT
2021-03-11 14:46:38 TV-WEB-HD-X264 Alle.unter.einem.Dach.S01E11.German.DL.1080p.WebHD.x264-FKKTV
2021-03-11 14:46:56 MP3-WEB ISKO_(HU)_and_Agarta_(HU)-Sagittarius-(SEQ025)-WEB-2021-PTC
2021-03-11 14:47:27 MP3-WEB Sydney_Blu-Conviction-(BLU053)-WEB-2021-PTC
2021-03-11 14:47:31 TV-WEB-HD-X264 Alle.unter.einem.Dach.S01E12.German.DL.1080p.WebHD.x264-FKKTV
2021-03-11 14:47:58 TV-HD-X264 Sophie.Elises.Verden.S01E03.NORWEGiAN.720p.HDTV.x264-NORPiLT
2021-03-11 14:48:25 TV-WEB-HD-X264 Alle.unter.einem.Dach.S01E13.German.DL.1080p.WebHD.x264-FKKTV
2021-03-11 14:49:20 TV-WEB-HD-X264 Alle.unter.einem.Dach.S01E14.German.DL.1080p.WebHD.x264-FKKTV
2021-03-11 14:50:06 TV-BLURAY-X264 Pure.2017.S02E02.720p.BluRay.x264-BRAVERY
2021-03-11 14:50:54 TV-HD-X264 Sophie.Elises.Verden.S01E04.NORWEGiAN.720p.HDTV.x264-NORPiLT
2021-03-11 14:51:01 TV-WEB-HD-X264 Alle.unter.einem.Dach.S01E15.German.DL.1080p.WebHD.x264-FKKTV
2021-03-11 14:51:54 TV-WEB-HD-X264 Alle.unter.einem.Dach.S01E16.German.DL.1080p.WebHD.x264-FKKTV
2021-03-11 14:52:20 TV-BLURAY-X264 Pure.2017.S02E02.1080p.BluRay.x264-BRAVERY
2021-03-11 14:52:34 TV-WEB-HD-X264 Huis.Gesmaakt.met.Gert.Voorjans.S01E02.FLEMISH.1080p.WEB.H264-MERCATOR
2021-03-11 14:52:48 TV-WEB-HD-X264 Alle.unter.einem.Dach.S01E17.German.DL.1080p.WebHD.x264-FKKTV
2021-03-11 14:53:15 TV-WEB-HD-X264 Huis.Gesmaakt.met.Gert.Voorjans.S01E02.FLEMISH.720p.WEB.H264-MERCATOR
2021-03-11 14:53:24 TV-BDRIP-X264 Pure.2017.S02E02.BDRip.x264-BRAVERY
2021-03-11 14:53:42 TV-WEB-HD-X264 Alle.unter.einem.Dach.S01E18.German.DL.1080p.WebHD.x264-FKKTV
2021-03-11 14:53:47 TV-HD-X264 Sophie.Elises.Verden.S01E05.NORWEGiAN.720p.HDTV.x264-NORPiLT
2021-03-11 14:54:35 TV-WEB-HD-X264 Alle.unter.einem.Dach.S01E19.German.DL.1080p.WebHD.x264-FKKTV
2021-03-11 14:55:29 TV-WEB-HD-X264 Alle.unter.einem.Dach.S01E20.German.DL.1080p.WebHD.x264-FKKTV
2021-03-11 14:56:23 TV-WEB-HD-X264 Alle.unter.einem.Dach.S01E21.German.DL.1080p.WebHD.x264-FKKTV
2021-03-11 14:56:42 TV-HD-X264 Sophie.Elises.Verden.S01E06.NORWEGiAN.720p.HDTV.x264-NORPiLT
2021-03-11 14:57:16 TV-WEB-HD-X264 Alle.unter.einem.Dach.S01E22.German.DL.1080p.WebHD.x264-FKKTV
2021-03-11 14:59:35 TV-HD-X264 Sophie.Elises.Verden.S01E07.NORWEGiAN.720p.HDTV.x264-NORPiLT
2021-03-11 14:59:39 MP3-WEB Subduxtion--Dark_Signals-(MGEP0014)-WEB-2020-BABAS
2021-03-11 15:00:14 MP3-WEB Urmet_K_x_Pete_Josef-Ever_The_Same_(Remix)-(KSS1851)-WEB-2021-x0x0s
2021-03-11 15:02:35 TV-HD-X264 Sophie.Elises.Verden.S01E08.NORWEGiAN.720p.HDTV.x264-NORPiLT
2021-03-11 15:04:19 TV-WEB-HD-X264 Riverdale.US.S05E07.MULTi.1080p.WEB.x264-STRINGERBELL
2021-03-11 15:04:26 TV-WEB-HD-X264 Riverdale.US.S05E07.FRENCH.720p.WEB.x264-STRINGERBELL
2021-03-11 15:05:04 TV-WEB-SD-X264 Riverdale.US.S05E07.FRENCH.WEB.x264-STRINGERBELL
2021-03-11 15:05:15 TV-BLURAY-X264 Pure.2017.S02E03.720p.BluRay.x264-BRAVERY
2021-03-11 15:05:17 TV-WEB-HD-X264 Snowfall.S04E04.SUBFRENCH.1080p.WEB.H264-MORELAND
2021-03-11 15:05:39 TV-WEB-HD-X264 Snowfall.S04E04.SUBFRENCH.720p.WEB.H264-MORELAND
2021-03-11 15:05:43 TV-HD-X264 Sophie.Elises.Verden.S01E09.NORWEGiAN.720p.HDTV.x264-NORPiLT
2021-03-11 15:05:56 TV-WEB-SD-X264 Snowfall.S04E04.SUBFRENCH.WEB.H264-MORELAND
2021-03-11 15:06:52 TV-HD-X264 Mein.Haus.in.Alaska.S05E02.Ganz.gross.gedacht.German.DOKU.1080p.HDTV.x264-ATAX
2021-03-11 15:08:38 TV-HD-X264 Sophie.Elises.Verden.S01E10.NORWEGiAN.720p.HDTV.x264-NORPiLT
2021-03-11 15:08:48 TV-BLURAY-X264 Pure.2017.S02E03.1080p.BluRay.x264-BRAVERY
2021-03-11 15:09:46 MP3-WEB BCee_and_Charlotte_Haining-History_(Technimatic_Remix)-(SPEAR141)-SINGLE-WEB-2021-PTC
2021-03-11 15:10:16 MP3-WEB Kodan-Soul_Rush_EP-(LV097DD)-WEB-2021-PTC
2021-03-11 15:10:32 TV-HD-X264 Mein.Haus.in.Alaska.S05E02.Ganz.gross.gedacht.German.DOKU.720p.HDTV.x264-ATAX
2021-03-11 15:10:42 MP3-WEB Quadrant_and_Iris-Libation_EP-(GDNCE017)-WEB-2021-PTC
2021-03-11 15:11:21 MP3-WEB T_and_Sugah_feat_Voicians-Days_Away-(LIQ101)-WEB-2021-PTC
2021-03-11 15:11:52 TV-HD-X264 Truls.Oppdrag.Norge.S01E08.NORWEGiAN.720p.HDTV.x264-NORPiLT
2021-03-11 15:12:24 TV-SD-X264 Mein.Haus.in.Alaska.S05E02.Ganz.gross.gedacht.German.DOKU.HDTVRip.x264-ATAX
2021-03-11 15:15:30 TV-HD-X264 Mein.Haus.in.Alaska.S05E03.Homer.wir.kommen.German.DOKU.1080p.HDTV.x264-ATAX
2021-03-11 15:16:25 TV-BDRIP-X264 Pure.2017.S02E03.BDRip.x264-BRAVERY
2021-03-11 15:17:40 TV-HD-X264 Mein.Haus.in.Alaska.S05E03.Homer.wir.kommen.German.DOKU.720p.HDTV.x264-ATAX
2021-03-11 15:19:03 XXX-HD 3.To.Play.4.XXX.iNTERNAL.720p.WEBRiP.MP4-GUSH
2021-03-11 15:19:13 TV-SD-X264 Mein.Haus.in.Alaska.S05E03.Homer.wir.kommen.German.DOKU.HDTVRip.x264-ATAX
2021-03-11 15:19:53 TV-WEB-HD-X264 Nip.Tuck.S02E01.GERMAN.DUBBED.DL.720p.WEBRip.x264.iNTERNAL-TMSF
2021-03-11 15:21:09 TV-WEB-HD-X264 Nip.Tuck.S02E01.GERMAN.DUBBED.DL.1080p.WEB.x264-TMSF
2021-03-11 15:22:55 MP3-WEB Oscar_P-A-ny-thing-(STYBD018)-WEB-2021-x0x0s
2021-03-11 15:23:28 MP3-WEB Takashi_Kurosawa_x_Ken_Nishimura-Come_and_Try_It-(DOR304)-SINGLE-WEB-2021-x0x0s
2021-03-11 15:23:43 MP3-WEB Kid_Drama-Dispatch_Blueprints_005-(DISBLP005)-WEB-2021-PTC
2021-03-11 15:24:04 MP3-WEB KL-Incurzion_Optics_009-(IO009)-WEB-2021-PTC
2021-03-11 15:24:14 TV-WEB-HD-X264 The.Flash.2014.S07E02.SUBFRENCH.1080p.WEB.H264-MORELAND
2021-03-11 15:24:18 MP3-WEB Muted_Hue-Parting_Ways-(JAD001)-WEB-2021-PTC
2021-03-11 15:24:34 MP3-WEB Alex_Cortiz--Heads_Up-(VIBINGROOVES00016)-WEB-2021-BABAS
2021-03-11 15:24:36 MP3-WEB Rowpieces-Trying_To_Impress_Myself__Window_To_The_Courtyard-(ROW024)-WEB-2021-PTC
2021-03-11 15:25:07 MP3-WEB Deeper_Beats--Sapce_After_Dub-(DOR301)-WEB-2021-BABAS
2021-03-11 15:25:38 MP3-WEB Thulane_Da_Producer_x_Danny_Saurez--Art_Of_Tones-(DP137)-SINGLE-WEB-2021-BABAS
2021-03-11 15:25:47 TV-WEB-HD-X264 The.Flash.2014.S07E02.SUBFRENCH.720p.WEB.H264-MORELAND
2021-03-11 15:25:52 TV-WEB-SD-X264 The.Flash.2014.S07E02.SUBFRENCH.WEB.H264-MORELAND
2021-03-11 15:26:09 MP3-WEB Thulane_Da_Producer--Unity_Within_EP-(DP135)-WEB-2021-BABAS
2021-03-11 15:26:41 MP3-WEB Thulane_Da_Producer--Trouble_In_My_Mind_(Da_Producers_Mix)-(DP138)-SINGLE-WEB-2021-BABAS
2021-03-11 15:27:12 MP3-WEB DeReal_Musiq_feat_GeeVah--U.N.D.E.R.C.O.V.E.R_EP-(DRMQ004)-WEB-2021-BABAS
2021-03-11 15:27:43 MP3-WEB Messive_Muzik--We_Pray_We_Meditate_EP-(RDB034)-WEB-2021-BABAS
2021-03-11 15:28:10 BLURAY-FULL Pure.2017.S02D01.MULTi.COMPLETE.BLURAY-GMB
2021-03-11 15:32:04 XXX-HD 3.To.Play.4.XXX.iNTERNAL.1080p.WEBRiP.MP4-GUSH
2021-03-11 15:36:05 TV-WEB-HD-X264 Gurli.Gris.S08E33.Hjemmelavede.Musikinstrumenter.DANiSH.720p.WEB.H264-DKiDS
2021-03-11 15:36:18 TV-WEB-SD-X264 Gurli.Gris.S08E33.Hjemmelavede.Musikinstrumenter.DANiSH.WEB.H264-DKiDS
2021-03-11 15:36:34 WEB-HD-X264 The.Block.Island.Sound.2020.GERMAN.DL.1080P.WEB.X264-WAYNE
2021-03-11 15:37:29 WEB-HD-X264 Tanz.der.Unschuldigen.2020.GERMAN.DL.1080P.WEB.X264-WAYNE
2021-03-11 15:38:34 TV-WEB-HD-X264 Riverdale.S05E07.GERMAN.DL.1080P.WEB.X264-WAYNE
2021-03-11 15:42:01 TV-WEB-HD-X264 Rehab.Addict.Rescue.S01E07.Sweat.Equity.1080p.WEB.H264-KOMPOST
2021-03-11 15:43:25 BLURAY-FULL Pure.2017.S02D02.MULTi.COMPLETE.BLURAY-GMB
2021-03-11 15:45:06 TV-WEB-HD-X264 Restaurant.Impossible.S18E10.Listless.in.Louisiana.720p.WEBRip.x264-KOMPOST
2021-03-11 15:46:22 TV-WEB-HD-X264 The.Deadly.Type.With.Candice.DeLong.S01E04.The.Oversharer.720p.WEBRip.x264-KOMPOST
2021-03-11 15:46:35 TV-WEB-HD-X264 Gurli.Gris.S08E34.Ude.I.Fremtiden.DANiSH.720p.WEB.H264-DKiDS
2021-03-11 15:46:48 TV-WEB-SD-X264 Gurli.Gris.S08E34.Ude.I.Fremtiden.DANiSH.WEB.H264-DKiDS
2021-03-11 15:46:52 TV-HD-X264 Gordon.Ramsays.Hoellenkueche.S18E11.Teuflische.Desserts.German.DOKU.1080p.HDTV.x264-ATAX
2021-03-11 15:47:46 TV-BLURAY Flipper.S02D02.MULTi.COMPLETE.BLURAY-SharpHD
2021-03-11 15:48:16 MP3 Rammstein-Live_Aus_Berlin-(475_317-7)-DE-REISSUE-DVD-2020-FREGON
2021-03-11 15:48:37 MP3-WEB Black_Loops-Circulation-(SNF053)-WEB-2021-PTC
2021-03-11 15:49:05 MP3-WEB Kolsch-Isopolis-(IPSO005D)-WEB-2021-PTC
2021-03-11 15:49:30 FLAC Rammstein-Live_Aus_Berlin-(475_317-7)-DE-REISSUE-DVD-FLAC-2020-FREGON
2021-03-11 15:50:08 TV-WEB-HD-X264 Rehab.Addict.Rescue.S01E07.Sweat.Equity.720p.WEB.H264-KOMPOST
2021-03-11 15:51:16 MP3 Ska-P-Que_Corra_La_Voz-(743219450722)-ES-CD-2002-FREGON_INT
2021-03-11 15:51:40 FLAC Ska-P-Que_Corra_La_Voz-(743219450722)-ES-CD-FLAC-2002-FREGON
2021-03-11 15:53:38 GAMES-NSW Immortals_Fenyx_Rising_Update_v1.2.0_NSW-SUXXORS
2021-03-11 15:54:02 MP3 VA-Baila_Con_El_Ritmo_De_Los_Super_Sonideros-(C3D-0180)-ES-3CD-2005-FREGON
2021-03-11 15:54:39 WEB-HD-X264 My.Beautiful.Stutter.2020.720p.WEBRip.x264-KOMPOST
2021-03-11 15:55:39 FLAC VA-Baila_Con_El_Ritmo_De_Los_Super_Sonideros-(C3D-0180)-ES-3CD-FLAC-2005-FREGON
2021-03-11 15:56:37 MP3-WEB Avem-Au_Coeur-(LIL013)-WEB-2021-PTC
2021-03-11 15:57:06 MP3-WEB James_Ruskin-Shortcut-(BP058)-WEB-2021-PTC
2021-03-11 15:57:20 TV-WEB-HD-X264 Nip.Tuck.S02E02.GERMAN.DUBBED.DL.1080p.WEB.x264-TMSF
2021-03-11 15:58:03 MP3 VA-Cuba_Y_Su_Social_Club_Sus_Grandes_Ritmos_Y_Voces-(3-DIG-3971)-ES-3CD-2005-FREGON
2021-03-11 15:58:06 TV-WEB-HD-X264 Nip.Tuck.S02E02.GERMAN.DUBBED.DL.720p.WEBRip.x264.iNTERNAL-TMSF
2021-03-11 15:59:09 TV-WEB-HD-X264 Nip.Tuck.S02E03.GERMAN.DUBBED.DL.1080p.WEB.x264-TMSF
2021-03-11 15:59:35 FLAC VA-Cuba_Y_Su_Social_Club_Sus_Grandes_Ritmos_Y_Voces-(3-DIG-3971)-ES-3CD-FLAC-2005-FREGON
2021-03-11 15:59:56 TV-WEB-HD-X264 Nip.Tuck.S02E03.GERMAN.DUBBED.DL.720p.WEBRip.x264.iNTERNAL-TMSF
2021-03-11 15:59:56 MP3 Eyehategod-A_History_of_Nomadic_Behavior-2021-GRAVEWISH
2021-03-11 16:00:41 TV-WEB-HD-X264 Nip.Tuck.S02E04.GERMAN.DUBBED.DL.1080p.WEB.x264-TMSF
2021-03-11 16:01:27 TV-WEB-HD-X264 Nip.Tuck.S02E04.GERMAN.DUBBED.DL.720p.WEBRip.x264.iNTERNAL-TMSF
2021-03-11 16:01:51 MP3 VA-Super_Sonideros_Serie_De_Oro-(C3D-00041)-ES-3CD-2003-FREGON
2021-03-11 16:02:13 TV-WEB-HD-X264 Nip.Tuck.S02E05.GERMAN.DUBBED.DL.1080p.WEB.x264-TMSF
2021-03-11 16:03:00 TV-WEB-HD-X264 Nip.Tuck.S02E05.GERMAN.DUBBED.DL.720p.WEBRip.x264.iNTERNAL-TMSF
2021-03-11 16:03:44 TV-WEB-HD-X264 Nip.Tuck.S02E06.GERMAN.DUBBED.DL.1080p.WEB.x264-TMSF
2021-03-11 16:03:47 FLAC VA-Super_Sonideros_Serie_De_Oro-(C3D-00041)-ES-3CD-FLAC-2003-FREGON
2021-03-11 16:04:31 TV-WEB-HD-X264 Nip.Tuck.S02E06.GERMAN.DUBBED.DL.720p.WEBRip.x264.iNTERNAL-TMSF
2021-03-11 16:05:16 TV-WEB-HD-X264 Nip.Tuck.S02E07.GERMAN.DUBBED.DL.1080p.WEB.x264-TMSF
2021-03-11 16:06:03 TV-WEB-HD-X264 Nip.Tuck.S02E07.GERMAN.DUBBED.DL.720p.WEBRip.x264.iNTERNAL-TMSF
2021-03-11 16:06:47 TV-WEB-HD-X264 Nip.Tuck.S02E08.GERMAN.DUBBED.DL.1080p.WEB.x264-TMSF
2021-03-11 16:07:34 TV-WEB-HD-X264 Nip.Tuck.S02E08.GERMAN.DUBBED.DL.720p.WEBRip.x264.iNTERNAL-TMSF
2021-03-11 16:08:35 FLAC Eyehategod-A_History_of_Nomadic_Behavior-CD-FLAC-2021-GRAVEWISH
2021-03-11 16:09:55 TV-WEB-HD-X264 Beartown.S01E03.720p.WEB.h264-HONOR
2021-03-11 16:14:05 TV-HD-X264 Gordon.Ramsays.Hoellenkueche.S18E11.Teuflische.Desserts.German.DOKU.720p.HDTV.x264-ATAX
2021-03-11 16:17:01 XXX-HD 3.To.Play.4.XXX.iNTERNAL.2160p.WEBRiP.MP4-GUSH
2021-03-11 16:17:41 TV-SD-X264 Gordon.Ramsays.Hoellenkueche.S18E11.Teuflische.Desserts.German.DOKU.HDTVRip.x264-ATAX
2021-03-11 16:18:12 MP3 The_Crown-Royal_Destroyer-2021-GRAVEWISH
2021-03-11 16:21:02 EBOOK PluralSight.The.Java.Object-oriented.Approach.Java.Se.11.Developer.Certification.1z0-819.Bookware-KNiSO
2021-03-11 16:21:34 TV-WEB-SD-X264 Peter.Pedal.S11E25.Paa.Renseri.DANiSH.WEB.H264-DKiDS
2021-03-11 16:21:46 MP3 John_Tejada-Year_Of_The_Living_Dead-KOMPAKTCD162-Retail-CD-2021-BFHMP3
2021-03-11 16:22:24 PRE Skillshare.Introduction.to.Adobe.Illustrator.for.Web.Developers-SkilledHares
2021-03-11 16:22:55 TV-WEB-HD-X264 BattleBots.2015.S05E14.The.World.Championship.Finals.1080p.WEB.h264-CAFFEiNE
2021-03-11 16:23:00 TV-WEB-HD-X264 BattleBots.2015.S05E14.The.World.Championship.Finals.720p.WEB.h264-CAFFEiNE
2021-03-11 16:23:05 TV-WEB-SD-X264 BattleBots.2015.S05E14.The.World.Championship.Finals.WEB.h264-CAFFEiNE
2021-03-11 16:24:35 XXX-HD 3.To.Play.5.XXX.iNTERNAL.720p.WEBRiP.MP4-GUSH
2021-03-11 16:25:43 TV-HD-X264 Zara.McDermott.Revenge.Porn.2020.1080p.HDTV.H264-M0RETV
2021-03-11 16:27:42 TV-HD-X264 Gordon.Ramsays.Hoellenkueche.S18E13.Fuenf.Koeche.eine.Kueche.German.DOKU.1080p.HDTV.x264-ATAX
2021-03-11 16:29:45 MP3-WEB Fergus_Sweetland-Magnolia-WEB-2021-KNOWN
2021-03-11 16:30:48 TV-HD-X264 Gordon.Ramsays.Hoellenkueche.S18E13.Fuenf.Koeche.eine.Kueche.German.DOKU.720p.HDTV.x264-ATAX
2021-03-11 16:31:55 FLAC The_Crown-Royal_Destroyer-CD-FLAC-2021-GRAVEWISH
2021-03-11 16:32:00 TV-HD-X264 Zara.McDermott.Revenge.Porn.2020.720p.HDTV.x264-M0RETV
2021-03-11 16:32:11 MP3-WEB Rianu_Keevs-At_The_Dawn_Of_Life-SINGLE-WEB-2021-KNOWN
2021-03-11 16:33:38 MP3-WEB DJ_JEDY-So_Sexy-SINGLE-WEB-2021-KNOWN
2021-03-11 16:33:45 TV-SD-X264 Gordon.Ramsays.Hoellenkueche.S18E13.Fuenf.Koeche.eine.Kueche.German.DOKU.HDTVRip.x264-ATAX
2021-03-11 16:36:06 TV-WEB-HD-X264 Battlebots.Bounty.Hunters.S01E09.1080p.WEB.h264-BAE
2021-03-11 16:36:08 TV-WEB-HD-X264 Battlebots.Bounty.Hunters.S01E09.720p.WEB.h264-BAE
2021-03-11 16:36:13 TV-WEB-SD-X264 Battlebots.Bounty.Hunters.S01E09.WEB.h264-BAE
2021-03-11 16:36:16 TV-WEB-HD-X264 Battlebots.Bounty.Hunters.S01E10.720p.WEB.h264-BAE
2021-03-11 16:36:17 TV-WEB-HD-X264 Battlebots.Bounty.Hunters.S01E10.1080p.WEB.h264-BAE
2021-03-11 16:36:19 TV-WEB-SD-X264 Battlebots.Bounty.Hunters.S01E10.WEB.h264-BAE
2021-03-11 16:40:22 TV-HD-X264 Gordon.Ramsays.Hoellenkueche.S18E14.Kein.Motto.mehr.German.DOKU.1080p.HDTV.x264-ATAX
2021-03-11 16:41:05 TV-X264 PrivateSociety.21.03.11.Nora.Her.Very.First.Taste.Of.BBC.XXX.720p.MP4-WRB
2021-03-11 16:41:19 BDRIP-X265 Rec.2007.German.BDRip.720p.x265.AAC-2BA
2021-03-11 16:43:03 TV-HD-X264 Gordon.Ramsays.Hoellenkueche.S18E14.Kein.Motto.mehr.German.DOKU.720p.HDTV.x264-ATAX
2021-03-11 16:43:38 X264-HD-NORD Tie.Pohjoiseen.2012.FiNNiSH.1080p.WEB.H264-TOOSA
2021-03-11 16:45:39 X264-HD-NORD Tie.Pohjoiseen.2012.FiNNiSH.720p.WEB.H264-TOOSA
2021-03-11 16:46:15 TV-SD-X264 Gordon.Ramsays.Hoellenkueche.S18E14.Kein.Motto.mehr.German.DOKU.HDTVRip.x264-ATAX
2021-03-11 16:46:30 DVDRIP-X264 Moerdersaurier.1960.German.AC3.DVDRip.x264-RobertDeNiro
2021-03-11 16:48:47 TV-BLURAY Flipper.S02D03.DUAL.COMPLETE.BLURAY-FULLSiZE
2021-03-11 16:51:11 DVDRIP-X264 Die.Goetter.Muessen.Verrueckt.Sein.1980.German.AC3.DVDRip.x264-RobertDeNiro
2021-03-11 16:56:20 DVDRIP-X264 Gulag.2.Der.lautlose.Tod.1982.German.AC3.DVDRip.x264-RobertDeNiro
2021-03-11 16:57:22 DVDRIP-X264 Gulag.3.Straflager.der.Verdammten.1991.German.AC3.DVDRip.x264-RobertDeNiro
2021-03-11 16:58:54 XXX-HD 3.To.Play.5.XXX.iNTERNAL.1080p.WEBRiP.MP4-GUSH
2021-03-11 16:59:00 FLAC Autumnblaze-Welkin_Shores_Burning-CD-FLAC-2020-GRAVEWISH
2021-03-11 16:59:34 FLAC Drought-Rudra_Bhakti-CDEP-FLAC-2016-GRAVEWISH
2021-03-11 17:00:06 FLAC Escumergament-...ni_degu_fazentz_escumergament_e_mesorga...-CD-FLAC-2021-GRAVEWISH
2021-03-11 17:00:39 FLAC Misotheist-For_the_Glory_of_Your_Redeemer-CD-FLAC-2021-GRAVEWISH
2021-03-11 17:01:12 FLAC Spire-Temple_of_Khronos-CD-FLAC-2021-GRAVEWISH
2021-03-11 17:01:45 FLAC Suicide_Forest-Reluctantly-CD-FLAC-2021-GRAVEWISH
2021-03-11 17:02:02 DVDRIP-X264 Operation.Kleinhirn.1992.German.AC3.DVDRip.x264-RobertDeNiro
2021-03-11 17:05:50 TV-HD-X264 Grave.Secrets.Tote.Zeugen.luegen.nicht.S01E06.Das.Doppelleben.German.DOKU.1080p.HDTV.x264-ATAX
2021-03-11 17:06:11 BLURAY-X265 Childs.Play.2019.German.DTS.DL.1080p.BluRay.x265-UNFIrED
2021-03-11 17:07:11 GAMES-PC Monster.Energy.Supercross.The.Official.Videogame.4-CODEX
2021-03-11 17:10:26 XXX-HD PinkoClub.Agatha.Vega.Slutty.Secretary.Gets.Her.Ass.Drilled.By.Her.Boss.ITALIAN.XXX.1080p.MP4-WRB
2021-03-11 17:10:55 BLURAY-X264 Fukushima.2020.German.DL.1080p.BluRay.x264-PL3X
2021-03-11 17:11:04 BLURAY-AVC Fukushima.2020.German.DL.1080p.BluRay.AVC-PL3X
2021-03-11 17:11:36 WEB-HD-X264 VICE.News.Tonight.2021.03.10.720p.WEBRip.x264-BAE
2021-03-11 17:11:38 WEB-SD-X264 VICE.News.Tonight.2021.03.10.WEBRip.x264-BAE
2021-03-11 17:12:51 XXX-HD PinkoClub.Martina.Smeraldi.Takes.A.Nice.Black.Cock.In.Her.Pussy.And.Ass.ITALIAN.XXX.1080p.MP4-WRB
2021-03-11 17:18:49 BLURAY-X264 Fukushima.2020.German.720p.BluRay.x264-PL3X
2021-03-11 17:23:16 MP3-WEB Tom_Grennan-Evering_Road_(Deluxe)-WEB-2021-TosK
2021-03-11 17:26:50 TV-WEB-HD-X264 Hortensia.Saga.E10.SUBFRENCH.1080p.WEB.x264-AMB3R
2021-03-11 17:28:20 MP3-WEB DJ_Muggs-Dies_Occidendum-WEB-2021-TACOS
2021-03-11 17:28:50 FLAC DJ_Muggs-Dies_Occidendum-16BIT-WEBFLAC-2021-NACHOS
2021-03-11 17:30:14 TV-HD-X264 Grave.Secrets.Tote.Zeugen.luegen.nicht.S01E06.Das.Doppelleben.German.DOKU.720p.HDTV.x264-ATAX
2021-03-11 17:31:04 WEB-SD-X264 Es.ist.zu.deinem.Besten.2020.GERMAN.AC3.WEBRiP.x264-EDE
2021-03-11 17:32:04 TV-SD-X264 Grave.Secrets.Tote.Zeugen.luegen.nicht.S01E06.Das.Doppelleben.German.DOKU.HDTVRip.x264-ATAX
2021-03-11 17:34:52 XXX-HD PinkoClub.Saritha.Olivieri.Screwed.On.The.Sofa.ITALIAN.XXX.1080p.MP4-WRB
2021-03-11 17:35:22 MP3-WEB Badlands-Djinn-WEB-2021-P1ZZA
2021-03-11 17:35:59 FLAC Badlands-Djinn-16BIT-WEBFLAC-2021-GARLICKNOTS
2021-03-11 17:37:27 XXX-HD PinkoClub.Valentina.Nappi.Wants.It.Black.And.In.The.Ass.ITALIAN.XXX.1080p.MP4-WRB
2021-03-11 17:42:49 MP3-WEB Killah_Priest-Lord_Sun_Heavy_Mental_1.1-WEB-2021-TACOS
2021-03-11 17:43:11 BDRIP-X264 Fukushima.German.2020.BDRiP.x264-PL3X
2021-03-11 17:43:23 FLAC Killah_Priest-Lord_Sun_Heavy_Mental_1.1-16BIT-WEBFLAC-2021-NACHOS
2021-03-11 17:44:17 XXX-HD PinkoClub.Malena.And.Christian.Their.Great.Desire.To.Fuck.ITALIAN.XXX.1080p.MP4-WRB
2021-03-11 17:48:15 MP3-WEB Konata_Small-Out_of_My_Mind-WEB-2021-TACOS
2021-03-11 17:48:21 TV-WEB-HD-X264 Sofa.2021.S01E08.NORWEGiAN.720p.WEB.h264-BAKFYLLA
2021-03-11 17:48:43 FLAC Konata_Small-Out_of_My_Mind-16BIT-WEBFLAC-2021-NACHOS
2021-03-11 17:49:02 WEB-HD-X264 The.Block.Island.Sound.2020.MULTi.1080p.WEB.x264-LOST
2021-03-11 17:49:57 XXX-HD HollyRandall.21.03.11.Freya.Mayer.Easy.Mornings.XXX.1080p.MP4-WRB
2021-03-11 17:50:08 WEB-HD-X264 The.Block.Island.Sound.2020.FRENCH.720p.WEB.x264-LOST
2021-03-11 17:50:14 WEB-SD-X264 The.Block.Island.Sound.2020.FRENCH.WEB.x264-LOST
2021-03-11 17:51:09 FLAC Robin_Schulz-IIII-CD-FLAC-2021-MUNDANE
2021-03-11 17:51:45 MP3 Bub_Styles_X_Ace_Fayce-Very_Sucio_Muy_Picante-2021-NOiR
2021-03-11 17:59:50 TV-WEB-HD-X264 Talking.Dead.S09E24.1080p.WEB.h264-BAE
2021-03-11 17:59:53 TV-WEB-HD-X264 Talking.Dead.S09E24.720p.WEB.h264-BAE
2021-03-11 17:59:55 TV-WEB-SD-X264 Talking.Dead.S09E24.WEB.h264-BAE
2021-03-11 17:59:57 TV-WEB-SD-X264 The.Walking.Dead.S10E19.WEB.h264-BAE
2021-03-11 18:02:15 GAMES-PC Lust.from.Beyond-CODEX
2021-03-11 18:07:48 XXX-IMAGESET AmKingdom.com_21.03.11.Babes.Series.11.Softcore.147.Alina.West.XXX.IMAGESET-FuGLi
2021-03-11 18:08:12 XXX-IMAGESET AmKingdom.com_21.03.11.Babes.Series.11.Softcore.147.Ivy.Aura.XXX.IMAGESET-FuGLi
2021-03-11 18:08:38 XXX-IMAGESET AmKingdom.com_21.03.11.Babes.Series.11.Softcore.147.Jc.Silva.XXX.IMAGESET-FuGLi
2021-03-11 18:10:06 TV-HD-X264 Defenders.UK.S03E04.1080p.HDTV.H264-M0RETV
2021-03-11 18:11:05 MP3 Sleaford_Mods_-_Spare_Ribs-Digipak-2021-FKK
2021-03-11 18:12:08 FLAC Sleaford_Mods-Spare_Ribs-Digipak-CD-FLAC-2021-BOCKSCAR
2021-03-11 18:15:59 TV-HD-X264 Defenders.UK.S03E04.720p.HDTV.x264-M0RETV
2021-03-11 18:17:43 TV-WEB-HD-X264 The.Walking.Dead.S10E19.iNTERNAL.1080p.WEB.H264-WHOSNEXT
2021-03-11 18:17:57 GAMES-PC Zack.2.Celestines.Map-DARKSiDERS
2021-03-11 18:18:04 TV-WEB-HD-X264 71.Grader.Nord.Kjendis.S12E19.NORWEGiAN.1080p.WEB.h264-BAKFYLLA
2021-03-11 18:19:49 TV-WEB-HD-X264 71.Grader.Nord.Kjendis.S12E19.NORWEGiAN.720p.WEB.h264-BAKFYLLA
2021-03-11 18:28:19 TV-WEB-HD-X264 90.Day.Fiance.Love.Games.S01E07.Four.Times.a.Day.720p.WEB.h264-B2B
2021-03-11 18:28:52 TV-WEB-HD-X264 90.Day.Fiance.Love.Games.S01E07.Four.Times.a.Day.1080p.WEB.h264-B2B
2021-03-11 18:28:54 GAMES-NSW Fell_Seal_Arbiters_Mark_Update_v1.5.2_NSW-VENOM
2021-03-11 18:29:26 TV-WEB-HD-X264 90.Day.Fiance.Love.Games.S01E08.A.Dolphin.in.the.Bedroom.720p.WEB.h264-B2B
2021-03-11 18:30:00 TV-WEB-HD-X264 90.Day.Fiance.Love.Games.S01E08.A.Dolphin.in.the.Bedroom.1080p.WEB.h264-B2B
2021-03-11 18:33:39 TV-HD-X264 Yianni.Neue.Outfits.fuer.Supercars.S01E01.Ferrari.in.Rekordzeit.German.DOKU.1080p.HDTV.x264.iNTERNAL-ATAX
2021-03-11 18:34:11 TV-WEB-HD-X265 Making.Their.Mark.S01E01.SUBFRENCH.2160p.WEB.x265-McNULTY
2021-03-11 18:35:17 TV-HD-X264 Yianni.Neue.Outfits.fuer.Supercars.S01E01.Ferrari.in.Rekordzeit.German.DOKU.720p.HDTV.x264.iNTERNAL-ATAX
2021-03-11 18:35:36 TV-WEB-HD-X265 Making.Their.Mark.S01E02.SUBFRENCH.2160p.WEB.x265-McNULTY
2021-03-11 18:36:42 TV-WEB-HD-X265 Making.Their.Mark.S01E03.SUBFRENCH.2160p.WEB.x265-McNULTY
2021-03-11 18:36:49 TV-SD-X264 Yianni.Neue.Outfits.fuer.Supercars.S01E01.Ferrari.in.Rekordzeit.German.DOKU.HDTVRip.x264-ATAX
2021-03-11 18:37:24 TV-WEB-HD-X265 Making.Their.Mark.S01E04.SUBFRENCH.2160p.WEB.x265-McNULTY
2021-03-11 18:38:55 TV-WEB-HD-X265 Making.Their.Mark.S01E05.SUBFRENCH.2160p.WEB.x265-McNULTY
2021-03-11 18:38:58 TV-HD-X264 Yianni.Neue.Outfits.fuer.Supercars.S01E02.Der.DJ.Tourbus.German.DOKU.1080p.HDTV.x264.iNTERNAL-ATAX
2021-03-11 18:40:26 TV-WEB-HD-X265 Making.Their.Mark.S01E06.SUBFRENCH.2160p.WEB.x265-McNULTY
2021-03-11 18:40:42 TV-HD-X264 Yianni.Neue.Outfits.fuer.Supercars.S01E02.Der.DJ.Tourbus.German.DOKU.720p.HDTV.x264.iNTERNAL-ATAX
2021-03-11 18:42:25 TV-SD-X264 Yianni.Neue.Outfits.fuer.Supercars.S01E02.Der.DJ.Tourbus.German.DOKU.HDTVRip.x264-ATAX
2021-03-11 18:42:50 TV-WEB-HD-X265 Making.Their.Mark.S01E07.FiNAL.SUBFRENCH.2160p.WEB.x265-McNULTY
2021-03-11 18:44:27 TV-WEB-HD-X265 Making.Their.Mark.S01E01.SUBFRENCH.HDR.2160p.WEB.H265-McNULTY
2021-03-11 18:44:37 TV-HD-X264 Yianni.Neue.Outfits.fuer.Supercars.S01E15.Die.goldene.Flotte.German.DOKU.1080p.HDTV.x264.iNTERNAL-ATAX
2021-03-11 18:46:18 TV-HD-X264 Yianni.Neue.Outfits.fuer.Supercars.S01E15.Die.goldene.Flotte.German.DOKU.720p.HDTV.x264.iNTERNAL-ATAX
2021-03-11 18:46:23 TV-WEB-HD-X265 Making.Their.Mark.S01E02.SUBFRENCH.HDR.2160p.WEB.H265-McNULTY
2021-03-11 18:46:28 GAMES-NSW WRC_9_The_Official_Game_DLC_Unlocker_NSW-SUXXORS
2021-03-11 18:47:53 TV-SD-X264 Yianni.Neue.Outfits.fuer.Supercars.S01E15.Die.goldene.Flotte.German.DOKU.HDTVRip.x264-ATAX
2021-03-11 18:48:16 TV-WEB-HD-X265 Making.Their.Mark.S01E04.SUBFRENCH.HDR.2160p.WEB.H265-McNULTY
2021-03-11 18:49:53 TV-WEB-HD-X265 Making.Their.Mark.S01E05.SUBFRENCH.HDR.2160p.WEB.H265-McNULTY
2021-03-11 18:50:42 TV-HD-X264 Yianni.Neue.Outfits.fuer.Supercars.S01E16.Alle.Macht.den.Followern.German.DOKU.1080p.HDTV.x264.iNTERNAL-ATAX
2021-03-11 18:52:30 TV-HD-X264 Yianni.Neue.Outfits.fuer.Supercars.S01E16.Alle.Macht.den.Followern.German.DOKU.720p.HDTV.x264.iNTERNAL-ATAX
2021-03-11 18:53:02 TV-WEB-HD-X265 Making.Their.Mark.S01E06.SUBFRENCH.HDR.2160p.WEB.H265-McNULTY
2021-03-11 18:54:13 TV-SD-X264 Yianni.Neue.Outfits.fuer.Supercars.S01E16.Alle.Macht.den.Followern.German.DOKU.HDTVRip.x264-ATAX
2021-03-11 18:54:33 TV-WEB-HD-X265 Making.Their.Mark.S01E07.FiNAL.SUBFRENCH.HDR.2160p.WEB.H265-McNULTY
2021-03-11 18:55:50 TV-WEB-HD-X264 Making.Their.Mark.S01E01.SUBFRENCH.1080p.WEB.H264-PREZ
2021-03-11 18:56:40 TV-HD-X264 Yianni.Neue.Outfits.fuer.Supercars.S01E17.A.Klasse.in.Chrom.Blau.German.DOKU.1080p.HDTV.x264.iNTERNAL-ATAX
2021-03-11 18:57:04 TV-WEB-HD-X264 Making.Their.Mark.S01E02.SUBFRENCH.1080p.WEB.H264-PREZ
2021-03-11 18:58:08 TV-WEB-HD-X264 Making.Their.Mark.S01E03.SUBFRENCH.1080p.WEB.H264-PREZ
2021-03-11 18:58:19 TV-HD-X264 Yianni.Neue.Outfits.fuer.Supercars.S01E17.A.Klasse.in.Chrom.Blau.German.DOKU.720p.HDTV.x264.iNTERNAL-ATAX
2021-03-11 18:59:31 TV-WEB-HD-X264 Making.Their.Mark.S01E04.SUBFRENCH.1080p.WEB.H264-PREZ
2021-03-11 18:59:51 TV-SD-X264 Yianni.Neue.Outfits.fuer.Supercars.S01E17.A.Klasse.in.Chrom.Blau.German.DOKU.HDTVRip.x264-ATAX
2021-03-11 19:00:37 TV-WEB-HD-X264 Making.Their.Mark.S01E05.SUBFRENCH.1080p.WEB.H264-PREZ
2021-03-11 19:01:56 TV-HD-X264 Heavy.Rescue.401.S05E10.720p.HDTV.x264-SYNCOPY
2021-03-11 19:02:10 TV-WEB-HD-X264 Making.Their.Mark.S01E06.SUBFRENCH.1080p.WEB.H264-PREZ
2021-03-11 19:02:51 TV-HD-X264 Yianni.Neue.Outfits.fuer.Supercars.S01E18.Der.Kunde.ist.Koenig.German.DOKU.1080p.HDTV.x264.iNTERNAL-ATAX
2021-03-11 19:03:34 FLAC Dolly_Parton-Honky_Tonk_Angel-(PEG_CD_275)-CD-FLAC-2000-6DM
2021-03-11 19:03:54 TV-WEB-HD-X264 Big.Brother.S12E25.SWEDiSH.720p.WEB.h264-NORUSH
2021-03-11 19:03:58 TV-WEB-HD-X264 Making.Their.Mark.S01E07.FiNAL.SUBFRENCH.1080p.WEB.H264-PREZ
2021-03-11 19:04:21 TV-WEB-HD-X264 Making.Their.Mark.S01E01.SUBFRENCH.720p.WEB.H264-PREZ
2021-03-11 19:04:46 TV-HD-X264 Yianni.Neue.Outfits.fuer.Supercars.S01E18.Der.Kunde.ist.Koenig.German.DOKU.720p.HDTV.x264.iNTERNAL-ATAX
2021-03-11 19:04:54 TV-WEB-HD-X264 Making.Their.Mark.S01E02.SUBFRENCH.720p.WEB.H264-PREZ
2021-03-11 19:04:56 TV-WEB-HD-X264 Big.Brother.S12E25.SWEDiSH.1080p.WEB.h264-NORUSH
2021-03-11 19:04:58 TV-WEB-HD-X264 Big.Brother.S12E25.SWEDiSH.1080p.WEB.H264-SUECOS
2021-03-11 19:05:28 TV-WEB-HD-X264 Making.Their.Mark.S01E03.SUBFRENCH.720p.WEB.H264-PREZ
2021-03-11 19:06:27 TV-SD-X264 Yianni.Neue.Outfits.fuer.Supercars.S01E18.Der.Kunde.ist.Koenig.German.DOKU.HDTVRip.x264-ATAX
2021-03-11 19:06:39 TV-WEB-HD-X264 Making.Their.Mark.S01E04.SUBFRENCH.720p.WEB.H264-PREZ
2021-03-11 19:06:48 TV-WEB-HD-X264 Making.Their.Mark.S01E05.SUBFRENCH.720p.WEB.H264-PREZ
2021-03-11 19:07:20 TV-WEB-HD-X264 Making.Their.Mark.S01E06.SUBFRENCH.720p.WEB.H264-PREZ
2021-03-11 19:07:48 TV-WEB-HD-X264 Making.Their.Mark.S01E07.FiNAL.SUBFRENCH.720p.WEB.H264-PREZ
2021-03-11 19:08:17 TV-WEB-SD-X264 Making.Their.Mark.S01E01.SUBFRENCH.WEB.H264-PREZ
2021-03-11 19:08:36 TV-HD-X264 Yianni.Neue.Outfits.fuer.Supercars.S01E19.Goldrichtig.fuer.Monaco.German.DOKU.1080p.HDTV.x264.iNTERNAL-ATAX
2021-03-11 19:08:39 TV-WEB-SD-X264 Making.Their.Mark.S01E02.SUBFRENCH.WEB.H264-PREZ
2021-03-11 19:08:51 TV-WEB-SD-X264 Making.Their.Mark.S01E03.SUBFRENCH.WEB.H264-PREZ
2021-03-11 19:09:10 TV-WEB-SD-X264 Making.Their.Mark.S01E04.SUBFRENCH.WEB.H264-PREZ
2021-03-11 19:09:32 TV-WEB-SD-X264 Making.Their.Mark.S01E05.SUBFRENCH.WEB.H264-PREZ
2021-03-11 19:09:46 TV-WEB-SD-X264 Making.Their.Mark.S01E06.SUBFRENCH.WEB.H264-PREZ
2021-03-11 19:10:03 TV-WEB-SD-X264 Making.Their.Mark.S01E07.FiNAL.SUBFRENCH.WEB.H264-PREZ
2021-03-11 19:10:17 TV-HD-X264 Yianni.Neue.Outfits.fuer.Supercars.S01E19.Goldrichtig.fuer.Monaco.German.DOKU.720p.HDTV.x264.iNTERNAL-ATAX
2021-03-11 19:10:20 GAMES-LINUX Mobius_Front_83_Linux-Razor1911
2021-03-11 19:11:39 TV-WEB-HD-X264 Dr.Stone.S02E09.1080p.WEB.H264-URANiME
2021-03-11 19:11:42 TV-SD-X264 Yianni.Neue.Outfits.fuer.Supercars.S01E19.Goldrichtig.fuer.Monaco.German.DOKU.HDTVRip.x264-ATAX
2021-03-11 19:12:32 TV-WEB-HD-X264 Dr.Stone.S02E09.720p.WEB.H264-URANiME
2021-03-11 19:12:40 TV-WEB-HD-X264 60.Minutes.Plus.S01E04.1080p.WEB.h264-KOGi
2021-03-11 19:12:57 GAMES-PC Rising.Star.2.Attitudes.And.Europe.Expansion-SKIDROW
2021-03-11 19:13:11 TV-WEB-HD-X264 60.Minutes.Plus.S01E04.720p.WEB.h264-KOGi
2021-03-11 19:13:16 TV-WEB-SD-X264 Dr.Stone.S02E09.WEB.H264-URANiME
2021-03-11 19:13:43 TV-WEB-HD-X264 The.Real.World.Homecoming.New.York.S01E02.1080p.WEB.h264-KOGi
2021-03-11 19:14:03 TV-WEB-HD-X264 Laid.Back.Camp.S02E10.1080p.WEB.H264-URANiME
2021-03-11 19:14:14 TV-WEB-HD-X264 The.Real.World.Homecoming.New.York.S01E02.720p.WEB.h264-KOGi
2021-03-11 19:14:49 TV-WEB-HD-X264 Laid.Back.Camp.S02E10.720p.WEB.H264-URANiME
2021-03-11 19:15:33 WEB-HD-X264 Tooning.Out.The.News.2021.03.11.Madeleine.Dean.1080p.WEB.h264-KOGi
2021-03-11 19:15:34 TV-WEB-SD-X264 Laid.Back.Camp.S02E10.WEB.H264-URANiME
2021-03-11 19:16:03 MP3-WEB HVOB--Live_In_London-(TRAGEN05)-WEB-2021-dh
2021-03-11 19:16:12 WEB-HD-X264 Tooning.Out.The.News.2021.03.11.Madeleine.Dean.720p.WEB.h264-KOGi
2021-03-11 19:16:30 TV-WEB-HD-X264 Tig.N.Seek.S02E01.1080p.WEB.h264-KOGi
2021-03-11 19:16:47 TV-WEB-HD-X264 Tig.N.Seek.S02E01.720p.WEB.h264-KOGi
2021-03-11 19:17:04 TV-WEB-HD-X264 Tig.N.Seek.S02E02.1080p.WEB.h264-KOGi
2021-03-11 19:17:17 GAMES-PC Cyanide.And.Happiness.Freakpocalypse-SKIDROW
2021-03-11 19:17:21 TV-WEB-HD-X264 Tig.N.Seek.S02E02.720p.WEB.h264-KOGi
2021-03-11 19:17:38 TV-WEB-HD-X264 Tig.N.Seek.S02E03.1080p.WEB.h264-KOGi
2021-03-11 19:17:54 TV-WEB-HD-X264 Tig.N.Seek.S02E03.720p.WEB.h264-KOGi
2021-03-11 19:18:12 TV-WEB-HD-X264 Tig.N.Seek.S02E04.1080p.WEB.h264-KOGi
2021-03-11 19:18:29 TV-WEB-HD-X264 Tig.N.Seek.S02E04.720p.WEB.h264-KOGi
2021-03-11 19:18:29 GAMES-PC Space.Gladiators-Unleashed
2021-03-11 19:18:46 TV-WEB-HD-X264 Tig.N.Seek.S02E05.1080p.WEB.h264-KOGi
2021-03-11 19:19:03 TV-WEB-HD-X264 Tig.N.Seek.S02E05.720p.WEB.h264-KOGi
2021-03-11 19:19:20 TV-WEB-HD-X264 Tig.N.Seek.S02E06.1080p.WEB.h264-KOGi
2021-03-11 19:19:36 TV-WEB-HD-X264 Tig.N.Seek.S02E06.720p.WEB.h264-KOGi
2021-03-11 19:19:52 TV-WEB-HD-X264 Tig.N.Seek.S02E07.1080p.WEB.h264-KOGi
2021-03-11 19:20:10 TV-WEB-HD-X264 Tig.N.Seek.S02E07.720p.WEB.h264-KOGi
2021-03-11 19:20:25 TV-WEB-HD-X264 Tig.N.Seek.S02E08.1080p.WEB.h264-KOGi
2021-03-11 19:20:43 TV-WEB-HD-X264 Tig.N.Seek.S02E08.720p.WEB.h264-KOGi
2021-03-11 19:21:00 TV-WEB-HD-X264 Tig.N.Seek.S02E09.1080p.WEB.h264-KOGi
2021-03-11 19:21:00 TV-HD-X264 Moving.On.S12E04.1080p.HDTV.H264-UKTV
2021-03-11 19:21:16 TV-WEB-HD-X264 Tig.N.Seek.S02E09.720p.WEB.h264-KOGi
2021-03-11 19:21:35 TV-WEB-HD-X264 Tig.N.Seek.S02E10.1080p.WEB.h264-KOGi
2021-03-11 19:21:51 TV-WEB-HD-X264 Tig.N.Seek.S02E10.720p.WEB.h264-KOGi
2021-03-11 19:22:07 TV-WEB-HD-X264 Tig.N.Seek.S02E11.1080p.WEB.h264-KOGi
2021-03-11 19:22:24 TV-WEB-HD-X264 Tig.N.Seek.S02E11.720p.WEB.h264-KOGi
2021-03-11 19:22:43 TV-WEB-HD-X264 Tig.N.Seek.S02E12.1080p.WEB.h264-KOGi
2021-03-11 19:22:58 TV-WEB-HD-X264 Tig.N.Seek.S02E12.720p.WEB.h264-KOGi
2021-03-11 19:23:15 TV-WEB-HD-X264 Tig.N.Seek.S02E13.1080p.WEB.h264-KOGi
2021-03-11 19:23:32 TV-WEB-HD-X264 Tig.N.Seek.S02E13.720p.WEB.h264-KOGi
2021-03-11 19:23:50 TV-WEB-HD-X264 Tig.N.Seek.S02E14.1080p.WEB.h264-KOGi
2021-03-11 19:24:05 TV-WEB-HD-X264 Tig.N.Seek.S02E14.720p.WEB.h264-KOGi
2021-03-11 19:24:22 TV-WEB-HD-X264 Tig.N.Seek.S02E15.1080p.WEB.h264-KOGi
2021-03-11 19:24:40 MP3 i.f.A.-international_family_Affair-Remastered-2020-NOiR
2021-03-11 19:24:40 TV-WEB-HD-X264 Tig.N.Seek.S02E15.720p.WEB.h264-KOGi
2021-03-11 19:24:56 TV-WEB-HD-X264 Tig.N.Seek.S02E16.1080p.WEB.h264-KOGi
2021-03-11 19:25:13 TV-WEB-HD-X264 Tig.N.Seek.S02E16.720p.WEB.h264-KOGi
2021-03-11 19:25:30 TV-WEB-HD-X264 Tig.N.Seek.S02E17.1080p.WEB.h264-KOGi
2021-03-11 19:25:48 TV-WEB-HD-X264 Tig.N.Seek.S02E17.720p.WEB.h264-KOGi
2021-03-11 19:26:04 TV-WEB-HD-X264 Tig.N.Seek.S02E18.1080p.WEB.h264-KOGi
2021-03-11 19:26:22 TV-WEB-HD-X264 Tig.N.Seek.S02E18.720p.WEB.h264-KOGi
2021-03-11 19:26:39 TV-WEB-HD-X264 Tig.N.Seek.S02E19.1080p.WEB.h264-KOGi
2021-03-11 19:26:42 TV-HD-X264 Moving.On.S12E04.720p.HDTV.x264-UKTV
2021-03-11 19:26:56 TV-WEB-HD-X264 Tig.N.Seek.S02E19.720p.WEB.h264-KOGi
2021-03-11 19:27:12 TV-WEB-HD-X264 Tig.N.Seek.S02E20.1080p.WEB.h264-KOGi
2021-03-11 19:27:30 TV-WEB-HD-X264 Tig.N.Seek.S02E20.720p.WEB.h264-KOGi
2021-03-11 19:28:42 TV-HD-X264 Yianni.Neue.Outfits.fuer.Supercars.S01E20.Familiensache.German.DOKU.1080p.HDTV.x264.iNTERNAL-ATAX
2021-03-11 19:28:54 FLAC Sentino-Smile-DE-CD-FLAC-2021-AUDiOFiLE
2021-03-11 19:30:45 TV-HD-X264 Yianni.Neue.Outfits.fuer.Supercars.S01E20.Familiensache.German.DOKU.720p.HDTV.x264.iNTERNAL-ATAX
2021-03-11 19:31:26 TV-WEB-HD-X264 DR.STONE.Second.Season.E09.SUBFRENCH.1080p.WEB.X264-SLEEPINGFOREST
2021-03-11 19:32:02 TV-X264 South.Park.S24E02.South.ParQ.Vaccination.Special.1080p.AMZN.WEB-DL.DD 2.0.H.264-NTb
2021-03-11 19:32:23 TV-SD-X264 Yianni.Neue.Outfits.fuer.Supercars.S01E20.Familiensache.German.DOKU.HDTVRip.x264-ATAX
2021-03-11 19:35:11 0DAY Cloanto.Amiga.Forever.9.v9.0.10.0.Plus.Edition-CRD
2021-03-11 19:35:16 GAMES-C64 Cloanto.C64.Forever.9.v9.0.10.0.Plus.Edition-CRD
2021-03-11 19:37:13 TV-X264 South.Park.S24E02.South.ParQ.Vaccination.Special.720p.AMZN.WEB-DL.DD 2.0.H.264-NTb
2021-03-11 19:39:45 MP3-WEB N.O.R.E.-Goin_Up_(Feat._DJ_Khaled_And_DreamDoll)-Single-WEB-2021-FiH
2021-03-11 19:41:36 FLAC Tanita_Tikaram-The_Sweet_Keeper-CD-FLAC-1990-6DM
2021-03-11 19:44:48 TV-WEB-HD-X264 Lisa.S01E34.FLEMISH.720p.WEB.h264-TRIPEL
2021-03-11 19:45:12 TV-WEB-HD-X264 Lisa.S01E34.FLEMISH.1080p.WEB.h264-TRIPEL
2021-03-11 19:46:17 TV-WEB-HD-X264 Big.Brother.BE.NL.S01E55.DUTCH.720p.WEB.h264-ADRENALiNE
2021-03-11 19:48:29 TV-WEB-HD-X264 Big.Brother.BE.NL.S01E55.DUTCH.1080p.WEB.h264-ADRENALiNE
2021-03-11 19:49:45 TV-WEB-HD-X264 Big.Brother.BE.NL.S01E56.DUTCH.720p.WEB.h264-ADRENALiNE
2021-03-11 19:51:21 TV-WEB-HD-X264 Big.Brother.BE.NL.S01E56.DUTCH.1080p.WEB.h264-ADRENALiNE
2021-03-11 19:52:30 TV-WEB-HD-X264 Big.Brother.BE.NL.S01E57.DUTCH.720p.WEB.h264-ADRENALiNE
2021-03-11 19:53:58 TV-WEB-HD-X264 Big.Brother.BE.NL.S01E57.DUTCH.1080p.WEB.h264-ADRENALiNE
2021-03-11 19:59:22 TV-HD-X264 Married.with.Secrets.S01E05.Rendezvouz.mit.dem.Tod.German.DOKU.1080p.HDTV.x264-ATAX
2021-03-11 20:02:07 MP3-WEB Israel_Nash-Across_The_Water-WEB-2020-MARR
2021-03-11 20:02:52 TV-HD-X264 Married.with.Secrets.S01E05.Rendezvouz.mit.dem.Tod.German.DOKU.720p.HDTV.x264-ATAX
2021-03-11 20:04:40 TV-SD-X264 Married.with.Secrets.S01E05.Rendezvouz.mit.dem.Tod.German.DOKU.HDTVRip.x264-ATAX
2021-03-11 20:06:39 XXX-HD 3.To.Play.5.XXX.iNTERNAL.2160p.WEBRiP.MP4-GUSH
2021-03-11 20:07:13 MP3-WEB Israel_Nash-Topaz-WEB-2021-MARR
2021-03-11 20:07:28 TV-HD-X264 Married.with.Secrets.S01E06.Die.Katze.laesst.das.Mausen.nicht.German.DOKU.1080p.HDTV.x264-ATAX
2021-03-11 20:07:57 TV-HD-X264 The.Mole.Undercover.in.North.Korea.2020.DOC.FRENCH.720p.HDTV.x264-OBSTACLE
2021-03-11 20:08:34 TV-HD-X264 Pyongyang.S.Amuse.2019.DOC.FRENCH.720p.HDTV.x264-OBSTACLE
2021-03-11 20:09:30 TV-HD-X264 Married.with.Secrets.S01E06.Die.Katze.laesst.das.Mausen.nicht.German.DOKU.720p.HDTV.x264-ATAX
2021-03-11 20:10:14 MP3-WEB Leon_Vynehall--Snakeskin_-_Has-Been-(ZENDNLS576)-WEB-2021-OMA
2021-03-11 20:11:08 TV-SD-X264 Married.with.Secrets.S01E06.Die.Katze.laesst.das.Mausen.nicht.German.DOKU.HDTVRip.x264-ATAX
2021-03-11 20:14:42 TV-HD-X264 Married.with.Secrets.S01E07.Fatale.Affaere.German.DOKU.1080p.HDTV.x264-ATAX
2021-03-11 20:16:55 TV-HD-X264 Married.with.Secrets.S01E07.Fatale.Affaere.German.DOKU.720p.HDTV.x264-ATAX
2021-03-11 20:16:58 XXX-IMAGESET ATKPremium.com_21.03.11.Lacey.Leveah.XXX.IMAGESET-FuGLi
2021-03-11 20:18:31 TV-SD-X264 Married.with.Secrets.S01E07.Fatale.Affaere.German.DOKU.HDTVRip.x264-ATAX
2021-03-11 20:19:46 WEB-HD-X264 Dirty.Dancing.1987.POLISH.720p.WEB.H264-FLAME
2021-03-11 20:20:02 WEB-HD-X264 Dirty.Dancing.1987.POLISH.1080p.WEB.H264-FLAME
2021-03-11 20:20:36 WEB-SD-X264 The.Babysitter.2017.POLISH.WEB.H264-FLAME
2021-03-11 20:20:56 MP3-WEB Thomas_Nikki_-_Dreams-(ALWAYSA369)-WEB-2021-L4M_INT
2021-03-11 20:21:05 WEB-HD-X264 The.Babysitter.2017.POLISH.720p.WEB.H264-FLAME
2021-03-11 20:21:22 WEB-HD-X264 The.Babysitter.2017.POLISH.1080p.WEB.H264-FLAME
2021-03-11 20:22:00 WEB-SD-X264 The.Babysitter.Killer.Queen.2020.POLISH.WEB.H264-FLAME
2021-03-11 20:22:25 WEB-HD-X264 The.Babysitter.Killer.Queen.2020.POLISH.720p.WEB.H264-FLAME
2021-03-11 20:22:44 WEB-HD-X264 The.Babysitter.Killer.Queen.2020.POLISH.1080p.WEB.H264-FLAME
2021-03-11 20:23:21 BDRIP-X264 Gremlins.1984.PL.BDRip.x264-FLAME
2021-03-11 20:23:24 MP3-WEB The_Brand_New_Heavies-Shibuya_357_(Live_In_Tokyo_1992)-WEB-2021-UVU
2021-03-11 20:23:47 BLURAY-X264 Gremlins.1984.PL.DUAL.720p.BluRay.x264-FLAME
2021-03-11 20:24:06 BLURAY-X264 Gremlins.1984.PL.DUAL.1080p.BluRay.x264-FLAME
2021-03-11 20:27:35 MP3-WEB Planet_Asia_x_Dirty_Diggs-Block_Shaman-WEB-2021-UVU
2021-03-11 20:28:11 MP3-WEB Jaques_Raupe_-_It_Goes_Like-(TBM132)-WEB-2021-L4M_INT
2021-03-11 20:29:38 TV-WEB-HD-X264 Cells.At.Work.Code.Black.E12.1080p.WEB.H264-URANiME
2021-03-11 20:30:33 TV-WEB-HD-X264 Cells.At.Work.Code.Black.E12.720p.WEB.H264-URANiME
2021-03-11 20:31:13 TV-HD-X264 Married.with.Secrets.S01E08.Im.Namen.des.Gesetzes.German.DOKU.1080p.HDTV.x264-ATAX
2021-03-11 20:31:19 TV-WEB-SD-X264 Cells.At.Work.Code.Black.E12.WEB.H264-URANiME
2021-03-11 20:31:53 MP3-WEB Juve_ft._Marina_-_Bisou_Bisou_2021-WEB-2021-L4M_INT
2021-03-11 20:32:04 TV-WEB-HD-X264 Higurashi.No.Naku.Koro.Ni.Gou.E23.1080p.WEB.H264-URANiME
2021-03-11 20:32:50 TV-WEB-HD-X264 Higurashi.No.Naku.Koro.Ni.Gou.E23.720p.WEB.H264-URANiME
2021-03-11 20:33:23 PRE Skillshare.Amazon.Connect.Cloud.Based.Contact.Center-SkilledHares
2021-03-11 20:33:37 TV-WEB-SD-X264 Higurashi.No.Naku.Koro.Ni.Gou.E23.WEB.H264-URANiME
2021-03-11 20:33:42 TV-HD-X264 Married.with.Secrets.S01E08.Im.Namen.des.Gesetzes.German.DOKU.720p.HDTV.x264-ATAX
2021-03-11 20:34:23 WEB-HD-X264 Yes.No.Maybe.2020.1080p.WEB.H264-URANiME
2021-03-11 20:35:09 WEB-HD-X264 Yes.No.Maybe.2020.720p.WEB.H264-URANiME
2021-03-11 20:35:30 FLAC Planet_Asia-Block_Shaman-16BIT-WEBFLAC-2021-NACHOS
2021-03-11 20:35:55 WEB-SD-X264 Yes.No.Maybe.2020.WEB.H264-URANiME
2021-03-11 20:36:23 TV-SD-X264 Married.with.Secrets.S01E08.Im.Namen.des.Gesetzes.German.DOKU.HDTVRip.x264-ATAX
2021-03-11 20:41:25 MP3-WEB Tom_Novy_and_Dan_Le_Blonde_-_Lets_Dance_(Tom_Novy_Remix)-WEB-2021-L4M_INT
2021-03-11 20:42:20 XXX-HD Make.My.Teen.Pussy.Squirt.XXX.iNTERNAL.720p.WEBRiP.MP4-GUSH
2021-03-11 20:43:09 MP3 Purple_Schulz-Sehnsucht_Die_Balladen_1984_-_1999-DE-CD-1999-6DM
2021-03-11 20:43:56 TV-WEB-SD-X264 Chicago.Fire.S09E08.WEB.h264-BAE
2021-03-11 20:44:42 TV-WEB-SD-X264 Chicago.Med.S06E08.WEB.h264-BAE
2021-03-11 20:45:26 TV-WEB-SD-X264 Chicago.PD.S08E08.WEB.h264-BAE
2021-03-11 20:45:55 MP3-WEB Christophe_Beck-Wandavision_Episode_8_(Original_Soundtrack)-OST-WEB-2021-OND
2021-03-11 20:46:13 WEB-HD-X264 Conan.2021.03.10.Chris.Ludacris.Bridges.720p.WEB.h264-BAE
2021-03-11 20:46:57 WEB-SD-X264 Conan.2021.03.10.Chris.Ludacris.Bridges.WEB.h264-BAE
2021-03-11 20:47:03 MP3-WEB Morad-Seguimos-SINGLE-WEB-SP-2021-OND
2021-03-11 20:47:16 TV-HD-X264 The.Crime.Chronicles.S01E05.Der.Richter.und.sein.Henker.German.DOKU.1080p.HDTV.x264-ATAX
2021-03-11 20:47:43 TV-WEB-HD-X264 Court.Cam.S03E22.720p.WEB.h264-BAE
2021-03-11 20:47:58 FLAC Purple_Schulz-Sehnsucht_Die_Balladen_1984_-_1999-DE-CD-FLAC-1999-6DM
2021-03-11 20:48:03 MP3-WEB Tracy_De_Sa-In_Between-SINGLE-WEB-2021-OND
2021-03-11 20:48:27 TV-WEB-SD-X264 Court.Cam.S03E22.WEB.h264-BAE
2021-03-11 20:49:12 TV-WEB-HD-X264 Court.Cam.S03E23.720p.WEB.h264-BAE
2021-03-11 20:49:29 TV-HD-X264 The.Crime.Chronicles.S01E05.Der.Richter.und.sein.Henker.German.DOKU.720p.HDTV.x264-ATAX
2021-03-11 20:49:46 TV-WEB-HD-X264 Dinner.Impossible.S09E01.Mission.in.Paradise.720p.WEBRip.X264-KOMPOST
2021-03-11 20:49:57 TV-WEB-SD-X264 Court.Cam.S03E23.WEB.h264-BAE
2021-03-11 20:50:42 TV-WEB-HD-X264 Forged.in.Fire.S08E13.720p.WEB.h264-BAE
2021-03-11 20:51:22 TV-SD-X264 The.Crime.Chronicles.S01E05.Der.Richter.und.sein.Henker.German.DOKU.HDTVRip.x264-ATAX
2021-03-11 20:51:27 TV-WEB-SD-X264 Forged.in.Fire.S08E13.WEB.h264-BAE
2021-03-11 20:52:12 TV-WEB-HD-X264 Full.Frontal.With.Samantha.Bee.S06E07.720p.WEB.h264-BAE
2021-03-11 20:52:49 BLURAY-X265 Gremlins.1984.PL.DUAL.2160p.UHD.BluRay.x265-FLAME
2021-03-11 20:52:57 TV-WEB-SD-X264 Full.Frontal.With.Samantha.Bee.S06E07.WEB.h264-BAE
2021-03-11 20:53:42 TV-WEB-SD-X264 Good.Trouble.S03E04.WEB.h264-BAE
2021-03-11 20:54:27 TV-WEB-HD-X264 I.Survived.a.Crime.S01E07.720p.WEB.h264-BAE
2021-03-11 20:55:12 TV-WEB-SD-X264 I.Survived.a.Crime.S01E07.WEB.h264-BAE
2021-03-11 20:55:57 TV-WEB-HD-X264 I.Survived.a.Crime.S01E08.720p.WEB.h264-BAE
2021-03-11 20:56:42 TV-WEB-SD-X264 I.Survived.a.Crime.S01E08.WEB.h264-BAE
2021-03-11 20:57:27 WEB-SD-X264 James.Corden.2021.03.10.Trevor.Noah.WEB.h264-BAE
2021-03-11 20:58:12 WEB-SD-X264 Jimmy.Kimmel.2021.03.10.Kevin.Bacon.WEB.h264-BAE
2021-03-11 20:58:57 TV-WEB-HD-X264 Married.At.First.Sight.S12E09.720p.WEB.h264-BAE
2021-03-11 20:59:43 TV-WEB-SD-X264 Married.At.First.Sight.S12E09.WEB.h264-BAE
2021-03-11 21:00:27 TV-WEB-HD-X264 Marrying.Millions.S02E17.720p.WEB.h264-BAE
2021-03-11 21:01:13 TV-WEB-SD-X264 Marrying.Millions.S02E17.WEB.h264-BAE
2021-03-11 21:01:25 WEB-HD-X264 MotoGP.2021.Qatar.Test.After.The.Flag.Day.3.720p.WEB.h264-VERUM
2021-03-11 21:01:57 TV-WEB-SD-X264 Nancy.Drew.2019.S02E07.WEB.h264-BAE
2021-03-11 21:02:42 TV-WEB-SD-X264 Resident.Alien.S01E07.WEB.h264-BAE
2021-03-11 21:03:27 TV-WEB-SD-X264 Riverdale.US.S05E07.WEB.h264-BAE
2021-03-11 21:04:13 TV-WEB-SD-X264 Stephen.Colbert.2021.03.10.Emmanuel.Acho.WEB.h264-BAE
2021-03-11 21:04:57 WEB-HD-X264 The.26th.Annual.Critics.Choice.Awards.2021.1080p.WEB.h264-BAE
2021-03-11 21:05:42 WEB-HD-X264 The.26th.Annual.Critics.Choice.Awards.2021.720p.WEB.h264-BAE
2021-03-11 21:06:27 WEB-SD-X264 The.26th.Annual.Critics.Choice.Awards.2021.WEB.h264-BAE
2021-03-11 21:07:13 TV-WEB-SD-X264 The.Con.S01E05.WEB.h264-BAE
2021-03-11 21:07:57 TV-WEB-SD-X264 Tough.As.Nails.S02E05.WEB.h264-BAE
2021-03-11 21:10:49 TV-HD-X264 The.Crime.Chronicles.S01E06.Wer.hat.Mr.Woodward.ermordet.German.DOKU.1080p.HDTV.x264-ATAX
2021-03-11 21:14:39 TV-HD-X264 The.Crime.Chronicles.S01E06.Wer.hat.Mr.Woodward.ermordet.German.DOKU.720p.HDTV.x264-ATAX
2021-03-11 21:16:01 WEB-HD-X264 Debatten.2021.03.10.Frihed.Under.Corona.DANiSH.720p.WEB.h264-DANES
2021-03-11 21:16:41 TV-SD-X264 The.Crime.Chronicles.S01E06.Wer.hat.Mr.Woodward.ermordet.German.DOKU.HDTVRip.x264-ATAX
2021-03-11 21:16:54 MP3-VINYL Petey_Pablo-Blow_Your_Whistle-VLS-2002-GCP
2021-03-11 21:19:41 TV-HD-X264 The.Crime.Chronicles.S02E01.Die.Sexbombe.und.der.Millionaer.German.DOKU.1080p.HDTV.x264-ATAX
2021-03-11 21:21:06 WEB-HD-X264 MotoGP.2021.Qatar.Test.After.The.Flag.Day.4.1080p.WEB.h264-VERUM
2021-03-11 21:21:36 TV-HD-X264 The.Crime.Chronicles.S02E01.Die.Sexbombe.und.der.Millionaer.German.DOKU.720p.HDTV.x264-ATAX
2021-03-11 21:23:11 TV-SD-X264 The.Crime.Chronicles.S02E01.Die.Sexbombe.und.der.Millionaer.German.DOKU.HDTVRip.x264-ATAX
2021-03-11 21:23:27 MP3-WEB Think_City-Trinity-(PAP050)-WEB-2021-PTC
2021-03-11 21:25:17 TV-SD-X264 Private.Eyes.S04E11.Hochzeit.mit.Hindernissen.GERMAN.HDTVRip.x264-MDGP
2021-03-11 21:25:39 TV-HD-X264 Private.Eyes.S04E11.Hochzeit.mit.Hindernissen.GERMAN.DL.720p.HDTV.x264-MDGP
2021-03-11 21:26:45 TV-HD-X264 The.Crime.Chronicles.S02E02.Wer.erschoss.Doc.Adams.German.DOKU.1080p.HDTV.x264-ATAX
2021-03-11 21:27:59 TV-HD-X264 Private.Eyes.S04E11.Hochzeit.mit.Hindernissen.GERMAN.DL.1080p.HDTV.x264-MDGP
2021-03-11 21:29:39 TV-SD-X264 Private.Eyes.S04E12.Tod.auf.dem.Jahrmarkt.GERMAN.HDTVRip.x264-MDGP
2021-03-11 21:29:50 TV-HD-X264 The.Crime.Chronicles.S02E02.Wer.erschoss.Doc.Adams.German.DOKU.720p.HDTV.x264-ATAX
2021-03-11 21:30:36 TV-HD-X264 UEL.2021.03.11.Ro16.1st.Leg.Manchester.United.Vs.AC.Milan.720p.AHDTV.x264-DARKSPORT
2021-03-11 21:31:01 TV-HD-X264 Private.Eyes.S04E12.Tod.auf.dem.Jahrmarkt.GERMAN.DL.720p.HDTV.x264-MDGP
2021-03-11 21:32:00 TV-SD-X264 The.Crime.Chronicles.S02E02.Wer.erschoss.Doc.Adams.German.DOKU.HDTVRip.x264-ATAX
2021-03-11 21:32:27 WEB-HD-X265 Raya.And.The.Last.Dragon.2021.DUTCH.HDR.2160p.WEB.h265-NLKIDS
2021-03-11 21:32:30 MP3-WEB Manuel_De_Lorenzi-Edoardo_EP-(MOSCOW046)-WEB-2021-PTC
2021-03-11 21:33:16 TV-HD-X264 Private.Eyes.S04E12.Tod.auf.dem.Jahrmarkt.GERMAN.DL.1080p.HDTV.x264-MDGP
2021-03-11 21:35:01 WEB-HD-X264 Raya.And.The.Last.Dragon.2021.DUTCH.1080p.WEB.h264-NLKIDS
2021-03-11 21:35:06 MP3-VINYL Missing-Link-I_Thought_I_Was_Trippin-VLS-1997-GCP
2021-03-11 21:35:37 TV-HD-X264 La.Stagiaire.S06E07.FRENCH.1080p.HDTV.H264-OBSTACLE
2021-03-11 21:36:48 MP3-WEB Robert_Babicz-Orion_EP-(BABICZSTYLE29)-WEB-2021-PTC
2021-03-11 21:38:47 MP3-WEB VA_-_DJ_Megamix_Vol.2-Bootleg-WEB-2021-SYNDIKAT_INT
2021-03-11 21:41:52 TV-SD-X264 La.Stagiaire.S06E07.FRENCH.HDTV.x264-AMB3R
2021-03-11 21:42:24 MP3-WEB Andrew_Spencer_-_Call_For_Love-(MMRD1291)-WEB-2021-L4M_INT
2021-03-11 21:42:32 MP3-WEB Danny_Fervent_ft._Ryan_Jackson_-_Promise-(MMRD1292)-WEB-2021-L4M_INT
2021-03-11 21:42:36 TV-WEB-HD-X264 Hataraku.Saibou.Second.Season.E08.FiNAL.CUSTOM.MULTi.1080p.WEB.x264-AMB3R
2021-03-11 21:45:08 BDRIP-X264 The.Forgiven.Ohne.Vergebung.gibt.es.keine.Zukunft.2017.German.AC3D.BDRip.x264-GSG9
2021-03-11 21:45:35 BLURAY-X264 The.Forgiven.Ohne.Vergebung.gibt.es.keine.Zukunft.2017.German.DL.AC3D.1080p.BluRay.x264-GSG9
2021-03-11 21:45:58 MP3-WEB Dub_Taylor-A_Twenty_Year_Distance_EP-(FF023)-WEB-2021-PTC
2021-03-11 21:46:04 BLURAY-X264 The.Forgiven.Ohne.Vergebung.gibt.es.keine.Zukunft.2017.German.DL.AC3D.720p.BluRay.x264-GSG9
2021-03-11 21:46:14 MP3-WEB Kommodo-Breath-(SMTC047)-WEB-2021-PTC
2021-03-11 21:46:35 MP3 VA-Topshelf_Records_2020-2021_Sampler-2021-NOiR
2021-03-11 21:46:40 MP3-WEB Weltenstein-Nilay-(STU144)-WEB-2021-PTC
2021-03-11 21:49:09 TV-HD-X264 La.Stagiaire.S06E07.FRENCH.720p.HDTV.x264-OBSTACLE
2021-03-11 21:54:05 MP3-WEB Dypt-A_Touch_of_Delight-(W257)-WEB-2021-PTC
2021-03-11 21:54:15 MP3-WEB Sadboy_Loko-664__187_Attempted_Murder-Single-WEB-2020-FiH
2021-03-11 21:54:18 TV-HD-X264 Resident.Alien.S01E04.MULTi.1080p.HDTV.H264-OBSTACLE
2021-03-11 21:55:19 BLURAY Greenland.2020.MULTi.COMPLETE.UHD.BLURAY-UHDARCHiV
2021-03-11 21:58:12 TV-SD-X264 Resident.Alien.S01E04.FRENCH.HDTV.x264-OBSTACLE
2021-03-11 21:59:02 MP3 Steve_Aoki_-_Aokis_House_475-SAT-03-11-2021-TALiON
2021-03-11 21:59:08 MP3-WEB Fetty_Luciano_And_Fivio_Foreign-Grimey_Demons-WEB-2020-FiH
2021-03-11 21:59:12 MP3-WEB Hassio_(COL)_and_Sammy_Morris-Hocus_Pocus_EP-(NVR141)-WEB-2021-PTC
2021-03-11 21:59:55 MP3-WEB G_Perico-Lover_Boy_Slim-EP-WEB-2021-FiH
2021-03-11 22:01:00 MP3 Armin_van_Buuren_-_A_State_of_Trance_1007-SAT-03-11-2021-TALiON
2021-03-11 22:01:20 TV-WEB-HD-X264 Nip.Tuck.S02E09.GERMAN.DUBBED.DL.1080p.WEB.x264-TMSF
2021-03-11 22:02:38 TV-WEB-HD-X264 Nip.Tuck.S02E09.GERMAN.DUBBED.DL.720p.WEBRip.x264.iNTERNAL-TMSF
2021-03-11 22:02:57 MP3-WEB King_Lil_G-90s_Kid_Vol._2-WEB-2020-FiH
2021-03-11 22:03:32 MP3-WEB Kodak_Black-Every_Balmain-Single-WEB-2021-FiH
2021-03-11 22:03:51 MP3-WEB Kodak_Black-Last_Day_In-Single-WEB-2021-FiH
2021-03-11 22:05:35 MP3-WEB Madchild-The_Little_Monster-WEB-2020-FiH
2021-03-11 22:06:10 MP3-WEB Madchild-The_Little_Monster_Deluxe-WEB-2021-FiH
2021-03-11 22:06:59 TV-HD-X264 Resident.Alien.S01E04.FRENCH.720p.HDTV.x264-OBSTACLE
2021-03-11 22:09:23 TV-WEB-HD-X264 Nip.Tuck.S02E10.GERMAN.DUBBED.DL.1080p.WEB.x264-TMSF
2021-03-11 22:11:04 PRE Skillshare.Adobe.After.Effects.Morph.3D.Type-SkilledHares
2021-03-11 22:11:05 TV-WEB-HD-X264 Hataraku.Saibou.BLACK.E08.CUSTOM.MULTi.1080p.WEB.x264-AMB3R
2021-03-11 22:11:10 TV-WEB-HD-X264 Nip.Tuck.S02E10.GERMAN.DUBBED.DL.720p.WEBRip.x264.iNTERNAL-TMSF
2021-03-11 22:14:22 TV-WEB-SD-X264 Svampebob.Firkant.S08E19.DANiSH.WEB.H264-DKiDS
2021-03-11 22:19:13 TV-WEB-HD-X264 Nip.Tuck.S02E11.GERMAN.DUBBED.DL.1080p.WEB.x264-TMSF
2021-03-11 22:19:27 TV-HD-X264 Fastest.Cars.in.the.Dirty.South.S02E04.Building.a.Legend.1080p.HDTV.x264-CRiMSON
2021-03-11 22:20:00 XXX-HD Make.My.Teen.Pussy.Squirt.XXX.iNTERNAL.2160p.WEBRiP.MP4-GUSH
2021-03-11 22:20:31 TV-WEB-HD-X264 Nip.Tuck.S02E11.GERMAN.DUBBED.DL.720p.WEBRip.x264.iNTERNAL-TMSF
2021-03-11 22:21:19 TV-HD-X264 UEL.2021.03.11.Ro16.1st.Leg.Manchester.United.Vs.AC.Milan.1080p.AHDTV.x264-DARKSPORT
2021-03-11 22:21:34 TV-WEB-HD-X264 Nip.Tuck.S02E12.GERMAN.DUBBED.DL.1080p.WEB.x264-TMSF
2021-03-11 22:22:01 TV-WEB-HD-X264 Nip.Tuck.S02E12.GERMAN.DUBBED.DL.720p.WEBRip.x264.iNTERNAL-TMSF
2021-03-11 22:22:15 MP3-WEB Nils_Hoffmann-Once_in_a_Blue_Moon_(Remixes)-(POM129)-WEB-2021-PTC
2021-03-11 22:24:45 TV-WEB-HD-X264 Nip.Tuck.S02E13.GERMAN.DUBBED.DL.1080p.WEB.x264-TMSF
2021-03-11 22:25:19 MP3-WEB Haruomi_Hosono_and_The_Yellow_Magic_Band-Paraiso-WEB-2019-KNOWN
2021-03-11 22:25:28 XXX-HD Make.My.Teen.Pussy.Squirt.2.XXX.iNTERNAL.720p.WEBRiP.MP4-GUSH
2021-03-11 22:25:46 MP3 Gossenboss_Mit_Zett-No_Future-TAPE-DE-2021-NOiR
2021-03-11 22:26:47 MP3-WEB Haruomi_Hosono-MEDICINE_COMPILATION_(2020_Remastering)-WEB-2020-KNOWN
2021-03-11 22:27:35 TV-WEB-HD-X264 Nip.Tuck.S02E13.GERMAN.DUBBED.DL.720p.WEBRip.x264.iNTERNAL-TMSF
2021-03-11 22:28:11 MP3-WEB Haruomi_Hosono-Omni_Sight_Seeing_(2020_Remastering)-WEB-2020-KNOWN
2021-03-11 22:28:12 TV-WEB-HD-X264 Nip.Tuck.S02E14.GERMAN.DUBBED.DL.1080p.WEB.x264-TMSF
2021-03-11 22:29:32 TV-WEB-HD-X264 Nip.Tuck.S02E14.GERMAN.DUBBED.DL.720p.WEBRip.x264.iNTERNAL-TMSF
2021-03-11 22:30:12 TV-WEB-HD-X264 Nip.Tuck.S02E15.GERMAN.DUBBED.DL.1080p.WEB.x264-TMSF
2021-03-11 22:30:38 MP3-WEB Haruomi_Hosono-Philharmony-WEB-2019-KNOWN
2021-03-11 22:31:07 GAMES-PS4 MLB.The.Show.20.PS4-DUPLEX
2021-03-11 22:31:37 TV-WEB-HD-X264 Nip.Tuck.S02E15.GERMAN.DUBBED.DL.720p.WEBRip.x264.iNTERNAL-TMSF
2021-03-11 22:32:35 X264-HD-NORD EM.Atletik.Polen.2021.Dag.2.Formiddag.DANiSH.720p.WEB.h264-FELTET
2021-03-11 22:32:39 TV-HD-X264 La.Stagiaire.S06E08.FiNAL.FRENCH.1080p.HDTV.H264-OBSTACLE
2021-03-11 22:32:55 TV-WEB-HD-X264 Nip.Tuck.S02E16.GERMAN.DUBBED.DL.1080p.WEB.x264-TMSF
2021-03-11 22:33:31 BLURAY Godzilla.2014.MULTi.COMPLETE.BLURAY-HDSource
2021-03-11 22:33:34 FLAC Olive-Extra_Virgin-(74321488672)-Limited_Edition-2CD-FLAC-1997-TVRf
2021-03-11 22:34:09 FLAC Juanes-La_Vida_Es_Un_Ratico_En_Vivo-(B001236-00)-ES-2CD-FLAC-2008-TVRf
2021-03-11 22:34:21 TV-WEB-HD-X264 Nip.Tuck.S02E16.GERMAN.DUBBED.DL.720p.WEBRip.x264.iNTERNAL-TMSF
2021-03-11 22:34:35 FLAC Aaliyah-Aaliyah-(7243_8_10907_2_5)-CD-FLAC-2001-TVRf
2021-03-11 22:34:49 FLAC Faithless-Sunday_8PM-(CHEKXCD503)-Reissue-2CD-FLAC-1999-TVRf
2021-03-11 22:35:25 GAMES-PS4 MLB.The.Show.20.Update.v1.08.PS4-DUPLEX
2021-03-11 22:37:13 TV-SD-X264 La.Stagiaire.S06E08.FiNAL.FRENCH.HDTV.x264-AMB3R
2021-03-11 22:37:59 X264-HD-NORD EM.Atletik.Polen.2021.Dag.2.Eftermiddag.DANiSH.720p.WEB.h264-FELTET
2021-03-11 22:39:52 TV-WEB-HD-X264 Faellessang.Hver.For.Sig.S03E08.DANiSH.720p.WEB.h264-DANES
2021-03-11 22:40:17 MP3-WEB Steve_OSullivan-Green_Trax-(TRP035)-WEB-2021-PTC
2021-03-11 22:43:45 MP3-WEB H_Magnum-Te_Quiero-SINGLE-WEB-FR-2021-GUESTS
2021-03-11 22:43:58 BLURAY Max.Payne.2008.EXTENDED.DIRECTORS.CUT.MULTi.COMPLETE.BLURAY.iNTERNAL-LiEFERDiENST
2021-03-11 22:44:00 MP3-WEB Loveni-Xxlov-SINGLE-WEB-FR-2021-GUESTS
2021-03-11 22:44:21 MP3-WEB Deeloc-Retro_(Feat_Freeze_Corleone)-SINGLE-WEB-FR-2021-GUESTS
2021-03-11 22:44:38 MP3-WEB 2Pole-Neowise-(OFF232)-WEB-2021-PTC
2021-03-11 22:47:40 WEB-HD-X264 Laegens.Bord.2021.03.11.DANiSH.720p.WEB.h264-DANES
2021-03-11 22:47:54 X264-HD-NORD EM.Atletik.Polen.2021.Dag.3.Formiddag.DANiSH.720p.WEB.h264-FELTET
2021-03-11 22:48:31 TV-HD-X264 A.Discovery.of.Witches.S02E02.MULTi.1080p.HDTV.H264-OBSTACLE
2021-03-11 22:49:37 TV-HD-X264 La.Stagiaire.S06E08.FiNAL.FRENCH.720p.HDTV.x264-OBSTACLE
2021-03-11 22:50:08 TV-SD-X264 A.Discovery.of.Witches.S02E02.FRENCH.HDTV.x264-AMB3R
2021-03-11 22:52:43 X264-HD-NORD EM.Atletik.Polen.2021.Dag.3.Eftermiddag.DANiSH.720p.WEB.h264-FELTET
2021-03-11 22:53:32 XXX-HD Make.My.Teen.Pussy.Squirt.2.XXX.iNTERNAL.1080p.WEBRiP.MP4-GUSH
2021-03-11 22:53:40 BLURAY-X264 Scout.Toujours.1985.FRENCH.720p.BluRay.x264-LOFiDEL
2021-03-11 22:55:07 TV-WEB-HD-X264 RuPauls.Drag.Race.UK.S02E09.1080p.WEB.h264-SECRETOS
2021-03-11 22:55:22 BLURAY-X264 Scout.Toujours.1985.FRENCH.1080p.BluRay.x264-LOFiDEL
2021-03-11 22:55:53 GAMES-PS4 DISSIDIA.FINAL.FANTASY.NT.Update.v1.44.PS4-UNLiMiTED
2021-03-11 22:56:11 TV-WEB-HD-X264 RuPauls.Drag.Race.UK.S02E09.720p.WEB.h264-SECRETOS
2021-03-11 22:56:24 MP3-WEB Dry-Atlantis_3-SINGLE-WEB-FR-2021-GUESTS
2021-03-11 22:56:34 MP3-WEB KLN_93-YZ_Ou_MBK-SINGLE-WEB-FR-2021-GUESTS
2021-03-11 22:56:50 MP3-WEB Falcko-Tu_Lui_Diras-SINGLE-WEB-FR-2021-GUESTS
2021-03-11 22:57:11 TV-WEB-SD-X264 RuPauls.Drag.Race.UK.S02E09.WEB.h264-SECRETOS
2021-03-11 22:58:18 XXX-HD Make.My.Teen.Pussy.Squirt.2.XXX.iNTERNAL.2160p.WEBRiP.MP4-GUSH
2021-03-11 22:59:06 TV-WEB-HD-X264 The.Promised.Neverland.Second.Season.E09.SUBFRENCH.1080p.WEB.x264-AMB3R
2021-03-11 23:01:47 MP3-WEB Viels-Timeless_Speaks-(NWHITE005D)-WEB-2021-AOV_INT
2021-03-11 23:02:44 BLURAY Scout.Toujours.1985.FRENCH.COMPLETE.BLURAY-RAiEBLEUE
2021-03-11 23:03:38 MP3-WEB Chihiro_Hikari-Intergalactic_Acid_EP-(303PH11)-WEB-2021-AOV_INT
2021-03-11 23:04:12 MP3-WEB Kontain-Fear_Is_The_Only_Darkness-(CRG023)-WEB-2021-AOV_INT
2021-03-11 23:05:03 TV-HD-X264 Bitchin.Rides.S07E12.Back.From.the.Dead.1080p.HDTV.x264-CRiMSON
2021-03-11 23:05:13 MP3-WEB Nik_Wel-Going_To_Die-(DRE280)-WEB-2021-AOV_INT
2021-03-11 23:06:32 GAMES-PS4 DISSIDIA.FINAL.FANTASY.NT.DLC.Pack.PS4-UNLiMiTED
2021-03-11 23:06:42 MP3-WEB Casement-Mutiny_EP-(NUP082)-WEB-2021-PTC
2021-03-11 23:07:05 MP3-WEB Denham_Audio-Transcendence-(LT080)-WEB-2021-PTC
2021-03-11 23:07:19 MP3-WEB Two_Shell-SoulCity_EP-(LIVITY045)-WEB-2021-PTC
2021-03-11 23:07:51 BDRIP-X264 Scout.Toujours.1985.iNTERNAL.FRENCH.BDRip.x264-LOFiDEL
2021-03-11 23:07:58 TV-WEB-HD-X264 Riverdale.S05E07.German.DL.720p.WEB.x264-WvF
2021-03-11 23:08:05 TV-HD-X264 Bitchin.Rides.S07E12.Back.From.the.Dead.720p.HDTV.x264-CRiMSON
2021-03-11 23:08:37 TV-SD-X264 Bitchin.Rides.S07E12.Back.From.the.Dead.HDTV.x264-CRiMSON
2021-03-11 23:08:55 TV-WEB-HD-X264 Telenovela.S01E07.German.1080p.WEB.x264-WvF
2021-03-11 23:09:50 TV-WEB-HD-X264 Telenovela.S01E08.German.1080p.WEB.x264-WvF
2021-03-11 23:10:48 TV-WEB-HD-X264 Det.Politiske.Talkshow.S03E01.DANiSH.720p.WEB.h264-DANES
2021-03-11 23:13:06 MP3-WEB Ichon-Domino_-_A_COLORS_ENCORE-WEB-FR-2021-GUESTS
2021-03-11 23:13:16 MP3-WEB Kaneki-Freestyle_Hall_3-SINGLE-WEB-FR-2021-GUESTS
2021-03-11 23:13:25 MP3-WEB ASHE_22-Cro_Cop-SINGLE-WEB-FR-2021-GUESTS
2021-03-11 23:13:37 MP3-WEB Doria-Lecon-SINGLE-WEB-FR-2021-GUESTS
2021-03-11 23:13:39 TV-HD-X264 A.Discovery.of.Witches.S02E02.FRENCH.720p.HDTV.x264-OBSTACLE
2021-03-11 23:13:49 MP3-WEB John_Scorp-Mouiller_Le_Maillot_(Feat_Joe_Dwet_File_Still_Fresh)-SINGLE-WEB-FR-2021-GUESTS
2021-03-11 23:14:05 MP3-WEB Arma_Jackson-Distance_(Feat_Tayc)-SINGLE-WEB-FR-2021-GUESTS
2021-03-11 23:16:02 MP3-WEB Screamarts-Endless_Journey_Inwards-(FLXA131)-WEB-2021-PTC
2021-03-11 23:16:20 MP3-WEB Sleepnet-First_Light-(VSN079)-WEB-2021-PTC
2021-03-11 23:17:06 MP3-WEB O_(Phase)-Before_This-(MDWXLP001)-WEB-2021-AOV_INT
2021-03-11 23:19:38 MP3-WEB DJ_Dextro-Helical_Structure-(K9016)-WEB-2021-AOV_INT
2021-03-11 23:26:25 GAMES-PC Dragon.Ball.Z.Kakarot.A.New.Power.Awakens.Part.2.Update.v1.50-CODEX
2021-03-11 23:27:04 TV-HD-X264 South.Park.S24E00.South.ParQ.Vaccination.Special.SUBFRENCH.1080p.HDTV.H264-OBSTACLE
2021-03-11 23:27:06 GAMES-PC The.Game.of.Life.2.Age.of.Giants-CODEX
2021-03-11 23:27:38 GAMES-PC Visage.Update.v3.04-CODEX
2021-03-11 23:31:31 TV-SD-X264 South.Park.S24E00.South.ParQ.Vaccination.Special.SUBFRENCH.HDTV.x264-OBSTACLE
2021-03-11 23:34:20 TV-WEB-SD-X264 In.the.Dark.2019.S01E07.FRENCH.WEB.H264-FREAMON
2021-03-11 23:34:29 TV-WEB-HD-X264 In.the.Dark.2019.S01E07.FRENCH.720p.WEB.H264-FREAMON
2021-03-11 23:37:08 TV-HD-X264 South.Park.S24E00.South.ParQ.Vaccination.Special.SUBFRENCH.720p.HDTV.x264-OBSTACLE
2021-03-11 23:39:44 TV-WEB-HD-X264 Dr.STONE.Second.Season.E03.MULTi.1080p.WEB.x264-AMB3R
2021-03-11 23:40:33 TV-HD-X264 Inside.Hotel.Chocolat.Part1.2019.720p.HDTV.x264.CZ-iCZi
2021-03-11 23:40:34 TV-HD-X264 Inside.Hotel.Chocolat.Part2.2019.720p.HDTV.x264.CZ-iCZi
2021-03-11 23:40:36 TV-HD-X265 Inside.Hotel.Chocolat.Part1.2019.1080p.HDTV.x265.iNTERNAL.CZ-iCZi
2021-03-11 23:40:37 TV-HD-X265 Inside.Hotel.Chocolat.Part2.2019.1080p.HDTV.x265.iNTERNAL.CZ-iCZi
2021-03-11 23:44:02 MP3 Theo_Kottis_-_Circoloco_179-SAT-03-07-2021-TALiON
2021-03-11 23:44:58 TV-SD-X264 Beyond.Belief.Fact.or.Fiction.S03E01.HR.PDTV.x264.CZ-iCZi
2021-03-11 23:45:01 MP3 The_Blessed_Madonna_-_We_Still_Believe-CABLE-03-07-2021-TALiON
2021-03-11 23:45:01 TV-SD-X264 Beyond.Belief.Fact.or.Fiction.S03E02.HR.PDTV.x264.CZ-iCZi
2021-03-11 23:45:13 TV-SD-X264 Beyond.Belief.Fact.or.Fiction.S03E04.HR.PDTV.x264.CZ-iCZi
2021-03-11 23:45:14 TV-SD-X264 Beyond.Belief.Fact.or.Fiction.S03E03.HR.PDTV.x264.CZ-iCZi
2021-03-11 23:45:15 TV-SD-X264 Beyond.Belief.Fact.or.Fiction.S03E05.HR.PDTV.x264.CZ-iCZi
2021-03-11 23:45:15 TV-SD-X264 Beyond.Belief.Fact.or.Fiction.S03E09.HR.PDTV.x264.CZ-iCZi
2021-03-11 23:45:15 TV-SD-X264 Beyond.Belief.Fact.or.Fiction.S03E07.HR.PDTV.x264.CZ-iCZi
2021-03-11 23:45:16 TV-SD-X264 Beyond.Belief.Fact.or.Fiction.S03E08.HR.PDTV.x264.CZ-iCZi
2021-03-11 23:45:18 TV-SD-X264 Beyond.Belief.Fact.or.Fiction.S03E10.HR.PDTV.x264.CZ-iCZi
2021-03-11 23:45:19 TV-SD-X264 Beyond.Belief.Fact.or.Fiction.S03E11.HR.PDTV.x264.CZ-iCZi
2021-03-11 23:45:21 TV-SD-X264 Beyond.Belief.Fact.or.Fiction.S03E12.HR.PDTV.x264.CZ-iCZi
2021-03-11 23:45:23 TV-SD-X264 Beyond.Belief.Fact.or.Fiction.S03E13.HR.PDTV.x264.CZ-iCZi
2021-03-11 23:45:34 TV-SD-X264 Beyond.Belief.Fact.or.Fiction.S04E01.HR.PDTV.x264.CZ-iCZi
2021-03-11 23:45:37 TV-SD-X264 Beyond.Belief.Fact.or.Fiction.S04E02.HR.PDTV.x264.CZ-iCZi
2021-03-11 23:45:39 TV-SD-X264 Beyond.Belief.Fact.or.Fiction.S04E03.HR.PDTV.x264.CZ-iCZi
2021-03-11 23:45:41 TV-SD-X264 Beyond.Belief.Fact.or.Fiction.S04E04.HR.PDTV.x264.CZ-iCZi
2021-03-11 23:45:44 TV-SD-X264 Beyond.Belief.Fact.or.Fiction.S04E05.HR.PDTV.x264.CZ-iCZi
2021-03-11 23:45:48 TV-SD-X264 Beyond.Belief.Fact.or.Fiction.S04E07.HR.PDTV.x264.CZ-iCZi
2021-03-11 23:45:49 TV-SD-X264 Beyond.Belief.Fact.or.Fiction.S04E08.HR.PDTV.x264.CZ-iCZi
2021-03-11 23:45:52 TV-SD-X264 Beyond.Belief.Fact.or.Fiction.S04E09.HR.PDTV.x264.CZ-iCZi
2021-03-11 23:45:53 TV-SD-X264 Beyond.Belief.Fact.or.Fiction.S04E11.HR.PDTV.x264.CZ-iCZi
2021-03-11 23:45:54 TV-SD-X264 Beyond.Belief.Fact.or.Fiction.S04E06.HR.PDTV.x264.CZ-iCZi
2021-03-11 23:45:57 TV-SD-X264 Beyond.Belief.Fact.or.Fiction.S04E12.HR.PDTV.x264.CZ-iCZi
2021-03-11 23:45:58 TV-SD-X264 Beyond.Belief.Fact.or.Fiction.S04E13.HR.PDTV.x264.CZ-iCZi
2021-03-11 23:46:00 MP3 Maxinne_-_Toolroom_Radio-CABLE-03-07-2021-TALiON
2021-03-11 23:46:05 TV-WEB-HD-X264 Cry.Wolf.2020.S01E01.MULTi.1080p.WEB.H264-AVON
2021-03-11 23:46:13 TV-HD-X264 Its.a.Sin.S01E01.720p.HDTV.x264.CZ-iCZi
2021-03-11 23:46:16 TV-HD-X265 Its.a.Sin.S01E01.1080p.HDTV.x265.iNTERNAL.CZ-iCZi
2021-03-11 23:46:19 TV-HD-X264 Condor.S02E08.The.Road.We.Take.720p.HDTV.x264.CZ-iCZi
2021-03-11 23:46:23 TV-HD-X265 Condor.S02E08.The.Road.We.Take.1080p.HDTV.x265.iNTERNAL.CZ-iCZi
2021-03-11 23:46:37 TV-WEB-HD-X264 Cry.Wolf.2020.S01E02.MULTi.1080p.WEB.H264-AVON
2021-03-11 23:46:43 TV-WEB-HD-X264 Cry.Wolf.2020.S01E03.MULTi.1080p.WEB.H264-AVON
2021-03-11 23:47:01 MP3 Solardo_-_The_Spot_166__Incl_Vintage_Culture_Guestmix-CABLE-03-08-2021-TALiON
2021-03-11 23:48:01 MP3 Alan_Fitzpatrick_-_We_Are_The_Brave-CABLE-03-09-2021-TALiON
2021-03-11 23:48:47 TV-HD-X264 Tyler.Perrys.The.Oval.S02E03.SUBFRENCH.1080p.HDTV.H264-OBSTACLE
2021-03-11 23:48:56 MP3-WEB Binary_Finary_-_1998_(Jose_De_Mara_Remix)-(ARMD1579)-WEB-2021-L4M_INT
2021-03-11 23:49:00 MP3 Marco_Bailey_-_Materia_Music_096__Incl_Deas_Guestmix-CABLE-03-09-2021-TALiON
2021-03-11 23:49:06 MP3-WEB Alesso_and_Armin_Van_Buuren_-_Leave_A_Little_Love_(Club_Mix)-(ARMD1581)-WEB-2021-L4M_INT
2021-03-11 23:49:44 TV-WEB-HD-X264 Cry.Wolf.2020.S01E04.MULTi.1080p.WEB.H264-AVON
2021-03-11 23:49:48 TV-WEB-HD-X264 Cry.Wolf.2020.S01E05.MULTi.1080p.WEB.H264-AVON
2021-03-11 23:50:02 MP3 Purple_Disco_Machine_-_Glitterbox_Radio_205-CABLE-03-07-2021-TALiON
2021-03-11 23:50:26 TV-WEB-HD-X264 Cry.Wolf.2020.S01E06.MULTi.1080p.WEB.H264-AVON
2021-03-11 23:50:31 MP3 Bliss_Team-You_Make_Me_Cry-(74321_28399_2)-CDM-1995-iNViNCiBLE_iNT
2021-03-11 23:50:34 TV-WEB-HD-X264 Cry.Wolf.2020.S01E07.MULTi.1080p.WEB.H264-AVON
2021-03-11 23:50:39 TV-WEB-HD-X264 Cry.Wolf.2020.S01E08.FiNAL.MULTi.1080p.WEB.H264-AVON
2021-03-11 23:50:50 TV-WEB-HD-X264 Cry.Wolf.2020.S01E01.FRENCH.720p.WEB.H264-AVON
2021-03-11 23:50:53 TV-WEB-HD-X264 Cry.Wolf.2020.S01E02.FRENCH.720p.WEB.H264-AVON
2021-03-11 23:50:58 TV-WEB-HD-X264 Cry.Wolf.2020.S01E03.FRENCH.720p.WEB.H264-AVON
2021-03-11 23:51:01 MP3 Sister_Bliss_-_In_Session-CABLE-03-07-2021-TALiON
2021-03-11 23:51:08 GAMES-NSW Remothered_Broken_Porcelain_Update_v1.8.0_NSW-SUXXORS
2021-03-11 23:52:01 MP3 Mark_Farina_and_Homero_Espinosa_-_Traxsource_LIVE_318-CABLE-03-07-2021-TALiON
2021-03-11 23:52:44 TV-WEB-HD-X264 Cry.Wolf.2020.S01E04.FRENCH.720p.WEB.H264-AVON
2021-03-11 23:52:47 TV-WEB-HD-X264 Cry.Wolf.2020.S01E05.FRENCH.720p.WEB.H264-AVON
2021-03-11 23:52:51 TV-WEB-HD-X264 Cry.Wolf.2020.S01E06.FRENCH.720p.WEB.H264-AVON
2021-03-11 23:52:56 TV-WEB-HD-X264 Cry.Wolf.2020.S01E07.FRENCH.720p.WEB.H264-AVON
2021-03-11 23:53:00 MP3 Sam_Feldt_-_Heartfeldt_Radio_270-CABLE-03-08-2021-TALiON
2021-03-11 23:53:06 TV-WEB-HD-X264 Cry.Wolf.2020.S01E08.FiNAL.FRENCH.720p.WEB.H264-AVON
2021-03-11 23:53:20 TV-WEB-SD-X264 Cry.Wolf.2020.S01E01.FRENCH.WEB.H264-AVON
2021-03-11 23:53:21 TV-WEB-SD-X264 Cry.Wolf.2020.S01E02.FRENCH.WEB.H264-AVON
2021-03-11 23:53:31 TV-WEB-SD-X264 Cry.Wolf.2020.S01E03.FRENCH.WEB.H264-AVON
2021-03-11 23:53:32 TV-SD-X264 Tyler.Perrys.The.Oval.S02E03.SUBFRENCH.HDTV.x264-OBSTACLE
2021-03-11 23:54:01 MP3 Lucas_and_Steve_-_Skyline_Sessions_218-CABLE-03-08-2021-TALiON
2021-03-11 23:54:38 TV-WEB-SD-X264 Cry.Wolf.2020.S01E04.FRENCH.WEB.H264-AVON
2021-03-11 23:54:41 TV-SD-X264 Its.a.Sin.S01E01.HDTV.x264.CZ-iCZi
2021-03-11 23:54:41 TV-WEB-SD-X264 Cry.Wolf.2020.S01E05.FRENCH.WEB.H264-AVON
2021-03-11 23:54:44 TV-WEB-SD-X264 Cry.Wolf.2020.S01E06.FRENCH.WEB.H264-AVON
2021-03-11 23:54:44 TV-SD-X264 Condor.S02E08.The.Road.We.Take.HDTV.x264.CZ-iCZi
2021-03-11 23:54:52 0DAY DIGITALVISION_NUCODA_AND_PHOENIX_V2020.1_KEYGEN_ONLY-XFORCE
2021-03-11 23:55:01 MP3 DJ_Obscene_-_Ultra_Music_Radio__Incl_Kastra_Guestmix-CABLE-03-09-2021-TALiON
2021-03-11 23:55:10 TV-WEB-SD-X264 Cry.Wolf.2020.S01E07.FRENCH.WEB.H264-AVON
2021-03-11 23:55:14 TV-WEB-SD-X264 Cry.Wolf.2020.S01E08.FiNAL.FRENCH.WEB.H264-AVON
2021-03-11 23:56:01 MP3 Mike_Williams_-_On_Track_217-CABLE-03-09-2021-TALiON
2021-03-11 23:56:09 MP3-WEB plusma_And_FatB-Initial-WEB-2019-REPRiNT
2021-03-11 23:57:00 MP3 EDX_-_No_Xcuses_524-CABLE-03-10-2021-TALiON
2021-03-11 23:58:01 MP3 Maykel_Piron_and_Ben_Malone_-_Armada_Next-CABLE-03-10-2021-TALiON
2021-03-11 23:59:00 MP3 Al_Gibbs_-_The_Official_Beatport_Top_10-CABLE-03-10-2021-TALiON
2021-03-11 23:59:48 TV-HD-X265 Ray.Charles.Live.at.Montreux.1997.1080p.HDTV.x265.iNTERNAL-iCZi